<?xml version="1.0" encoding="UTF-8" standalone="no" ?>
<gpx xmlns="http://www.topografix.com/GPX/1/1" xmlns:xsi="http://www.w3.org/2001/XMLSchema-instance" xsi:schemaLocation="http://www.topografix.com/GPX/1/1 http://www.topografix.com/GPX/1/1/gpx.xsd" version="1.1" creator="VisuGPX - https://www.visugpx.com">
  <metadata>
    <name>Simorre 2016-06-15</name>
    <desc><![CDATA[
]]></desc>
  </metadata>
  <trk>
    <name><![CDATA[Simorre 2016-06-15]]></name>
    <trkseg>
      <trkpt lat="43.4491" lon="0.73382">
        <ele>203</ele>
        <time>2016-06-15T08:24:25.000Z</time>
      </trkpt>
      <trkpt lat="43.4491" lon="0.73382">
        <ele>203.1</ele>
        <time>2016-06-15T08:24:26.000Z</time>
      </trkpt>
      <trkpt lat="43.44905" lon="0.73392">
        <ele>203.9</ele>
        <time>2016-06-15T08:24:47.000Z</time>
      </trkpt>
      <trkpt lat="43.44896" lon="0.73397">
        <ele>203.8</ele>
        <time>2016-06-15T08:24:59.000Z</time>
      </trkpt>
      <trkpt lat="43.44888" lon="0.73403">
        <ele>203.2</ele>
        <time>2016-06-15T08:25:13.000Z</time>
      </trkpt>
      <trkpt lat="43.4488" lon="0.73407">
        <ele>193</ele>
        <time>2016-06-15T08:25:25.000Z</time>
      </trkpt>
      <trkpt lat="43.44871" lon="0.73413">
        <ele>196.9</ele>
        <time>2016-06-15T08:25:33.000Z</time>
      </trkpt>
      <trkpt lat="43.44864" lon="0.73422">
        <ele>199.4</ele>
        <time>2016-06-15T08:25:41.000Z</time>
      </trkpt>
      <trkpt lat="43.44856" lon="0.73429">
        <ele>199.9</ele>
        <time>2016-06-15T08:25:53.000Z</time>
      </trkpt>
      <trkpt lat="43.44847" lon="0.73434">
        <ele>201.8</ele>
        <time>2016-06-15T08:26:2.000Z</time>
      </trkpt>
      <trkpt lat="43.44838" lon="0.73438">
        <ele>205.8</ele>
        <time>2016-06-15T08:26:12.000Z</time>
      </trkpt>
      <trkpt lat="43.44828" lon="0.73443">
        <ele>206.2</ele>
        <time>2016-06-15T08:26:22.000Z</time>
      </trkpt>
      <trkpt lat="43.4482" lon="0.7345">
        <ele>206.2</ele>
        <time>2016-06-15T08:26:31.000Z</time>
      </trkpt>
      <trkpt lat="43.44812" lon="0.73456">
        <ele>205.9</ele>
        <time>2016-06-15T08:26:43.000Z</time>
      </trkpt>
      <trkpt lat="43.44802" lon="0.73456">
        <ele>205.8</ele>
        <time>2016-06-15T08:26:54.000Z</time>
      </trkpt>
      <trkpt lat="43.44792" lon="0.73456">
        <ele>205.6</ele>
        <time>2016-06-15T08:27:1.000Z</time>
      </trkpt>
      <trkpt lat="43.44783" lon="0.73456">
        <ele>205.4</ele>
        <time>2016-06-15T08:27:8.000Z</time>
      </trkpt>
      <trkpt lat="43.44774" lon="0.73456">
        <ele>205.3</ele>
        <time>2016-06-15T08:27:17.000Z</time>
      </trkpt>
      <trkpt lat="43.44764" lon="0.73458">
        <ele>205.2</ele>
        <time>2016-06-15T08:27:25.000Z</time>
      </trkpt>
      <trkpt lat="43.44755" lon="0.73459">
        <ele>205</ele>
        <time>2016-06-15T08:27:32.000Z</time>
      </trkpt>
      <trkpt lat="43.44745" lon="0.73462">
        <ele>205</ele>
        <time>2016-06-15T08:27:39.000Z</time>
      </trkpt>
      <trkpt lat="43.44736" lon="0.73466">
        <ele>204.9</ele>
        <time>2016-06-15T08:27:46.000Z</time>
      </trkpt>
      <trkpt lat="43.44728" lon="0.7347">
        <ele>204.9</ele>
        <time>2016-06-15T08:27:54.000Z</time>
      </trkpt>
      <trkpt lat="43.44718" lon="0.73475">
        <ele>204.8</ele>
        <time>2016-06-15T08:28:2.000Z</time>
      </trkpt>
      <trkpt lat="43.44709" lon="0.73479">
        <ele>204.8</ele>
        <time>2016-06-15T08:28:10.000Z</time>
      </trkpt>
      <trkpt lat="43.447" lon="0.73482">
        <ele>204.8</ele>
        <time>2016-06-15T08:28:17.000Z</time>
      </trkpt>
      <trkpt lat="43.44691" lon="0.73486">
        <ele>204.8</ele>
        <time>2016-06-15T08:28:26.000Z</time>
      </trkpt>
      <trkpt lat="43.44682" lon="0.73488">
        <ele>204.8</ele>
        <time>2016-06-15T08:28:34.000Z</time>
      </trkpt>
      <trkpt lat="43.44673" lon="0.73488">
        <ele>204.8</ele>
        <time>2016-06-15T08:28:42.000Z</time>
      </trkpt>
      <trkpt lat="43.44664" lon="0.73487">
        <ele>204.8</ele>
        <time>2016-06-15T08:28:51.000Z</time>
      </trkpt>
      <trkpt lat="43.44654" lon="0.73486">
        <ele>204.8</ele>
        <time>2016-06-15T08:29:3.000Z</time>
      </trkpt>
      <trkpt lat="43.44645" lon="0.73484">
        <ele>205.1</ele>
        <time>2016-06-15T08:29:14.000Z</time>
      </trkpt>
      <trkpt lat="43.44635" lon="0.73483">
        <ele>205.2</ele>
        <time>2016-06-15T08:29:22.000Z</time>
      </trkpt>
      <trkpt lat="43.44626" lon="0.73483">
        <ele>205.2</ele>
        <time>2016-06-15T08:29:30.000Z</time>
      </trkpt>
      <trkpt lat="43.44616" lon="0.73486">
        <ele>205.3</ele>
        <time>2016-06-15T08:29:39.000Z</time>
      </trkpt>
      <trkpt lat="43.44607" lon="0.73486">
        <ele>205.3</ele>
        <time>2016-06-15T08:29:48.000Z</time>
      </trkpt>
      <trkpt lat="43.44597" lon="0.73484">
        <ele>205.3</ele>
        <time>2016-06-15T08:29:56.000Z</time>
      </trkpt>
      <trkpt lat="43.44588" lon="0.73481">
        <ele>205.2</ele>
        <time>2016-06-15T08:30:5.000Z</time>
      </trkpt>
      <trkpt lat="43.44579" lon="0.73477">
        <ele>205.1</ele>
        <time>2016-06-15T08:30:12.000Z</time>
      </trkpt>
      <trkpt lat="43.44571" lon="0.7347">
        <ele>205.1</ele>
        <time>2016-06-15T08:30:20.000Z</time>
      </trkpt>
      <trkpt lat="43.44562" lon="0.73468">
        <ele>205</ele>
        <time>2016-06-15T08:30:28.000Z</time>
      </trkpt>
      <trkpt lat="43.44553" lon="0.73464">
        <ele>204.9</ele>
        <time>2016-06-15T08:30:35.000Z</time>
      </trkpt>
      <trkpt lat="43.44543" lon="0.73461">
        <ele>204.8</ele>
        <time>2016-06-15T08:30:43.000Z</time>
      </trkpt>
      <trkpt lat="43.44533" lon="0.73459">
        <ele>204.7</ele>
        <time>2016-06-15T08:30:51.000Z</time>
      </trkpt>
      <trkpt lat="43.44524" lon="0.73457">
        <ele>204.7</ele>
        <time>2016-06-15T08:30:59.000Z</time>
      </trkpt>
      <trkpt lat="43.44515" lon="0.73454">
        <ele>204.6</ele>
        <time>2016-06-15T08:31:7.000Z</time>
      </trkpt>
      <trkpt lat="43.44507" lon="0.73451">
        <ele>204.6</ele>
        <time>2016-06-15T08:31:14.000Z</time>
      </trkpt>
      <trkpt lat="43.44497" lon="0.73448">
        <ele>204.5</ele>
        <time>2016-06-15T08:31:22.000Z</time>
      </trkpt>
      <trkpt lat="43.44488" lon="0.73445">
        <ele>204.5</ele>
        <time>2016-06-15T08:31:30.000Z</time>
      </trkpt>
      <trkpt lat="43.44479" lon="0.73441">
        <ele>204.5</ele>
        <time>2016-06-15T08:31:37.000Z</time>
      </trkpt>
      <trkpt lat="43.44471" lon="0.73436">
        <ele>204.5</ele>
        <time>2016-06-15T08:31:44.000Z</time>
      </trkpt>
      <trkpt lat="43.44462" lon="0.73429">
        <ele>204.5</ele>
        <time>2016-06-15T08:31:52.000Z</time>
      </trkpt>
      <trkpt lat="43.44453" lon="0.73423">
        <ele>204.4</ele>
        <time>2016-06-15T08:32:1.000Z</time>
      </trkpt>
      <trkpt lat="43.44445" lon="0.73417">
        <ele>204.4</ele>
        <time>2016-06-15T08:32:8.000Z</time>
      </trkpt>
      <trkpt lat="43.44437" lon="0.73411">
        <ele>204.3</ele>
        <time>2016-06-15T08:32:15.000Z</time>
      </trkpt>
      <trkpt lat="43.44427" lon="0.73407">
        <ele>204.3</ele>
        <time>2016-06-15T08:32:23.000Z</time>
      </trkpt>
      <trkpt lat="43.44419" lon="0.73402">
        <ele>204.3</ele>
        <time>2016-06-15T08:32:30.000Z</time>
      </trkpt>
      <trkpt lat="43.44409" lon="0.73397">
        <ele>204.2</ele>
        <time>2016-06-15T08:32:38.000Z</time>
      </trkpt>
      <trkpt lat="43.444" lon="0.73393">
        <ele>204.2</ele>
        <time>2016-06-15T08:32:46.000Z</time>
      </trkpt>
      <trkpt lat="43.44391" lon="0.73391">
        <ele>204.1</ele>
        <time>2016-06-15T08:32:54.000Z</time>
      </trkpt>
      <trkpt lat="43.44382" lon="0.7339">
        <ele>204.2</ele>
        <time>2016-06-15T08:33:2.000Z</time>
      </trkpt>
      <trkpt lat="43.44372" lon="0.73388">
        <ele>204.3</ele>
        <time>2016-06-15T08:33:10.000Z</time>
      </trkpt>
      <trkpt lat="43.44362" lon="0.73386">
        <ele>204.4</ele>
        <time>2016-06-15T08:33:18.000Z</time>
      </trkpt>
      <trkpt lat="43.44353" lon="0.73388">
        <ele>204.4</ele>
        <time>2016-06-15T08:33:26.000Z</time>
      </trkpt>
      <trkpt lat="43.44345" lon="0.73393">
        <ele>204.4</ele>
        <time>2016-06-15T08:33:33.000Z</time>
      </trkpt>
      <trkpt lat="43.44338" lon="0.73401">
        <ele>204.4</ele>
        <time>2016-06-15T08:33:40.000Z</time>
      </trkpt>
      <trkpt lat="43.44331" lon="0.73411">
        <ele>204.3</ele>
        <time>2016-06-15T08:33:48.000Z</time>
      </trkpt>
      <trkpt lat="43.44324" lon="0.7342">
        <ele>204.3</ele>
        <time>2016-06-15T08:33:55.000Z</time>
      </trkpt>
      <trkpt lat="43.44318" lon="0.73429">
        <ele>204.3</ele>
        <time>2016-06-15T08:34:2.000Z</time>
      </trkpt>
      <trkpt lat="43.44312" lon="0.7344">
        <ele>204.3</ele>
        <time>2016-06-15T08:34:10.000Z</time>
      </trkpt>
      <trkpt lat="43.44305" lon="0.7345">
        <ele>204.4</ele>
        <time>2016-06-15T08:34:17.000Z</time>
      </trkpt>
      <trkpt lat="43.443" lon="0.7346">
        <ele>204.5</ele>
        <time>2016-06-15T08:34:25.000Z</time>
      </trkpt>
      <trkpt lat="43.44293" lon="0.7347">
        <ele>204.6</ele>
        <time>2016-06-15T08:34:33.000Z</time>
      </trkpt>
      <trkpt lat="43.44287" lon="0.73481">
        <ele>204.8</ele>
        <time>2016-06-15T08:34:41.000Z</time>
      </trkpt>
      <trkpt lat="43.44281" lon="0.7349">
        <ele>204.9</ele>
        <time>2016-06-15T08:34:48.000Z</time>
      </trkpt>
      <trkpt lat="43.44274" lon="0.735">
        <ele>204.9</ele>
        <time>2016-06-15T08:34:56.000Z</time>
      </trkpt>
      <trkpt lat="43.44267" lon="0.73509">
        <ele>205</ele>
        <time>2016-06-15T08:35:3.000Z</time>
      </trkpt>
      <trkpt lat="43.4426" lon="0.73518">
        <ele>205.1</ele>
        <time>2016-06-15T08:35:11.000Z</time>
      </trkpt>
      <trkpt lat="43.44252" lon="0.73526">
        <ele>205.1</ele>
        <time>2016-06-15T08:35:19.000Z</time>
      </trkpt>
      <trkpt lat="43.44243" lon="0.73532">
        <ele>205.1</ele>
        <time>2016-06-15T08:35:27.000Z</time>
      </trkpt>
      <trkpt lat="43.44234" lon="0.73534">
        <ele>205.1</ele>
        <time>2016-06-15T08:35:34.000Z</time>
      </trkpt>
      <trkpt lat="43.44225" lon="0.73538">
        <ele>205.1</ele>
        <time>2016-06-15T08:35:42.000Z</time>
      </trkpt>
      <trkpt lat="43.44216" lon="0.73542">
        <ele>205.1</ele>
        <time>2016-06-15T08:35:49.000Z</time>
      </trkpt>
      <trkpt lat="43.44207" lon="0.73548">
        <ele>205</ele>
        <time>2016-06-15T08:35:57.000Z</time>
      </trkpt>
      <trkpt lat="43.44198" lon="0.73553">
        <ele>205</ele>
        <time>2016-06-15T08:36:5.000Z</time>
      </trkpt>
      <trkpt lat="43.44189" lon="0.73559">
        <ele>205</ele>
        <time>2016-06-15T08:36:13.000Z</time>
      </trkpt>
      <trkpt lat="43.4418" lon="0.73565">
        <ele>205</ele>
        <time>2016-06-15T08:36:21.000Z</time>
      </trkpt>
      <trkpt lat="43.4417" lon="0.7357">
        <ele>205</ele>
        <time>2016-06-15T08:36:29.000Z</time>
      </trkpt>
      <trkpt lat="43.44161" lon="0.73575">
        <ele>205</ele>
        <time>2016-06-15T08:36:37.000Z</time>
      </trkpt>
      <trkpt lat="43.44152" lon="0.73581">
        <ele>205</ele>
        <time>2016-06-15T08:36:45.000Z</time>
      </trkpt>
      <trkpt lat="43.44143" lon="0.73586">
        <ele>205.1</ele>
        <time>2016-06-15T08:36:53.000Z</time>
      </trkpt>
      <trkpt lat="43.44134" lon="0.73589">
        <ele>205.5</ele>
        <time>2016-06-15T08:37:4.000Z</time>
      </trkpt>
      <trkpt lat="43.44125" lon="0.73586">
        <ele>205.9</ele>
        <time>2016-06-15T08:38:6.000Z</time>
      </trkpt>
      <trkpt lat="43.44116" lon="0.73583">
        <ele>205.9</ele>
        <time>2016-06-15T08:38:15.000Z</time>
      </trkpt>
      <trkpt lat="43.44107" lon="0.73578">
        <ele>206</ele>
        <time>2016-06-15T08:38:23.000Z</time>
      </trkpt>
      <trkpt lat="43.44099" lon="0.73573">
        <ele>206.1</ele>
        <time>2016-06-15T08:38:32.000Z</time>
      </trkpt>
      <trkpt lat="43.4409" lon="0.73567">
        <ele>206.3</ele>
        <time>2016-06-15T08:38:40.000Z</time>
      </trkpt>
      <trkpt lat="43.44082" lon="0.7356">
        <ele>206.4</ele>
        <time>2016-06-15T08:38:48.000Z</time>
      </trkpt>
      <trkpt lat="43.44073" lon="0.73554">
        <ele>206.4</ele>
        <time>2016-06-15T08:38:55.000Z</time>
      </trkpt>
      <trkpt lat="43.44065" lon="0.7355">
        <ele>206.7</ele>
        <time>2016-06-15T08:39:4.000Z</time>
      </trkpt>
      <trkpt lat="43.44056" lon="0.73544">
        <ele>207.4</ele>
        <time>2016-06-15T08:39:14.000Z</time>
      </trkpt>
      <trkpt lat="43.44048" lon="0.73537">
        <ele>208.1</ele>
        <time>2016-06-15T08:39:22.000Z</time>
      </trkpt>
      <trkpt lat="43.4404" lon="0.73528">
        <ele>209.2</ele>
        <time>2016-06-15T08:39:31.000Z</time>
      </trkpt>
      <trkpt lat="43.44032" lon="0.7352">
        <ele>210.4</ele>
        <time>2016-06-15T08:39:39.000Z</time>
      </trkpt>
      <trkpt lat="43.44024" lon="0.73512">
        <ele>211.7</ele>
        <time>2016-06-15T08:39:48.000Z</time>
      </trkpt>
      <trkpt lat="43.44017" lon="0.73503">
        <ele>213</ele>
        <time>2016-06-15T08:39:56.000Z</time>
      </trkpt>
      <trkpt lat="43.44011" lon="0.73493">
        <ele>214.5</ele>
        <time>2016-06-15T08:40:4.000Z</time>
      </trkpt>
      <trkpt lat="43.44006" lon="0.73481">
        <ele>215.9</ele>
        <time>2016-06-15T08:40:12.000Z</time>
      </trkpt>
      <trkpt lat="43.44" lon="0.7347">
        <ele>217.2</ele>
        <time>2016-06-15T08:40:21.000Z</time>
      </trkpt>
      <trkpt lat="43.43995" lon="0.7346">
        <ele>218.1</ele>
        <time>2016-06-15T08:40:29.000Z</time>
      </trkpt>
      <trkpt lat="43.43988" lon="0.7345">
        <ele>218.9</ele>
        <time>2016-06-15T08:40:38.000Z</time>
      </trkpt>
      <trkpt lat="43.4398" lon="0.73443">
        <ele>219.6</ele>
        <time>2016-06-15T08:40:47.000Z</time>
      </trkpt>
      <trkpt lat="43.43972" lon="0.73435">
        <ele>220.4</ele>
        <time>2016-06-15T08:40:56.000Z</time>
      </trkpt>
      <trkpt lat="43.43965" lon="0.73427">
        <ele>221.2</ele>
        <time>2016-06-15T08:41:4.000Z</time>
      </trkpt>
      <trkpt lat="43.43957" lon="0.73419">
        <ele>222</ele>
        <time>2016-06-15T08:41:14.000Z</time>
      </trkpt>
      <trkpt lat="43.43949" lon="0.73412">
        <ele>222.4</ele>
        <time>2016-06-15T08:41:21.000Z</time>
      </trkpt>
      <trkpt lat="43.43942" lon="0.73404">
        <ele>223</ele>
        <time>2016-06-15T08:41:28.000Z</time>
      </trkpt>
      <trkpt lat="43.43934" lon="0.73397">
        <ele>223.4</ele>
        <time>2016-06-15T08:41:36.000Z</time>
      </trkpt>
      <trkpt lat="43.43926" lon="0.73389">
        <ele>223.7</ele>
        <time>2016-06-15T08:41:44.000Z</time>
      </trkpt>
      <trkpt lat="43.43918" lon="0.73383">
        <ele>223.8</ele>
        <time>2016-06-15T08:41:52.000Z</time>
      </trkpt>
      <trkpt lat="43.43909" lon="0.73376">
        <ele>223.8</ele>
        <time>2016-06-15T08:42:0.000Z</time>
      </trkpt>
      <trkpt lat="43.439" lon="0.7337">
        <ele>223.8</ele>
        <time>2016-06-15T08:42:8.000Z</time>
      </trkpt>
      <trkpt lat="43.43891" lon="0.73368">
        <ele>223.7</ele>
        <time>2016-06-15T08:42:16.000Z</time>
      </trkpt>
      <trkpt lat="43.43882" lon="0.73367">
        <ele>223.6</ele>
        <time>2016-06-15T08:42:24.000Z</time>
      </trkpt>
      <trkpt lat="43.43872" lon="0.73366">
        <ele>223.5</ele>
        <time>2016-06-15T08:42:32.000Z</time>
      </trkpt>
      <trkpt lat="43.43863" lon="0.73366">
        <ele>223.4</ele>
        <time>2016-06-15T08:42:39.000Z</time>
      </trkpt>
      <trkpt lat="43.43853" lon="0.73365">
        <ele>223.4</ele>
        <time>2016-06-15T08:42:47.000Z</time>
      </trkpt>
      <trkpt lat="43.43843" lon="0.73363">
        <ele>223.3</ele>
        <time>2016-06-15T08:42:54.000Z</time>
      </trkpt>
      <trkpt lat="43.43833" lon="0.73363">
        <ele>223.2</ele>
        <time>2016-06-15T08:43:3.000Z</time>
      </trkpt>
      <trkpt lat="43.43824" lon="0.73364">
        <ele>223.2</ele>
        <time>2016-06-15T08:43:10.000Z</time>
      </trkpt>
      <trkpt lat="43.43814" lon="0.73365">
        <ele>223.1</ele>
        <time>2016-06-15T08:43:21.000Z</time>
      </trkpt>
      <trkpt lat="43.43805" lon="0.73364">
        <ele>222.7</ele>
        <time>2016-06-15T08:43:36.000Z</time>
      </trkpt>
      <trkpt lat="43.43796" lon="0.73363">
        <ele>221.9</ele>
        <time>2016-06-15T08:43:47.000Z</time>
      </trkpt>
      <trkpt lat="43.43787" lon="0.7336">
        <ele>220.9</ele>
        <time>2016-06-15T08:44:1.000Z</time>
      </trkpt>
      <trkpt lat="43.43777" lon="0.7336">
        <ele>219.6</ele>
        <time>2016-06-15T08:44:10.000Z</time>
      </trkpt>
      <trkpt lat="43.4377" lon="0.73353">
        <ele>218.2</ele>
        <time>2016-06-15T08:44:22.000Z</time>
      </trkpt>
      <trkpt lat="43.43766" lon="0.73341">
        <ele>217.3</ele>
        <time>2016-06-15T08:44:30.000Z</time>
      </trkpt>
      <trkpt lat="43.43765" lon="0.73328">
        <ele>215.9</ele>
        <time>2016-06-15T08:44:40.000Z</time>
      </trkpt>
      <trkpt lat="43.43765" lon="0.73315">
        <ele>214.6</ele>
        <time>2016-06-15T08:44:49.000Z</time>
      </trkpt>
      <trkpt lat="43.43759" lon="0.73306">
        <ele>213.5</ele>
        <time>2016-06-15T08:44:59.000Z</time>
      </trkpt>
      <trkpt lat="43.43751" lon="0.73299">
        <ele>212.6</ele>
        <time>2016-06-15T08:45:8.000Z</time>
      </trkpt>
      <trkpt lat="43.43742" lon="0.73294">
        <ele>211.5</ele>
        <time>2016-06-15T08:45:17.000Z</time>
      </trkpt>
      <trkpt lat="43.43735" lon="0.73287">
        <ele>210.3</ele>
        <time>2016-06-15T08:45:27.000Z</time>
      </trkpt>
      <trkpt lat="43.43726" lon="0.73286">
        <ele>209.4</ele>
        <time>2016-06-15T08:45:34.000Z</time>
      </trkpt>
      <trkpt lat="43.43717" lon="0.73285">
        <ele>208.3</ele>
        <time>2016-06-15T08:45:43.000Z</time>
      </trkpt>
      <trkpt lat="43.43707" lon="0.73281">
        <ele>207.7</ele>
        <time>2016-06-15T08:45:51.000Z</time>
      </trkpt>
      <trkpt lat="43.43698" lon="0.73277">
        <ele>207.4</ele>
        <time>2016-06-15T08:45:57.000Z</time>
      </trkpt>
      <trkpt lat="43.43689" lon="0.73274">
        <ele>206.9</ele>
        <time>2016-06-15T08:46:6.000Z</time>
      </trkpt>
      <trkpt lat="43.43679" lon="0.73276">
        <ele>206.5</ele>
        <time>2016-06-15T08:46:17.000Z</time>
      </trkpt>
      <trkpt lat="43.4367" lon="0.7328">
        <ele>206.3</ele>
        <time>2016-06-15T08:46:26.000Z</time>
      </trkpt>
      <trkpt lat="43.43661" lon="0.73287">
        <ele>206.5</ele>
        <time>2016-06-15T08:46:33.000Z</time>
      </trkpt>
      <trkpt lat="43.43652" lon="0.73293">
        <ele>206.6</ele>
        <time>2016-06-15T08:46:40.000Z</time>
      </trkpt>
      <trkpt lat="43.43645" lon="0.73299">
        <ele>206.8</ele>
        <time>2016-06-15T08:46:50.000Z</time>
      </trkpt>
      <trkpt lat="43.43637" lon="0.73308">
        <ele>206.8</ele>
        <time>2016-06-15T08:46:59.000Z</time>
      </trkpt>
      <trkpt lat="43.4363" lon="0.73315">
        <ele>206.7</ele>
        <time>2016-06-15T08:47:7.000Z</time>
      </trkpt>
      <trkpt lat="43.43623" lon="0.73324">
        <ele>206.6</ele>
        <time>2016-06-15T08:47:15.000Z</time>
      </trkpt>
      <trkpt lat="43.43615" lon="0.73331">
        <ele>206.5</ele>
        <time>2016-06-15T08:47:24.000Z</time>
      </trkpt>
      <trkpt lat="43.43608" lon="0.73341">
        <ele>206.4</ele>
        <time>2016-06-15T08:47:32.000Z</time>
      </trkpt>
      <trkpt lat="43.43601" lon="0.7335">
        <ele>206.4</ele>
        <time>2016-06-15T08:47:41.000Z</time>
      </trkpt>
      <trkpt lat="43.43595" lon="0.73359">
        <ele>206.5</ele>
        <time>2016-06-15T08:47:49.000Z</time>
      </trkpt>
      <trkpt lat="43.43589" lon="0.73369">
        <ele>206.7</ele>
        <time>2016-06-15T08:47:57.000Z</time>
      </trkpt>
      <trkpt lat="43.43582" lon="0.73378">
        <ele>206.8</ele>
        <time>2016-06-15T08:48:6.000Z</time>
      </trkpt>
      <trkpt lat="43.43577" lon="0.73389">
        <ele>207</ele>
        <time>2016-06-15T08:48:14.000Z</time>
      </trkpt>
      <trkpt lat="43.43572" lon="0.734">
        <ele>207.1</ele>
        <time>2016-06-15T08:48:23.000Z</time>
      </trkpt>
      <trkpt lat="43.43566" lon="0.7341">
        <ele>207.2</ele>
        <time>2016-06-15T08:48:31.000Z</time>
      </trkpt>
      <trkpt lat="43.43559" lon="0.7342">
        <ele>207.2</ele>
        <time>2016-06-15T08:48:39.000Z</time>
      </trkpt>
      <trkpt lat="43.43553" lon="0.7343">
        <ele>207.2</ele>
        <time>2016-06-15T08:48:47.000Z</time>
      </trkpt>
      <trkpt lat="43.43548" lon="0.73441">
        <ele>207.2</ele>
        <time>2016-06-15T08:48:55.000Z</time>
      </trkpt>
      <trkpt lat="43.43543" lon="0.73453">
        <ele>207</ele>
        <time>2016-06-15T08:49:4.000Z</time>
      </trkpt>
      <trkpt lat="43.43538" lon="0.73464">
        <ele>206.8</ele>
        <time>2016-06-15T08:49:11.000Z</time>
      </trkpt>
      <trkpt lat="43.43531" lon="0.73472">
        <ele>206.6</ele>
        <time>2016-06-15T08:49:19.000Z</time>
      </trkpt>
      <trkpt lat="43.43525" lon="0.73482">
        <ele>206.5</ele>
        <time>2016-06-15T08:49:27.000Z</time>
      </trkpt>
      <trkpt lat="43.43517" lon="0.7349">
        <ele>206.6</ele>
        <time>2016-06-15T08:49:37.000Z</time>
      </trkpt>
      <trkpt lat="43.43509" lon="0.73497">
        <ele>206.6</ele>
        <time>2016-06-15T08:49:44.000Z</time>
      </trkpt>
      <trkpt lat="43.43501" lon="0.73504">
        <ele>206.7</ele>
        <time>2016-06-15T08:49:52.000Z</time>
      </trkpt>
      <trkpt lat="43.43494" lon="0.73513">
        <ele>206.7</ele>
        <time>2016-06-15T08:50:1.000Z</time>
      </trkpt>
      <trkpt lat="43.43488" lon="0.73523">
        <ele>206.8</ele>
        <time>2016-06-15T08:50:10.000Z</time>
      </trkpt>
      <trkpt lat="43.43481" lon="0.73532">
        <ele>206.9</ele>
        <time>2016-06-15T08:50:19.000Z</time>
      </trkpt>
      <trkpt lat="43.43474" lon="0.73541">
        <ele>207</ele>
        <time>2016-06-15T08:50:28.000Z</time>
      </trkpt>
      <trkpt lat="43.43469" lon="0.73552">
        <ele>207.6</ele>
        <time>2016-06-15T08:50:38.000Z</time>
      </trkpt>
      <trkpt lat="43.43463" lon="0.73562">
        <ele>207.9</ele>
        <time>2016-06-15T08:50:45.000Z</time>
      </trkpt>
      <trkpt lat="43.43456" lon="0.7357">
        <ele>208.1</ele>
        <time>2016-06-15T08:50:53.000Z</time>
      </trkpt>
      <trkpt lat="43.4345" lon="0.7358">
        <ele>208.2</ele>
        <time>2016-06-15T08:51:2.000Z</time>
      </trkpt>
      <trkpt lat="43.43444" lon="0.7359">
        <ele>208.2</ele>
        <time>2016-06-15T08:51:10.000Z</time>
      </trkpt>
      <trkpt lat="43.43438" lon="0.73601">
        <ele>208.2</ele>
        <time>2016-06-15T08:51:18.000Z</time>
      </trkpt>
      <trkpt lat="43.43432" lon="0.73609">
        <ele>208.3</ele>
        <time>2016-06-15T08:51:26.000Z</time>
      </trkpt>
      <trkpt lat="43.43425" lon="0.73618">
        <ele>208.3</ele>
        <time>2016-06-15T08:51:34.000Z</time>
      </trkpt>
      <trkpt lat="43.43416" lon="0.73624">
        <ele>208.4</ele>
        <time>2016-06-15T08:51:43.000Z</time>
      </trkpt>
      <trkpt lat="43.43408" lon="0.73631">
        <ele>208.6</ele>
        <time>2016-06-15T08:51:51.000Z</time>
      </trkpt>
      <trkpt lat="43.43399" lon="0.73636">
        <ele>208.7</ele>
        <time>2016-06-15T08:52:0.000Z</time>
      </trkpt>
      <trkpt lat="43.43391" lon="0.73642">
        <ele>208.8</ele>
        <time>2016-06-15T08:52:9.000Z</time>
      </trkpt>
      <trkpt lat="43.43382" lon="0.73647">
        <ele>208.9</ele>
        <time>2016-06-15T08:52:16.000Z</time>
      </trkpt>
      <trkpt lat="43.43373" lon="0.73652">
        <ele>208.9</ele>
        <time>2016-06-15T08:52:26.000Z</time>
      </trkpt>
      <trkpt lat="43.43364" lon="0.73655">
        <ele>208.8</ele>
        <time>2016-06-15T08:52:34.000Z</time>
      </trkpt>
      <trkpt lat="43.43355" lon="0.73658">
        <ele>208.7</ele>
        <time>2016-06-15T08:52:43.000Z</time>
      </trkpt>
      <trkpt lat="43.43345" lon="0.7366">
        <ele>208.7</ele>
        <time>2016-06-15T08:52:50.000Z</time>
      </trkpt>
      <trkpt lat="43.43336" lon="0.73664">
        <ele>208.6</ele>
        <time>2016-06-15T08:52:57.000Z</time>
      </trkpt>
      <trkpt lat="43.43326" lon="0.73667">
        <ele>208.9</ele>
        <time>2016-06-15T08:53:6.000Z</time>
      </trkpt>
      <trkpt lat="43.43317" lon="0.73669">
        <ele>209.5</ele>
        <time>2016-06-15T08:53:15.000Z</time>
      </trkpt>
      <trkpt lat="43.43307" lon="0.73666">
        <ele>210.2</ele>
        <time>2016-06-15T08:53:22.000Z</time>
      </trkpt>
      <trkpt lat="43.43297" lon="0.73666">
        <ele>211.1</ele>
        <time>2016-06-15T08:53:30.000Z</time>
      </trkpt>
      <trkpt lat="43.43287" lon="0.73667">
        <ele>211.8</ele>
        <time>2016-06-15T08:53:39.000Z</time>
      </trkpt>
      <trkpt lat="43.43278" lon="0.73669">
        <ele>212.2</ele>
        <time>2016-06-15T08:53:48.000Z</time>
      </trkpt>
      <trkpt lat="43.43268" lon="0.73672">
        <ele>212.1</ele>
        <time>2016-06-15T08:53:57.000Z</time>
      </trkpt>
      <trkpt lat="43.43259" lon="0.73675">
        <ele>211.6</ele>
        <time>2016-06-15T08:54:5.000Z</time>
      </trkpt>
      <trkpt lat="43.43248" lon="0.73677">
        <ele>211.2</ele>
        <time>2016-06-15T08:54:13.000Z</time>
      </trkpt>
      <trkpt lat="43.4324" lon="0.7368">
        <ele>210.7</ele>
        <time>2016-06-15T08:54:21.000Z</time>
      </trkpt>
      <trkpt lat="43.4323" lon="0.73678">
        <ele>210.1</ele>
        <time>2016-06-15T08:54:29.000Z</time>
      </trkpt>
      <trkpt lat="43.43221" lon="0.73675">
        <ele>209.8</ele>
        <time>2016-06-15T08:54:36.000Z</time>
      </trkpt>
      <trkpt lat="43.43211" lon="0.73672">
        <ele>209.6</ele>
        <time>2016-06-15T08:54:44.000Z</time>
      </trkpt>
      <trkpt lat="43.43202" lon="0.73669">
        <ele>209.4</ele>
        <time>2016-06-15T08:54:52.000Z</time>
      </trkpt>
      <trkpt lat="43.43193" lon="0.73666">
        <ele>209.3</ele>
        <time>2016-06-15T08:55:0.000Z</time>
      </trkpt>
      <trkpt lat="43.43183" lon="0.73663">
        <ele>209.3</ele>
        <time>2016-06-15T08:55:8.000Z</time>
      </trkpt>
      <trkpt lat="43.43173" lon="0.73659">
        <ele>209.4</ele>
        <time>2016-06-15T08:55:16.000Z</time>
      </trkpt>
      <trkpt lat="43.43163" lon="0.73656">
        <ele>209.5</ele>
        <time>2016-06-15T08:55:24.000Z</time>
      </trkpt>
      <trkpt lat="43.43154" lon="0.73653">
        <ele>209.6</ele>
        <time>2016-06-15T08:55:32.000Z</time>
      </trkpt>
      <trkpt lat="43.43144" lon="0.7365">
        <ele>209.7</ele>
        <time>2016-06-15T08:55:40.000Z</time>
      </trkpt>
      <trkpt lat="43.43135" lon="0.73646">
        <ele>209.8</ele>
        <time>2016-06-15T08:55:48.000Z</time>
      </trkpt>
      <trkpt lat="43.43126" lon="0.73643">
        <ele>209.8</ele>
        <time>2016-06-15T08:55:56.000Z</time>
      </trkpt>
      <trkpt lat="43.43116" lon="0.73639">
        <ele>209.9</ele>
        <time>2016-06-15T08:56:4.000Z</time>
      </trkpt>
      <trkpt lat="43.43107" lon="0.73637">
        <ele>209.9</ele>
        <time>2016-06-15T08:56:13.000Z</time>
      </trkpt>
      <trkpt lat="43.43098" lon="0.73633">
        <ele>210</ele>
        <time>2016-06-15T08:56:23.000Z</time>
      </trkpt>
      <trkpt lat="43.4309" lon="0.73628">
        <ele>210</ele>
        <time>2016-06-15T08:56:32.000Z</time>
      </trkpt>
      <trkpt lat="43.43081" lon="0.73625">
        <ele>209.8</ele>
        <time>2016-06-15T08:56:40.000Z</time>
      </trkpt>
      <trkpt lat="43.43071" lon="0.73622">
        <ele>209.4</ele>
        <time>2016-06-15T08:56:48.000Z</time>
      </trkpt>
      <trkpt lat="43.43062" lon="0.73618">
        <ele>208.6</ele>
        <time>2016-06-15T08:56:56.000Z</time>
      </trkpt>
      <trkpt lat="43.43053" lon="0.73613">
        <ele>207.7</ele>
        <time>2016-06-15T08:57:5.000Z</time>
      </trkpt>
      <trkpt lat="43.43044" lon="0.7361">
        <ele>206.9</ele>
        <time>2016-06-15T08:57:14.000Z</time>
      </trkpt>
      <trkpt lat="43.43036" lon="0.73607">
        <ele>206.2</ele>
        <time>2016-06-15T08:57:23.000Z</time>
      </trkpt>
      <trkpt lat="43.43027" lon="0.73603">
        <ele>198.7</ele>
        <time>2016-06-15T09:00:33.000Z</time>
      </trkpt>
      <trkpt lat="43.43025" lon="0.7359">
        <ele>198.2</ele>
        <time>2016-06-15T09:00:45.000Z</time>
      </trkpt>
      <trkpt lat="43.43019" lon="0.73579">
        <ele>198.7</ele>
        <time>2016-06-15T09:00:53.000Z</time>
      </trkpt>
      <trkpt lat="43.43015" lon="0.73568">
        <ele>199.7</ele>
        <time>2016-06-15T09:01:1.000Z</time>
      </trkpt>
      <trkpt lat="43.4301" lon="0.73557">
        <ele>198.2</ele>
        <time>2016-06-15T09:01:8.000Z</time>
      </trkpt>
      <trkpt lat="43.43005" lon="0.73546">
        <ele>194.1</ele>
        <time>2016-06-15T09:01:16.000Z</time>
      </trkpt>
      <trkpt lat="43.43001" lon="0.73534">
        <ele>198.8</ele>
        <time>2016-06-15T09:01:24.000Z</time>
      </trkpt>
      <trkpt lat="43.42996" lon="0.73521">
        <ele>198.8</ele>
        <time>2016-06-15T09:01:32.000Z</time>
      </trkpt>
      <trkpt lat="43.42992" lon="0.7351">
        <ele>199.7</ele>
        <time>2016-06-15T09:01:40.000Z</time>
      </trkpt>
      <trkpt lat="43.42987" lon="0.73498">
        <ele>200.3</ele>
        <time>2016-06-15T09:01:48.000Z</time>
      </trkpt>
      <trkpt lat="43.42983" lon="0.73486">
        <ele>200.6</ele>
        <time>2016-06-15T09:01:56.000Z</time>
      </trkpt>
      <trkpt lat="43.42978" lon="0.73473">
        <ele>200.8</ele>
        <time>2016-06-15T09:02:4.000Z</time>
      </trkpt>
      <trkpt lat="43.42973" lon="0.73461">
        <ele>200.9</ele>
        <time>2016-06-15T09:02:12.000Z</time>
      </trkpt>
      <trkpt lat="43.42969" lon="0.7345">
        <ele>201</ele>
        <time>2016-06-15T09:02:20.000Z</time>
      </trkpt>
      <trkpt lat="43.42964" lon="0.73438">
        <ele>201.1</ele>
        <time>2016-06-15T09:02:28.000Z</time>
      </trkpt>
      <trkpt lat="43.4296" lon="0.73426">
        <ele>201.1</ele>
        <time>2016-06-15T09:02:36.000Z</time>
      </trkpt>
      <trkpt lat="43.42956" lon="0.73414">
        <ele>201.1</ele>
        <time>2016-06-15T09:02:44.000Z</time>
      </trkpt>
      <trkpt lat="43.42951" lon="0.73403">
        <ele>201.1</ele>
        <time>2016-06-15T09:02:52.000Z</time>
      </trkpt>
      <trkpt lat="43.42946" lon="0.73392">
        <ele>201.2</ele>
        <time>2016-06-15T09:02:59.000Z</time>
      </trkpt>
      <trkpt lat="43.42941" lon="0.73382">
        <ele>201.3</ele>
        <time>2016-06-15T09:03:6.000Z</time>
      </trkpt>
      <trkpt lat="43.42935" lon="0.73372">
        <ele>201.3</ele>
        <time>2016-06-15T09:03:14.000Z</time>
      </trkpt>
      <trkpt lat="43.42928" lon="0.73363">
        <ele>201.3</ele>
        <time>2016-06-15T09:03:22.000Z</time>
      </trkpt>
      <trkpt lat="43.42922" lon="0.73351">
        <ele>201.4</ele>
        <time>2016-06-15T09:03:30.000Z</time>
      </trkpt>
      <trkpt lat="43.42916" lon="0.73342">
        <ele>201.4</ele>
        <time>2016-06-15T09:03:37.000Z</time>
      </trkpt>
      <trkpt lat="43.42909" lon="0.73333">
        <ele>201.4</ele>
        <time>2016-06-15T09:03:45.000Z</time>
      </trkpt>
      <trkpt lat="43.42903" lon="0.73323">
        <ele>201.4</ele>
        <time>2016-06-15T09:03:53.000Z</time>
      </trkpt>
      <trkpt lat="43.42897" lon="0.73313">
        <ele>201.4</ele>
        <time>2016-06-15T09:04:1.000Z</time>
      </trkpt>
      <trkpt lat="43.4289" lon="0.73302">
        <ele>201.4</ele>
        <time>2016-06-15T09:04:9.000Z</time>
      </trkpt>
      <trkpt lat="43.42885" lon="0.73292">
        <ele>201.4</ele>
        <time>2016-06-15T09:04:16.000Z</time>
      </trkpt>
      <trkpt lat="43.42879" lon="0.73281">
        <ele>201.4</ele>
        <time>2016-06-15T09:04:24.000Z</time>
      </trkpt>
      <trkpt lat="43.42873" lon="0.73271">
        <ele>201.5</ele>
        <time>2016-06-15T09:04:32.000Z</time>
      </trkpt>
      <trkpt lat="43.42868" lon="0.7326">
        <ele>201.6</ele>
        <time>2016-06-15T09:04:40.000Z</time>
      </trkpt>
      <trkpt lat="43.42863" lon="0.73249">
        <ele>201.7</ele>
        <time>2016-06-15T09:04:48.000Z</time>
      </trkpt>
      <trkpt lat="43.42859" lon="0.73237">
        <ele>201.8</ele>
        <time>2016-06-15T09:04:56.000Z</time>
      </trkpt>
      <trkpt lat="43.42856" lon="0.73225">
        <ele>201.8</ele>
        <time>2016-06-15T09:05:4.000Z</time>
      </trkpt>
      <trkpt lat="43.42846" lon="0.73227">
        <ele>202</ele>
        <time>2016-06-15T09:05:23.000Z</time>
      </trkpt>
      <trkpt lat="43.42837" lon="0.73232">
        <ele>202.1</ele>
        <time>2016-06-15T09:05:37.000Z</time>
      </trkpt>
      <trkpt lat="43.42828" lon="0.73237">
        <ele>202.2</ele>
        <time>2016-06-15T09:05:47.000Z</time>
      </trkpt>
      <trkpt lat="43.42819" lon="0.73243">
        <ele>202.2</ele>
        <time>2016-06-15T09:05:56.000Z</time>
      </trkpt>
      <trkpt lat="43.4281" lon="0.73247">
        <ele>202.2</ele>
        <time>2016-06-15T09:06:6.000Z</time>
      </trkpt>
      <trkpt lat="43.42801" lon="0.73253">
        <ele>202.4</ele>
        <time>2016-06-15T09:06:15.000Z</time>
      </trkpt>
      <trkpt lat="43.42793" lon="0.73258">
        <ele>202.8</ele>
        <time>2016-06-15T09:06:24.000Z</time>
      </trkpt>
      <trkpt lat="43.42783" lon="0.73258">
        <ele>203.4</ele>
        <time>2016-06-15T09:06:34.000Z</time>
      </trkpt>
      <trkpt lat="43.42774" lon="0.73259">
        <ele>204.2</ele>
        <time>2016-06-15T09:06:45.000Z</time>
      </trkpt>
      <trkpt lat="43.42765" lon="0.73265">
        <ele>204.9</ele>
        <time>2016-06-15T09:06:56.000Z</time>
      </trkpt>
      <trkpt lat="43.42756" lon="0.73266">
        <ele>206.2</ele>
        <time>2016-06-15T09:07:9.000Z</time>
      </trkpt>
      <trkpt lat="43.42747" lon="0.73269">
        <ele>207.5</ele>
        <time>2016-06-15T09:07:21.000Z</time>
      </trkpt>
      <trkpt lat="43.42737" lon="0.73272">
        <ele>209</ele>
        <time>2016-06-15T09:07:33.000Z</time>
      </trkpt>
      <trkpt lat="43.42728" lon="0.73276">
        <ele>210.3</ele>
        <time>2016-06-15T09:07:46.000Z</time>
      </trkpt>
      <trkpt lat="43.4272" lon="0.73282">
        <ele>210.9</ele>
        <time>2016-06-15T09:07:55.000Z</time>
      </trkpt>
      <trkpt lat="43.42711" lon="0.73288">
        <ele>211.5</ele>
        <time>2016-06-15T09:08:4.000Z</time>
      </trkpt>
      <trkpt lat="43.42702" lon="0.73292">
        <ele>212</ele>
        <time>2016-06-15T09:08:13.000Z</time>
      </trkpt>
      <trkpt lat="43.42693" lon="0.73296">
        <ele>212.6</ele>
        <time>2016-06-15T09:08:24.000Z</time>
      </trkpt>
      <trkpt lat="43.42683" lon="0.73295">
        <ele>213.2</ele>
        <time>2016-06-15T09:08:35.000Z</time>
      </trkpt>
      <trkpt lat="43.42673" lon="0.73295">
        <ele>214</ele>
        <time>2016-06-15T09:08:45.000Z</time>
      </trkpt>
      <trkpt lat="43.42665" lon="0.7329">
        <ele>214.8</ele>
        <time>2016-06-15T09:08:55.000Z</time>
      </trkpt>
      <trkpt lat="43.42655" lon="0.73291">
        <ele>215.5</ele>
        <time>2016-06-15T09:09:4.000Z</time>
      </trkpt>
      <trkpt lat="43.42647" lon="0.73296">
        <ele>216</ele>
        <time>2016-06-15T09:09:12.000Z</time>
      </trkpt>
      <trkpt lat="43.42638" lon="0.733">
        <ele>216.7</ele>
        <time>2016-06-15T09:09:31.000Z</time>
      </trkpt>
      <trkpt lat="43.42629" lon="0.73306">
        <ele>217.2</ele>
        <time>2016-06-15T09:09:39.000Z</time>
      </trkpt>
      <trkpt lat="43.4262" lon="0.73309">
        <ele>217.5</ele>
        <time>2016-06-15T09:09:48.000Z</time>
      </trkpt>
      <trkpt lat="43.42612" lon="0.73315">
        <ele>217.9</ele>
        <time>2016-06-15T09:09:58.000Z</time>
      </trkpt>
      <trkpt lat="43.42603" lon="0.73322">
        <ele>218.6</ele>
        <time>2016-06-15T09:10:9.000Z</time>
      </trkpt>
      <trkpt lat="43.42594" lon="0.73327">
        <ele>219.6</ele>
        <time>2016-06-15T09:10:19.000Z</time>
      </trkpt>
      <trkpt lat="43.42585" lon="0.73331">
        <ele>220.7</ele>
        <time>2016-06-15T09:10:28.000Z</time>
      </trkpt>
      <trkpt lat="43.42576" lon="0.73336">
        <ele>221.6</ele>
        <time>2016-06-15T09:10:38.000Z</time>
      </trkpt>
      <trkpt lat="43.42568" lon="0.7334">
        <ele>222.4</ele>
        <time>2016-06-15T09:10:47.000Z</time>
      </trkpt>
      <trkpt lat="43.42559" lon="0.73347">
        <ele>223</ele>
        <time>2016-06-15T09:10:56.000Z</time>
      </trkpt>
      <trkpt lat="43.42551" lon="0.73355">
        <ele>223.6</ele>
        <time>2016-06-15T09:11:5.000Z</time>
      </trkpt>
      <trkpt lat="43.42544" lon="0.73364">
        <ele>223.9</ele>
        <time>2016-06-15T09:11:14.000Z</time>
      </trkpt>
      <trkpt lat="43.42536" lon="0.73371">
        <ele>224.1</ele>
        <time>2016-06-15T09:11:23.000Z</time>
      </trkpt>
      <trkpt lat="43.42527" lon="0.73376">
        <ele>224.3</ele>
        <time>2016-06-15T09:11:32.000Z</time>
      </trkpt>
      <trkpt lat="43.4252" lon="0.73384">
        <ele>224.4</ele>
        <time>2016-06-15T09:11:41.000Z</time>
      </trkpt>
      <trkpt lat="43.42511" lon="0.73391">
        <ele>224.7</ele>
        <time>2016-06-15T09:11:51.000Z</time>
      </trkpt>
      <trkpt lat="43.42504" lon="0.73399">
        <ele>224.9</ele>
        <time>2016-06-15T09:12:0.000Z</time>
      </trkpt>
      <trkpt lat="43.42496" lon="0.73407">
        <ele>225.1</ele>
        <time>2016-06-15T09:12:8.000Z</time>
      </trkpt>
      <trkpt lat="43.4249" lon="0.73416">
        <ele>225.3</ele>
        <time>2016-06-15T09:12:17.000Z</time>
      </trkpt>
      <trkpt lat="43.42483" lon="0.73426">
        <ele>225.5</ele>
        <time>2016-06-15T09:12:26.000Z</time>
      </trkpt>
      <trkpt lat="43.42476" lon="0.73435">
        <ele>225.8</ele>
        <time>2016-06-15T09:12:36.000Z</time>
      </trkpt>
      <trkpt lat="43.42467" lon="0.7344">
        <ele>226.6</ele>
        <time>2016-06-15T09:13:1.000Z</time>
      </trkpt>
      <trkpt lat="43.42458" lon="0.73441">
        <ele>227.5</ele>
        <time>2016-06-15T09:14:24.000Z</time>
      </trkpt>
      <trkpt lat="43.42454" lon="0.73457">
        <ele>227.5</ele>
        <time>2016-06-15T09:18:9.000Z</time>
      </trkpt>
      <trkpt lat="43.42453" lon="0.73469">
        <ele>227.5</ele>
        <time>2016-06-15T09:18:20.000Z</time>
      </trkpt>
      <trkpt lat="43.42449" lon="0.73481">
        <ele>227.5</ele>
        <time>2016-06-15T09:18:30.000Z</time>
      </trkpt>
      <trkpt lat="43.42446" lon="0.73493">
        <ele>227.5</ele>
        <time>2016-06-15T09:18:39.000Z</time>
      </trkpt>
      <trkpt lat="43.42443" lon="0.73506">
        <ele>227.2</ele>
        <time>2016-06-15T09:18:49.000Z</time>
      </trkpt>
      <trkpt lat="43.42441" lon="0.73518">
        <ele>226.5</ele>
        <time>2016-06-15T09:18:59.000Z</time>
      </trkpt>
      <trkpt lat="43.4244" lon="0.73532">
        <ele>225.7</ele>
        <time>2016-06-15T09:19:8.000Z</time>
      </trkpt>
      <trkpt lat="43.42439" lon="0.73545">
        <ele>225.2</ele>
        <time>2016-06-15T09:19:15.000Z</time>
      </trkpt>
      <trkpt lat="43.42438" lon="0.73558">
        <ele>224.2</ele>
        <time>2016-06-15T09:19:27.000Z</time>
      </trkpt>
      <trkpt lat="43.4244" lon="0.7357">
        <ele>223.6</ele>
        <time>2016-06-15T09:19:36.000Z</time>
      </trkpt>
      <trkpt lat="43.42445" lon="0.73581">
        <ele>222.9</ele>
        <time>2016-06-15T09:19:45.000Z</time>
      </trkpt>
      <trkpt lat="43.42453" lon="0.73588">
        <ele>221.8</ele>
        <time>2016-06-15T09:19:57.000Z</time>
      </trkpt>
      <trkpt lat="43.42462" lon="0.73591">
        <ele>221</ele>
        <time>2016-06-15T09:20:6.000Z</time>
      </trkpt>
      <trkpt lat="43.42472" lon="0.73591">
        <ele>220.6</ele>
        <time>2016-06-15T09:20:14.000Z</time>
      </trkpt>
      <trkpt lat="43.42482" lon="0.7359">
        <ele>220.3</ele>
        <time>2016-06-15T09:20:24.000Z</time>
      </trkpt>
      <trkpt lat="43.42491" lon="0.73591">
        <ele>220.1</ele>
        <time>2016-06-15T09:20:34.000Z</time>
      </trkpt>
      <trkpt lat="43.42501" lon="0.73591">
        <ele>220.1</ele>
        <time>2016-06-15T09:20:41.000Z</time>
      </trkpt>
      <trkpt lat="43.4251" lon="0.73592">
        <ele>220.2</ele>
        <time>2016-06-15T09:20:48.000Z</time>
      </trkpt>
      <trkpt lat="43.4252" lon="0.73593">
        <ele>220.7</ele>
        <time>2016-06-15T09:20:57.000Z</time>
      </trkpt>
      <trkpt lat="43.42529" lon="0.73592">
        <ele>221.4</ele>
        <time>2016-06-15T09:21:6.000Z</time>
      </trkpt>
      <trkpt lat="43.42539" lon="0.7359">
        <ele>222.2</ele>
        <time>2016-06-15T09:21:16.000Z</time>
      </trkpt>
      <trkpt lat="43.42548" lon="0.7359">
        <ele>222.9</ele>
        <time>2016-06-15T09:21:25.000Z</time>
      </trkpt>
      <trkpt lat="43.42557" lon="0.7359">
        <ele>224</ele>
        <time>2016-06-15T09:21:35.000Z</time>
      </trkpt>
      <trkpt lat="43.42567" lon="0.7359">
        <ele>224.9</ele>
        <time>2016-06-15T09:21:45.000Z</time>
      </trkpt>
      <trkpt lat="43.42576" lon="0.7359">
        <ele>226.2</ele>
        <time>2016-06-15T09:21:57.000Z</time>
      </trkpt>
      <trkpt lat="43.42586" lon="0.73591">
        <ele>227.1</ele>
        <time>2016-06-15T09:22:7.000Z</time>
      </trkpt>
      <trkpt lat="43.42595" lon="0.73594">
        <ele>227.7</ele>
        <time>2016-06-15T09:22:16.000Z</time>
      </trkpt>
      <trkpt lat="43.42605" lon="0.73594">
        <ele>228.2</ele>
        <time>2016-06-15T09:22:24.000Z</time>
      </trkpt>
      <trkpt lat="43.42614" lon="0.73596">
        <ele>228.7</ele>
        <time>2016-06-15T09:22:32.000Z</time>
      </trkpt>
      <trkpt lat="43.42625" lon="0.73596">
        <ele>229.3</ele>
        <time>2016-06-15T09:22:42.000Z</time>
      </trkpt>
      <trkpt lat="43.42634" lon="0.73596">
        <ele>229.7</ele>
        <time>2016-06-15T09:22:49.000Z</time>
      </trkpt>
      <trkpt lat="43.42644" lon="0.73596">
        <ele>230.1</ele>
        <time>2016-06-15T09:22:57.000Z</time>
      </trkpt>
      <trkpt lat="43.42653" lon="0.73598">
        <ele>230.7</ele>
        <time>2016-06-15T09:23:7.000Z</time>
      </trkpt>
      <trkpt lat="43.42663" lon="0.73598">
        <ele>231.1</ele>
        <time>2016-06-15T09:23:17.000Z</time>
      </trkpt>
      <trkpt lat="43.42672" lon="0.736">
        <ele>231.1</ele>
        <time>2016-06-15T09:23:26.000Z</time>
      </trkpt>
      <trkpt lat="43.42681" lon="0.73601">
        <ele>231</ele>
        <time>2016-06-15T09:23:36.000Z</time>
      </trkpt>
      <trkpt lat="43.42691" lon="0.73602">
        <ele>231.1</ele>
        <time>2016-06-15T09:23:46.000Z</time>
      </trkpt>
      <trkpt lat="43.42701" lon="0.73601">
        <ele>231.2</ele>
        <time>2016-06-15T09:23:53.000Z</time>
      </trkpt>
      <trkpt lat="43.42711" lon="0.736">
        <ele>231.2</ele>
        <time>2016-06-15T09:23:59.000Z</time>
      </trkpt>
      <trkpt lat="43.4272" lon="0.73597">
        <ele>231.5</ele>
        <time>2016-06-15T09:24:6.000Z</time>
      </trkpt>
      <trkpt lat="43.4273" lon="0.73593">
        <ele>231.9</ele>
        <time>2016-06-15T09:24:15.000Z</time>
      </trkpt>
      <trkpt lat="43.42739" lon="0.73593">
        <ele>232.6</ele>
        <time>2016-06-15T09:24:26.000Z</time>
      </trkpt>
      <trkpt lat="43.42749" lon="0.73592">
        <ele>233.4</ele>
        <time>2016-06-15T09:24:37.000Z</time>
      </trkpt>
      <trkpt lat="43.42756" lon="0.73601">
        <ele>235.1</ele>
        <time>2016-06-15T09:24:54.000Z</time>
      </trkpt>
      <trkpt lat="43.42753" lon="0.73614">
        <ele>236.1</ele>
        <time>2016-06-15T09:25:6.000Z</time>
      </trkpt>
      <trkpt lat="43.42751" lon="0.73627">
        <ele>237</ele>
        <time>2016-06-15T09:25:17.000Z</time>
      </trkpt>
      <trkpt lat="43.42746" lon="0.73639">
        <ele>237.8</ele>
        <time>2016-06-15T09:25:26.000Z</time>
      </trkpt>
      <trkpt lat="43.42743" lon="0.73651">
        <ele>238.3</ele>
        <time>2016-06-15T09:25:33.000Z</time>
      </trkpt>
      <trkpt lat="43.4274" lon="0.73664">
        <ele>238.8</ele>
        <time>2016-06-15T09:25:42.000Z</time>
      </trkpt>
      <trkpt lat="43.42737" lon="0.73676">
        <ele>239.4</ele>
        <time>2016-06-15T09:25:52.000Z</time>
      </trkpt>
      <trkpt lat="43.42734" lon="0.73689">
        <ele>240.2</ele>
        <time>2016-06-15T09:26:4.000Z</time>
      </trkpt>
      <trkpt lat="43.42729" lon="0.737">
        <ele>241.2</ele>
        <time>2016-06-15T09:26:15.000Z</time>
      </trkpt>
      <trkpt lat="43.42726" lon="0.73712">
        <ele>242.1</ele>
        <time>2016-06-15T09:26:23.000Z</time>
      </trkpt>
      <trkpt lat="43.42723" lon="0.73723">
        <ele>243.4</ele>
        <time>2016-06-15T09:26:32.000Z</time>
      </trkpt>
      <trkpt lat="43.42719" lon="0.73735">
        <ele>245</ele>
        <time>2016-06-15T09:26:44.000Z</time>
      </trkpt>
      <trkpt lat="43.42712" lon="0.73745">
        <ele>245.7</ele>
        <time>2016-06-15T09:26:52.000Z</time>
      </trkpt>
      <trkpt lat="43.42704" lon="0.73751">
        <ele>246.7</ele>
        <time>2016-06-15T09:27:1.000Z</time>
      </trkpt>
      <trkpt lat="43.42698" lon="0.73761">
        <ele>248.6</ele>
        <time>2016-06-15T09:27:13.000Z</time>
      </trkpt>
      <trkpt lat="43.42692" lon="0.7377">
        <ele>250</ele>
        <time>2016-06-15T09:27:22.000Z</time>
      </trkpt>
      <trkpt lat="43.42685" lon="0.73779">
        <ele>252.5</ele>
        <time>2016-06-15T09:27:36.000Z</time>
      </trkpt>
      <trkpt lat="43.42678" lon="0.73787">
        <ele>254.9</ele>
        <time>2016-06-15T09:27:50.000Z</time>
      </trkpt>
      <trkpt lat="43.42672" lon="0.73798">
        <ele>256.9</ele>
        <time>2016-06-15T09:28:3.000Z</time>
      </trkpt>
      <trkpt lat="43.42669" lon="0.7381">
        <ele>258.3</ele>
        <time>2016-06-15T09:28:15.000Z</time>
      </trkpt>
      <trkpt lat="43.42666" lon="0.73823">
        <ele>259.6</ele>
        <time>2016-06-15T09:28:26.000Z</time>
      </trkpt>
      <trkpt lat="43.42662" lon="0.73836">
        <ele>260.7</ele>
        <time>2016-06-15T09:28:34.000Z</time>
      </trkpt>
      <trkpt lat="43.42657" lon="0.73847">
        <ele>262</ele>
        <time>2016-06-15T09:28:43.000Z</time>
      </trkpt>
      <trkpt lat="43.42652" lon="0.73858">
        <ele>263.2</ele>
        <time>2016-06-15T09:28:52.000Z</time>
      </trkpt>
      <trkpt lat="43.42646" lon="0.73869">
        <ele>264.7</ele>
        <time>2016-06-15T09:29:1.000Z</time>
      </trkpt>
      <trkpt lat="43.42639" lon="0.73877">
        <ele>266.4</ele>
        <time>2016-06-15T09:29:12.000Z</time>
      </trkpt>
      <trkpt lat="43.42634" lon="0.73888">
        <ele>268.7</ele>
        <time>2016-06-15T09:29:25.000Z</time>
      </trkpt>
      <trkpt lat="43.42631" lon="0.739">
        <ele>271.1</ele>
        <time>2016-06-15T09:29:36.000Z</time>
      </trkpt>
      <trkpt lat="43.42629" lon="0.73912">
        <ele>272.6</ele>
        <time>2016-06-15T09:29:44.000Z</time>
      </trkpt>
      <trkpt lat="43.42624" lon="0.73924">
        <ele>274</ele>
        <time>2016-06-15T09:29:52.000Z</time>
      </trkpt>
      <trkpt lat="43.4262" lon="0.73936">
        <ele>275.3</ele>
        <time>2016-06-15T09:30:3.000Z</time>
      </trkpt>
      <trkpt lat="43.42617" lon="0.73949">
        <ele>275.9</ele>
        <time>2016-06-15T09:30:9.000Z</time>
      </trkpt>
      <trkpt lat="43.42615" lon="0.73961">
        <ele>276.6</ele>
        <time>2016-06-15T09:30:18.000Z</time>
      </trkpt>
      <trkpt lat="43.42615" lon="0.73974">
        <ele>277.3</ele>
        <time>2016-06-15T09:30:26.000Z</time>
      </trkpt>
      <trkpt lat="43.42614" lon="0.73988">
        <ele>277.7</ele>
        <time>2016-06-15T09:30:32.000Z</time>
      </trkpt>
      <trkpt lat="43.42615" lon="0.74001">
        <ele>278.3</ele>
        <time>2016-06-15T09:30:40.000Z</time>
      </trkpt>
      <trkpt lat="43.42616" lon="0.74013">
        <ele>278.6</ele>
        <time>2016-06-15T09:30:49.000Z</time>
      </trkpt>
      <trkpt lat="43.42619" lon="0.74026">
        <ele>278.8</ele>
        <time>2016-06-15T09:30:57.000Z</time>
      </trkpt>
      <trkpt lat="43.42619" lon="0.74039">
        <ele>279</ele>
        <time>2016-06-15T09:31:5.000Z</time>
      </trkpt>
      <trkpt lat="43.42621" lon="0.74051">
        <ele>279.6</ele>
        <time>2016-06-15T09:31:16.000Z</time>
      </trkpt>
      <trkpt lat="43.4262" lon="0.74066">
        <ele>280.2</ele>
        <time>2016-06-15T09:31:26.000Z</time>
      </trkpt>
      <trkpt lat="43.42619" lon="0.74079">
        <ele>280.8</ele>
        <time>2016-06-15T09:31:34.000Z</time>
      </trkpt>
      <trkpt lat="43.42618" lon="0.74092">
        <ele>281.6</ele>
        <time>2016-06-15T09:31:43.000Z</time>
      </trkpt>
      <trkpt lat="43.42616" lon="0.74106">
        <ele>282.3</ele>
        <time>2016-06-15T09:31:52.000Z</time>
      </trkpt>
      <trkpt lat="43.42614" lon="0.74118">
        <ele>282.9</ele>
        <time>2016-06-15T09:31:59.000Z</time>
      </trkpt>
      <trkpt lat="43.42611" lon="0.7413">
        <ele>283.3</ele>
        <time>2016-06-15T09:32:7.000Z</time>
      </trkpt>
      <trkpt lat="43.42609" lon="0.74142">
        <ele>283.8</ele>
        <time>2016-06-15T09:32:15.000Z</time>
      </trkpt>
      <trkpt lat="43.42605" lon="0.74154">
        <ele>284.1</ele>
        <time>2016-06-15T09:32:23.000Z</time>
      </trkpt>
      <trkpt lat="43.42601" lon="0.74166">
        <ele>284.3</ele>
        <time>2016-06-15T09:32:32.000Z</time>
      </trkpt>
      <trkpt lat="43.42596" lon="0.74178">
        <ele>284.4</ele>
        <time>2016-06-15T09:32:41.000Z</time>
      </trkpt>
      <trkpt lat="43.42593" lon="0.74189">
        <ele>284.5</ele>
        <time>2016-06-15T09:32:49.000Z</time>
      </trkpt>
      <trkpt lat="43.42589" lon="0.74202">
        <ele>284.5</ele>
        <time>2016-06-15T09:32:58.000Z</time>
      </trkpt>
      <trkpt lat="43.42584" lon="0.74213">
        <ele>284.5</ele>
        <time>2016-06-15T09:33:7.000Z</time>
      </trkpt>
      <trkpt lat="43.42579" lon="0.74225">
        <ele>284.6</ele>
        <time>2016-06-15T09:33:17.000Z</time>
      </trkpt>
      <trkpt lat="43.42575" lon="0.74236">
        <ele>284.8</ele>
        <time>2016-06-15T09:33:27.000Z</time>
      </trkpt>
      <trkpt lat="43.42571" lon="0.74248">
        <ele>285</ele>
        <time>2016-06-15T09:33:35.000Z</time>
      </trkpt>
      <trkpt lat="43.42566" lon="0.7426">
        <ele>285.4</ele>
        <time>2016-06-15T09:33:44.000Z</time>
      </trkpt>
      <trkpt lat="43.42561" lon="0.7427">
        <ele>285.7</ele>
        <time>2016-06-15T09:33:52.000Z</time>
      </trkpt>
      <trkpt lat="43.42557" lon="0.74282">
        <ele>286</ele>
        <time>2016-06-15T09:34:1.000Z</time>
      </trkpt>
      <trkpt lat="43.42552" lon="0.74294">
        <ele>286.4</ele>
        <time>2016-06-15T09:34:10.000Z</time>
      </trkpt>
      <trkpt lat="43.42547" lon="0.74305">
        <ele>286.7</ele>
        <time>2016-06-15T09:34:18.000Z</time>
      </trkpt>
      <trkpt lat="43.42542" lon="0.74317">
        <ele>287.1</ele>
        <time>2016-06-15T09:34:27.000Z</time>
      </trkpt>
      <trkpt lat="43.42538" lon="0.74329">
        <ele>287.4</ele>
        <time>2016-06-15T09:34:35.000Z</time>
      </trkpt>
      <trkpt lat="43.42533" lon="0.7434">
        <ele>287.8</ele>
        <time>2016-06-15T09:34:45.000Z</time>
      </trkpt>
      <trkpt lat="43.42529" lon="0.74352">
        <ele>288.1</ele>
        <time>2016-06-15T09:34:54.000Z</time>
      </trkpt>
      <trkpt lat="43.42525" lon="0.74364">
        <ele>288.5</ele>
        <time>2016-06-15T09:35:3.000Z</time>
      </trkpt>
      <trkpt lat="43.4252" lon="0.74374">
        <ele>288.9</ele>
        <time>2016-06-15T09:35:10.000Z</time>
      </trkpt>
      <trkpt lat="43.42518" lon="0.74388">
        <ele>289.3</ele>
        <time>2016-06-15T09:35:18.000Z</time>
      </trkpt>
      <trkpt lat="43.42515" lon="0.74401">
        <ele>289.7</ele>
        <time>2016-06-15T09:35:27.000Z</time>
      </trkpt>
      <trkpt lat="43.42513" lon="0.74413">
        <ele>290.2</ele>
        <time>2016-06-15T09:35:35.000Z</time>
      </trkpt>
      <trkpt lat="43.42507" lon="0.74424">
        <ele>290.6</ele>
        <time>2016-06-15T09:35:43.000Z</time>
      </trkpt>
      <trkpt lat="43.42504" lon="0.74437">
        <ele>291.1</ele>
        <time>2016-06-15T09:35:51.000Z</time>
      </trkpt>
      <trkpt lat="43.42502" lon="0.74449">
        <ele>291.4</ele>
        <time>2016-06-15T09:35:59.000Z</time>
      </trkpt>
      <trkpt lat="43.42497" lon="0.74461">
        <ele>291.8</ele>
        <time>2016-06-15T09:36:10.000Z</time>
      </trkpt>
      <trkpt lat="43.42494" lon="0.74473">
        <ele>292.1</ele>
        <time>2016-06-15T09:36:19.000Z</time>
      </trkpt>
      <trkpt lat="43.42491" lon="0.74485">
        <ele>292.5</ele>
        <time>2016-06-15T09:36:26.000Z</time>
      </trkpt>
      <trkpt lat="43.42488" lon="0.74497">
        <ele>292.8</ele>
        <time>2016-06-15T09:36:33.000Z</time>
      </trkpt>
      <trkpt lat="43.42484" lon="0.7451">
        <ele>293</ele>
        <time>2016-06-15T09:36:40.000Z</time>
      </trkpt>
      <trkpt lat="43.42481" lon="0.74523">
        <ele>293.1</ele>
        <time>2016-06-15T09:36:47.000Z</time>
      </trkpt>
      <trkpt lat="43.42477" lon="0.74535">
        <ele>293.2</ele>
        <time>2016-06-15T09:36:55.000Z</time>
      </trkpt>
      <trkpt lat="43.42472" lon="0.74546">
        <ele>293.3</ele>
        <time>2016-06-15T09:37:2.000Z</time>
      </trkpt>
      <trkpt lat="43.42468" lon="0.74557">
        <ele>293.4</ele>
        <time>2016-06-15T09:37:10.000Z</time>
      </trkpt>
      <trkpt lat="43.42463" lon="0.74568">
        <ele>293.4</ele>
        <time>2016-06-15T09:37:18.000Z</time>
      </trkpt>
      <trkpt lat="43.42457" lon="0.74578">
        <ele>293.5</ele>
        <time>2016-06-15T09:37:26.000Z</time>
      </trkpt>
      <trkpt lat="43.42452" lon="0.7459">
        <ele>293.9</ele>
        <time>2016-06-15T09:37:34.000Z</time>
      </trkpt>
      <trkpt lat="43.42447" lon="0.746">
        <ele>294.1</ele>
        <time>2016-06-15T09:37:41.000Z</time>
      </trkpt>
      <trkpt lat="43.42441" lon="0.7461">
        <ele>294.5</ele>
        <time>2016-06-15T09:37:49.000Z</time>
      </trkpt>
      <trkpt lat="43.42436" lon="0.7462">
        <ele>294.9</ele>
        <time>2016-06-15T09:37:56.000Z</time>
      </trkpt>
      <trkpt lat="43.42431" lon="0.74631">
        <ele>295.5</ele>
        <time>2016-06-15T09:38:5.000Z</time>
      </trkpt>
      <trkpt lat="43.42427" lon="0.74642">
        <ele>296</ele>
        <time>2016-06-15T09:38:13.000Z</time>
      </trkpt>
      <trkpt lat="43.42423" lon="0.74654">
        <ele>296.4</ele>
        <time>2016-06-15T09:38:20.000Z</time>
      </trkpt>
      <trkpt lat="43.42419" lon="0.74667">
        <ele>296.8</ele>
        <time>2016-06-15T09:38:29.000Z</time>
      </trkpt>
      <trkpt lat="43.42416" lon="0.7468">
        <ele>296.9</ele>
        <time>2016-06-15T09:38:36.000Z</time>
      </trkpt>
      <trkpt lat="43.42413" lon="0.74693">
        <ele>297.1</ele>
        <time>2016-06-15T09:38:44.000Z</time>
      </trkpt>
      <trkpt lat="43.42409" lon="0.74705">
        <ele>297.1</ele>
        <time>2016-06-15T09:38:52.000Z</time>
      </trkpt>
      <trkpt lat="43.42406" lon="0.74717">
        <ele>297.2</ele>
        <time>2016-06-15T09:38:59.000Z</time>
      </trkpt>
      <trkpt lat="43.42401" lon="0.74728">
        <ele>297.2</ele>
        <time>2016-06-15T09:39:7.000Z</time>
      </trkpt>
      <trkpt lat="43.42397" lon="0.7474">
        <ele>296.9</ele>
        <time>2016-06-15T09:39:15.000Z</time>
      </trkpt>
      <trkpt lat="43.42394" lon="0.74752">
        <ele>296.8</ele>
        <time>2016-06-15T09:39:23.000Z</time>
      </trkpt>
      <trkpt lat="43.42392" lon="0.74765">
        <ele>296.7</ele>
        <time>2016-06-15T09:39:31.000Z</time>
      </trkpt>
      <trkpt lat="43.42388" lon="0.74777">
        <ele>296.8</ele>
        <time>2016-06-15T09:39:39.000Z</time>
      </trkpt>
      <trkpt lat="43.42386" lon="0.74789">
        <ele>297</ele>
        <time>2016-06-15T09:39:47.000Z</time>
      </trkpt>
      <trkpt lat="43.42383" lon="0.74802">
        <ele>297.5</ele>
        <time>2016-06-15T09:39:56.000Z</time>
      </trkpt>
      <trkpt lat="43.4238" lon="0.74814">
        <ele>298</ele>
        <time>2016-06-15T09:40:4.000Z</time>
      </trkpt>
      <trkpt lat="43.42377" lon="0.74827">
        <ele>298.9</ele>
        <time>2016-06-15T09:40:13.000Z</time>
      </trkpt>
      <trkpt lat="43.42373" lon="0.74838">
        <ele>299.6</ele>
        <time>2016-06-15T09:40:20.000Z</time>
      </trkpt>
      <trkpt lat="43.42369" lon="0.74851">
        <ele>300.3</ele>
        <time>2016-06-15T09:40:28.000Z</time>
      </trkpt>
      <trkpt lat="43.42363" lon="0.74863">
        <ele>300.9</ele>
        <time>2016-06-15T09:40:36.000Z</time>
      </trkpt>
      <trkpt lat="43.42359" lon="0.74875">
        <ele>301.5</ele>
        <time>2016-06-15T09:40:44.000Z</time>
      </trkpt>
      <trkpt lat="43.42354" lon="0.74887">
        <ele>301.8</ele>
        <time>2016-06-15T09:40:53.000Z</time>
      </trkpt>
      <trkpt lat="43.42347" lon="0.74894">
        <ele>301.9</ele>
        <time>2016-06-15T09:41:2.000Z</time>
      </trkpt>
      <trkpt lat="43.42355" lon="0.749">
        <ele>300.1</ele>
        <time>2016-06-15T09:48:40.000Z</time>
      </trkpt>
      <trkpt lat="43.42364" lon="0.74902">
        <ele>299.9</ele>
        <time>2016-06-15T09:48:52.000Z</time>
      </trkpt>
      <trkpt lat="43.42373" lon="0.74901">
        <ele>299.3</ele>
        <time>2016-06-15T09:49:2.000Z</time>
      </trkpt>
      <trkpt lat="43.42383" lon="0.749">
        <ele>298.2</ele>
        <time>2016-06-15T09:49:12.000Z</time>
      </trkpt>
      <trkpt lat="43.42392" lon="0.74902">
        <ele>297</ele>
        <time>2016-06-15T09:49:22.000Z</time>
      </trkpt>
      <trkpt lat="43.424" lon="0.74909">
        <ele>295.9</ele>
        <time>2016-06-15T09:49:29.000Z</time>
      </trkpt>
      <trkpt lat="43.42407" lon="0.74918">
        <ele>294.7</ele>
        <time>2016-06-15T09:49:37.000Z</time>
      </trkpt>
      <trkpt lat="43.42415" lon="0.74927">
        <ele>293</ele>
        <time>2016-06-15T09:49:46.000Z</time>
      </trkpt>
      <trkpt lat="43.42423" lon="0.74935">
        <ele>291.4</ele>
        <time>2016-06-15T09:49:55.000Z</time>
      </trkpt>
      <trkpt lat="43.42431" lon="0.7494">
        <ele>289.9</ele>
        <time>2016-06-15T09:50:3.000Z</time>
      </trkpt>
      <trkpt lat="43.4244" lon="0.74945">
        <ele>288.4</ele>
        <time>2016-06-15T09:50:11.000Z</time>
      </trkpt>
      <trkpt lat="43.42449" lon="0.74948">
        <ele>286.9</ele>
        <time>2016-06-15T09:50:19.000Z</time>
      </trkpt>
      <trkpt lat="43.42458" lon="0.74951">
        <ele>285.6</ele>
        <time>2016-06-15T09:50:26.000Z</time>
      </trkpt>
      <trkpt lat="43.42467" lon="0.74954">
        <ele>284.2</ele>
        <time>2016-06-15T09:50:33.000Z</time>
      </trkpt>
      <trkpt lat="43.42477" lon="0.74954">
        <ele>282.9</ele>
        <time>2016-06-15T09:50:41.000Z</time>
      </trkpt>
      <trkpt lat="43.42486" lon="0.74954">
        <ele>281.5</ele>
        <time>2016-06-15T09:50:49.000Z</time>
      </trkpt>
      <trkpt lat="43.42496" lon="0.74954">
        <ele>280.3</ele>
        <time>2016-06-15T09:50:57.000Z</time>
      </trkpt>
      <trkpt lat="43.42505" lon="0.74954">
        <ele>279.3</ele>
        <time>2016-06-15T09:51:4.000Z</time>
      </trkpt>
      <trkpt lat="43.42515" lon="0.74953">
        <ele>278.2</ele>
        <time>2016-06-15T09:51:12.000Z</time>
      </trkpt>
      <trkpt lat="43.42525" lon="0.74953">
        <ele>277.3</ele>
        <time>2016-06-15T09:51:20.000Z</time>
      </trkpt>
      <trkpt lat="43.42534" lon="0.74952">
        <ele>276.4</ele>
        <time>2016-06-15T09:51:28.000Z</time>
      </trkpt>
      <trkpt lat="43.42544" lon="0.7495">
        <ele>275.5</ele>
        <time>2016-06-15T09:51:37.000Z</time>
      </trkpt>
      <trkpt lat="43.42554" lon="0.7495">
        <ele>274.8</ele>
        <time>2016-06-15T09:51:46.000Z</time>
      </trkpt>
      <trkpt lat="43.42563" lon="0.74949">
        <ele>274.2</ele>
        <time>2016-06-15T09:51:53.000Z</time>
      </trkpt>
      <trkpt lat="43.42572" lon="0.7495">
        <ele>273.7</ele>
        <time>2016-06-15T09:52:0.000Z</time>
      </trkpt>
      <trkpt lat="43.42582" lon="0.74949">
        <ele>273.4</ele>
        <time>2016-06-15T09:52:7.000Z</time>
      </trkpt>
      <trkpt lat="43.42592" lon="0.74948">
        <ele>273</ele>
        <time>2016-06-15T09:52:14.000Z</time>
      </trkpt>
      <trkpt lat="43.42602" lon="0.74948">
        <ele>272.6</ele>
        <time>2016-06-15T09:52:21.000Z</time>
      </trkpt>
      <trkpt lat="43.42611" lon="0.74947">
        <ele>272.3</ele>
        <time>2016-06-15T09:52:28.000Z</time>
      </trkpt>
      <trkpt lat="43.42621" lon="0.74946">
        <ele>271.9</ele>
        <time>2016-06-15T09:52:36.000Z</time>
      </trkpt>
      <trkpt lat="43.42631" lon="0.74946">
        <ele>271.3</ele>
        <time>2016-06-15T09:52:45.000Z</time>
      </trkpt>
      <trkpt lat="43.4264" lon="0.74947">
        <ele>270.9</ele>
        <time>2016-06-15T09:52:53.000Z</time>
      </trkpt>
      <trkpt lat="43.42649" lon="0.74949">
        <ele>270.5</ele>
        <time>2016-06-15T09:53:1.000Z</time>
      </trkpt>
      <trkpt lat="43.42658" lon="0.74952">
        <ele>270.1</ele>
        <time>2016-06-15T09:53:9.000Z</time>
      </trkpt>
      <trkpt lat="43.42667" lon="0.74955">
        <ele>269.9</ele>
        <time>2016-06-15T09:53:17.000Z</time>
      </trkpt>
      <trkpt lat="43.42676" lon="0.74959">
        <ele>269.7</ele>
        <time>2016-06-15T09:53:25.000Z</time>
      </trkpt>
      <trkpt lat="43.42686" lon="0.74964">
        <ele>269.7</ele>
        <time>2016-06-15T09:53:33.000Z</time>
      </trkpt>
      <trkpt lat="43.42695" lon="0.74969">
        <ele>269.6</ele>
        <time>2016-06-15T09:53:41.000Z</time>
      </trkpt>
      <trkpt lat="43.42704" lon="0.74973">
        <ele>269.7</ele>
        <time>2016-06-15T09:53:49.000Z</time>
      </trkpt>
      <trkpt lat="43.42713" lon="0.74977">
        <ele>270.1</ele>
        <time>2016-06-15T09:53:57.000Z</time>
      </trkpt>
      <trkpt lat="43.4272" lon="0.74983">
        <ele>271.2</ele>
        <time>2016-06-15T09:54:18.000Z</time>
      </trkpt>
      <trkpt lat="43.4273" lon="0.74987">
        <ele>272</ele>
        <time>2016-06-15T09:54:28.000Z</time>
      </trkpt>
      <trkpt lat="43.42739" lon="0.74992">
        <ele>272.4</ele>
        <time>2016-06-15T09:54:36.000Z</time>
      </trkpt>
      <trkpt lat="43.42748" lon="0.74994">
        <ele>272.9</ele>
        <time>2016-06-15T09:54:44.000Z</time>
      </trkpt>
      <trkpt lat="43.42757" lon="0.74997">
        <ele>273.2</ele>
        <time>2016-06-15T09:54:52.000Z</time>
      </trkpt>
      <trkpt lat="43.42766" lon="0.74999">
        <ele>273.5</ele>
        <time>2016-06-15T09:55:0.000Z</time>
      </trkpt>
      <trkpt lat="43.42775" lon="0.75">
        <ele>273.9</ele>
        <time>2016-06-15T09:55:8.000Z</time>
      </trkpt>
      <trkpt lat="43.42784" lon="0.75">
        <ele>274.2</ele>
        <time>2016-06-15T09:55:15.000Z</time>
      </trkpt>
      <trkpt lat="43.42794" lon="0.75003">
        <ele>274.4</ele>
        <time>2016-06-15T09:55:23.000Z</time>
      </trkpt>
      <trkpt lat="43.42803" lon="0.75003">
        <ele>274.5</ele>
        <time>2016-06-15T09:55:31.000Z</time>
      </trkpt>
      <trkpt lat="43.42813" lon="0.75007">
        <ele>274.7</ele>
        <time>2016-06-15T09:55:39.000Z</time>
      </trkpt>
      <trkpt lat="43.42822" lon="0.75009">
        <ele>274.9</ele>
        <time>2016-06-15T09:55:46.000Z</time>
      </trkpt>
      <trkpt lat="43.42832" lon="0.75011">
        <ele>275.1</ele>
        <time>2016-06-15T09:55:54.000Z</time>
      </trkpt>
      <trkpt lat="43.42842" lon="0.75014">
        <ele>275.2</ele>
        <time>2016-06-15T09:56:2.000Z</time>
      </trkpt>
      <trkpt lat="43.42851" lon="0.75015">
        <ele>275.3</ele>
        <time>2016-06-15T09:56:11.000Z</time>
      </trkpt>
      <trkpt lat="43.42861" lon="0.75014">
        <ele>275.3</ele>
        <time>2016-06-15T09:56:19.000Z</time>
      </trkpt>
      <trkpt lat="43.4287" lon="0.75014">
        <ele>275.5</ele>
        <time>2016-06-15T09:56:27.000Z</time>
      </trkpt>
      <trkpt lat="43.42879" lon="0.75017">
        <ele>275.9</ele>
        <time>2016-06-15T09:56:35.000Z</time>
      </trkpt>
      <trkpt lat="43.42888" lon="0.75023">
        <ele>276.7</ele>
        <time>2016-06-15T09:56:44.000Z</time>
      </trkpt>
      <trkpt lat="43.42897" lon="0.75029">
        <ele>277.5</ele>
        <time>2016-06-15T09:56:53.000Z</time>
      </trkpt>
      <trkpt lat="43.42909" lon="0.75023">
        <ele>280.6</ele>
        <time>2016-06-15T09:57:28.000Z</time>
      </trkpt>
      <trkpt lat="43.42916" lon="0.75014">
        <ele>281.4</ele>
        <time>2016-06-15T09:57:46.000Z</time>
      </trkpt>
      <trkpt lat="43.42922" lon="0.75005">
        <ele>282.3</ele>
        <time>2016-06-15T09:57:57.000Z</time>
      </trkpt>
      <trkpt lat="43.4293" lon="0.74998">
        <ele>283.5</ele>
        <time>2016-06-15T09:58:14.000Z</time>
      </trkpt>
      <trkpt lat="43.42941" lon="0.74989">
        <ele>285.4</ele>
        <time>2016-06-15T09:59:53.000Z</time>
      </trkpt>
      <trkpt lat="43.4295" lon="0.74982">
        <ele>285.6</ele>
        <time>2016-06-15T10:00:3.000Z</time>
      </trkpt>
      <trkpt lat="43.42958" lon="0.74975">
        <ele>285.6</ele>
        <time>2016-06-15T10:00:10.000Z</time>
      </trkpt>
      <trkpt lat="43.42966" lon="0.74969">
        <ele>285.2</ele>
        <time>2016-06-15T10:00:19.000Z</time>
      </trkpt>
      <trkpt lat="43.42973" lon="0.7496">
        <ele>285</ele>
        <time>2016-06-15T10:00:30.000Z</time>
      </trkpt>
      <trkpt lat="43.42981" lon="0.74952">
        <ele>284.9</ele>
        <time>2016-06-15T10:00:40.000Z</time>
      </trkpt>
      <trkpt lat="43.42988" lon="0.74944">
        <ele>284.9</ele>
        <time>2016-06-15T10:00:48.000Z</time>
      </trkpt>
      <trkpt lat="43.42994" lon="0.74935">
        <ele>284.9</ele>
        <time>2016-06-15T10:00:56.000Z</time>
      </trkpt>
      <trkpt lat="43.43001" lon="0.74926">
        <ele>285.2</ele>
        <time>2016-06-15T10:01:4.000Z</time>
      </trkpt>
      <trkpt lat="43.43008" lon="0.74916">
        <ele>285.4</ele>
        <time>2016-06-15T10:01:13.000Z</time>
      </trkpt>
      <trkpt lat="43.43013" lon="0.74905">
        <ele>285.7</ele>
        <time>2016-06-15T10:01:20.000Z</time>
      </trkpt>
      <trkpt lat="43.43018" lon="0.74895">
        <ele>286.2</ele>
        <time>2016-06-15T10:01:28.000Z</time>
      </trkpt>
      <trkpt lat="43.43023" lon="0.74885">
        <ele>286.6</ele>
        <time>2016-06-15T10:01:36.000Z</time>
      </trkpt>
      <trkpt lat="43.43027" lon="0.74872">
        <ele>287.1</ele>
        <time>2016-06-15T10:01:44.000Z</time>
      </trkpt>
      <trkpt lat="43.43035" lon="0.74866">
        <ele>287.4</ele>
        <time>2016-06-15T10:01:53.000Z</time>
      </trkpt>
      <trkpt lat="43.43043" lon="0.74859">
        <ele>288.1</ele>
        <time>2016-06-15T10:02:3.000Z</time>
      </trkpt>
      <trkpt lat="43.43052" lon="0.74853">
        <ele>288.6</ele>
        <time>2016-06-15T10:02:11.000Z</time>
      </trkpt>
      <trkpt lat="43.43058" lon="0.74844">
        <ele>289</ele>
        <time>2016-06-15T10:02:20.000Z</time>
      </trkpt>
      <trkpt lat="43.43063" lon="0.74832">
        <ele>289.3</ele>
        <time>2016-06-15T10:02:29.000Z</time>
      </trkpt>
      <trkpt lat="43.43068" lon="0.7482">
        <ele>289.6</ele>
        <time>2016-06-15T10:02:38.000Z</time>
      </trkpt>
      <trkpt lat="43.43075" lon="0.74811">
        <ele>289.7</ele>
        <time>2016-06-15T10:02:46.000Z</time>
      </trkpt>
      <trkpt lat="43.43081" lon="0.74801">
        <ele>289.8</ele>
        <time>2016-06-15T10:02:54.000Z</time>
      </trkpt>
      <trkpt lat="43.43085" lon="0.74788">
        <ele>289.9</ele>
        <time>2016-06-15T10:03:3.000Z</time>
      </trkpt>
      <trkpt lat="43.43089" lon="0.74776">
        <ele>289.9</ele>
        <time>2016-06-15T10:03:12.000Z</time>
      </trkpt>
      <trkpt lat="43.43096" lon="0.74765">
        <ele>290</ele>
        <time>2016-06-15T10:03:20.000Z</time>
      </trkpt>
      <trkpt lat="43.43102" lon="0.74756">
        <ele>289.9</ele>
        <time>2016-06-15T10:03:29.000Z</time>
      </trkpt>
      <trkpt lat="43.43108" lon="0.74747">
        <ele>289.8</ele>
        <time>2016-06-15T10:03:36.000Z</time>
      </trkpt>
      <trkpt lat="43.43114" lon="0.74736">
        <ele>289.7</ele>
        <time>2016-06-15T10:03:44.000Z</time>
      </trkpt>
      <trkpt lat="43.43118" lon="0.74724">
        <ele>289.6</ele>
        <time>2016-06-15T10:03:52.000Z</time>
      </trkpt>
      <trkpt lat="43.43122" lon="0.74712">
        <ele>289.3</ele>
        <time>2016-06-15T10:04:0.000Z</time>
      </trkpt>
      <trkpt lat="43.43125" lon="0.747">
        <ele>289.2</ele>
        <time>2016-06-15T10:04:8.000Z</time>
      </trkpt>
      <trkpt lat="43.43129" lon="0.74688">
        <ele>289.1</ele>
        <time>2016-06-15T10:04:16.000Z</time>
      </trkpt>
      <trkpt lat="43.43134" lon="0.74677">
        <ele>289.1</ele>
        <time>2016-06-15T10:04:24.000Z</time>
      </trkpt>
      <trkpt lat="43.43138" lon="0.74664">
        <ele>289.1</ele>
        <time>2016-06-15T10:04:34.000Z</time>
      </trkpt>
      <trkpt lat="43.43141" lon="0.74651">
        <ele>289</ele>
        <time>2016-06-15T10:04:42.000Z</time>
      </trkpt>
      <trkpt lat="43.43142" lon="0.74638">
        <ele>289</ele>
        <time>2016-06-15T10:04:50.000Z</time>
      </trkpt>
      <trkpt lat="43.43146" lon="0.74626">
        <ele>289.1</ele>
        <time>2016-06-15T10:04:58.000Z</time>
      </trkpt>
      <trkpt lat="43.4315" lon="0.74614">
        <ele>289.3</ele>
        <time>2016-06-15T10:05:8.000Z</time>
      </trkpt>
      <trkpt lat="43.43154" lon="0.74602">
        <ele>289.5</ele>
        <time>2016-06-15T10:05:18.000Z</time>
      </trkpt>
      <trkpt lat="43.43159" lon="0.74592">
        <ele>289.9</ele>
        <time>2016-06-15T10:05:26.000Z</time>
      </trkpt>
      <trkpt lat="43.43164" lon="0.74581">
        <ele>290.2</ele>
        <time>2016-06-15T10:05:33.000Z</time>
      </trkpt>
      <trkpt lat="43.4317" lon="0.7457">
        <ele>290.5</ele>
        <time>2016-06-15T10:05:40.000Z</time>
      </trkpt>
      <trkpt lat="43.43171" lon="0.74558">
        <ele>290.9</ele>
        <time>2016-06-15T10:06:32.000Z</time>
      </trkpt>
      <trkpt lat="43.43176" lon="0.74547">
        <ele>290.9</ele>
        <time>2016-06-15T10:06:41.000Z</time>
      </trkpt>
      <trkpt lat="43.43181" lon="0.74537">
        <ele>290.9</ele>
        <time>2016-06-15T10:06:52.000Z</time>
      </trkpt>
      <trkpt lat="43.43188" lon="0.74528">
        <ele>290.9</ele>
        <time>2016-06-15T10:06:57.000Z</time>
      </trkpt>
      <trkpt lat="43.43196" lon="0.74521">
        <ele>290.9</ele>
        <time>2016-06-15T10:07:6.000Z</time>
      </trkpt>
      <trkpt lat="43.43206" lon="0.74517">
        <ele>290.9</ele>
        <time>2016-06-15T10:07:13.000Z</time>
      </trkpt>
      <trkpt lat="43.43215" lon="0.74514">
        <ele>290.7</ele>
        <time>2016-06-15T10:07:21.000Z</time>
      </trkpt>
      <trkpt lat="43.43225" lon="0.74511">
        <ele>290.2</ele>
        <time>2016-06-15T10:07:28.000Z</time>
      </trkpt>
      <trkpt lat="43.43234" lon="0.74507">
        <ele>289.7</ele>
        <time>2016-06-15T10:07:34.000Z</time>
      </trkpt>
      <trkpt lat="43.43244" lon="0.74505">
        <ele>289</ele>
        <time>2016-06-15T10:07:42.000Z</time>
      </trkpt>
      <trkpt lat="43.43254" lon="0.74503">
        <ele>288</ele>
        <time>2016-06-15T10:07:51.000Z</time>
      </trkpt>
      <trkpt lat="43.43263" lon="0.745">
        <ele>287</ele>
        <time>2016-06-15T10:08:1.000Z</time>
      </trkpt>
      <trkpt lat="43.43273" lon="0.74501">
        <ele>286.3</ele>
        <time>2016-06-15T10:08:7.000Z</time>
      </trkpt>
      <trkpt lat="43.43283" lon="0.74499">
        <ele>285.2</ele>
        <time>2016-06-15T10:08:17.000Z</time>
      </trkpt>
      <trkpt lat="43.43293" lon="0.74498">
        <ele>284</ele>
        <time>2016-06-15T10:08:28.000Z</time>
      </trkpt>
      <trkpt lat="43.43302" lon="0.745">
        <ele>283.2</ele>
        <time>2016-06-15T10:08:37.000Z</time>
      </trkpt>
      <trkpt lat="43.43312" lon="0.74501">
        <ele>282.6</ele>
        <time>2016-06-15T10:08:46.000Z</time>
      </trkpt>
      <trkpt lat="43.43318" lon="0.7451">
        <ele>282.2</ele>
        <time>2016-06-15T10:08:56.000Z</time>
      </trkpt>
      <trkpt lat="43.43325" lon="0.74519">
        <ele>281.8</ele>
        <time>2016-06-15T10:09:7.000Z</time>
      </trkpt>
      <trkpt lat="43.43334" lon="0.7452">
        <ele>281.6</ele>
        <time>2016-06-15T10:09:16.000Z</time>
      </trkpt>
      <trkpt lat="43.43343" lon="0.74522">
        <ele>281.8</ele>
        <time>2016-06-15T10:09:26.000Z</time>
      </trkpt>
      <trkpt lat="43.43354" lon="0.74523">
        <ele>282.7</ele>
        <time>2016-06-15T10:09:38.000Z</time>
      </trkpt>
      <trkpt lat="43.43363" lon="0.74524">
        <ele>283.6</ele>
        <time>2016-06-15T10:09:47.000Z</time>
      </trkpt>
      <trkpt lat="43.43372" lon="0.74522">
        <ele>284.5</ele>
        <time>2016-06-15T10:09:56.000Z</time>
      </trkpt>
      <trkpt lat="43.43381" lon="0.74517">
        <ele>285.2</ele>
        <time>2016-06-15T10:10:3.000Z</time>
      </trkpt>
      <trkpt lat="43.4339" lon="0.74514">
        <ele>285.9</ele>
        <time>2016-06-15T10:10:11.000Z</time>
      </trkpt>
      <trkpt lat="43.43398" lon="0.74521">
        <ele>286.4</ele>
        <time>2016-06-15T10:10:21.000Z</time>
      </trkpt>
      <trkpt lat="43.43407" lon="0.74517">
        <ele>286.5</ele>
        <time>2016-06-15T10:10:29.000Z</time>
      </trkpt>
      <trkpt lat="43.43415" lon="0.74511">
        <ele>286.4</ele>
        <time>2016-06-15T10:10:36.000Z</time>
      </trkpt>
      <trkpt lat="43.43422" lon="0.74502">
        <ele>286.4</ele>
        <time>2016-06-15T10:10:43.000Z</time>
      </trkpt>
      <trkpt lat="43.4343" lon="0.74499">
        <ele>286.3</ele>
        <time>2016-06-15T10:10:51.000Z</time>
      </trkpt>
      <trkpt lat="43.4344" lon="0.74497">
        <ele>286.3</ele>
        <time>2016-06-15T10:11:0.000Z</time>
      </trkpt>
      <trkpt lat="43.43449" lon="0.74493">
        <ele>286.3</ele>
        <time>2016-06-15T10:11:8.000Z</time>
      </trkpt>
      <trkpt lat="43.43453" lon="0.74481">
        <ele>286.1</ele>
        <time>2016-06-15T10:11:14.000Z</time>
      </trkpt>
      <trkpt lat="43.43454" lon="0.74469">
        <ele>286</ele>
        <time>2016-06-15T10:11:22.000Z</time>
      </trkpt>
      <trkpt lat="43.43454" lon="0.74456">
        <ele>285.9</ele>
        <time>2016-06-15T10:11:31.000Z</time>
      </trkpt>
      <trkpt lat="43.4345" lon="0.74444">
        <ele>285.8</ele>
        <time>2016-06-15T10:11:40.000Z</time>
      </trkpt>
      <trkpt lat="43.43458" lon="0.74438">
        <ele>285.9</ele>
        <time>2016-06-15T10:11:55.000Z</time>
      </trkpt>
      <trkpt lat="43.43468" lon="0.74437">
        <ele>285.9</ele>
        <time>2016-06-15T10:12:1.000Z</time>
      </trkpt>
      <trkpt lat="43.43477" lon="0.74439">
        <ele>286</ele>
        <time>2016-06-15T10:12:9.000Z</time>
      </trkpt>
      <trkpt lat="43.43486" lon="0.74441">
        <ele>285.8</ele>
        <time>2016-06-15T10:12:16.000Z</time>
      </trkpt>
      <trkpt lat="43.43496" lon="0.74438">
        <ele>285.2</ele>
        <time>2016-06-15T10:12:24.000Z</time>
      </trkpt>
      <trkpt lat="43.43504" lon="0.74433">
        <ele>284</ele>
        <time>2016-06-15T10:12:34.000Z</time>
      </trkpt>
      <trkpt lat="43.43514" lon="0.74431">
        <ele>283</ele>
        <time>2016-06-15T10:12:42.000Z</time>
      </trkpt>
      <trkpt lat="43.43523" lon="0.74432">
        <ele>282.2</ele>
        <time>2016-06-15T10:12:48.000Z</time>
      </trkpt>
      <trkpt lat="43.43532" lon="0.74431">
        <ele>280.6</ele>
        <time>2016-06-15T10:13:2.000Z</time>
      </trkpt>
      <trkpt lat="43.4354" lon="0.74424">
        <ele>278.9</ele>
        <time>2016-06-15T10:13:14.000Z</time>
      </trkpt>
      <trkpt lat="43.4355" lon="0.74422">
        <ele>277.6</ele>
        <time>2016-06-15T10:13:23.000Z</time>
      </trkpt>
      <trkpt lat="43.43558" lon="0.74418">
        <ele>276.8</ele>
        <time>2016-06-15T10:13:30.000Z</time>
      </trkpt>
      <trkpt lat="43.43567" lon="0.74412">
        <ele>275.8</ele>
        <time>2016-06-15T10:13:39.000Z</time>
      </trkpt>
      <trkpt lat="43.43576" lon="0.7441">
        <ele>275.3</ele>
        <time>2016-06-15T10:13:45.000Z</time>
      </trkpt>
      <trkpt lat="43.43585" lon="0.74408">
        <ele>274.8</ele>
        <time>2016-06-15T10:13:52.000Z</time>
      </trkpt>
      <trkpt lat="43.43594" lon="0.74405">
        <ele>274.4</ele>
        <time>2016-06-15T10:13:59.000Z</time>
      </trkpt>
      <trkpt lat="43.43603" lon="0.74409">
        <ele>274.1</ele>
        <time>2016-06-15T10:14:9.000Z</time>
      </trkpt>
      <trkpt lat="43.4361" lon="0.74419">
        <ele>273.7</ele>
        <time>2016-06-15T10:14:22.000Z</time>
      </trkpt>
      <trkpt lat="43.43618" lon="0.74424">
        <ele>273.6</ele>
        <time>2016-06-15T10:14:31.000Z</time>
      </trkpt>
      <trkpt lat="43.43627" lon="0.74427">
        <ele>273.5</ele>
        <time>2016-06-15T10:14:41.000Z</time>
      </trkpt>
      <trkpt lat="43.43637" lon="0.74428">
        <ele>273.4</ele>
        <time>2016-06-15T10:14:49.000Z</time>
      </trkpt>
      <trkpt lat="43.43646" lon="0.74432">
        <ele>273.3</ele>
        <time>2016-06-15T10:14:58.000Z</time>
      </trkpt>
      <trkpt lat="43.43655" lon="0.74435">
        <ele>273.2</ele>
        <time>2016-06-15T10:15:7.000Z</time>
      </trkpt>
      <trkpt lat="43.43664" lon="0.74436">
        <ele>273.2</ele>
        <time>2016-06-15T10:15:21.000Z</time>
      </trkpt>
      <trkpt lat="43.43673" lon="0.74435">
        <ele>273.2</ele>
        <time>2016-06-15T10:15:30.000Z</time>
      </trkpt>
      <trkpt lat="43.43683" lon="0.74436">
        <ele>273.2</ele>
        <time>2016-06-15T10:15:41.000Z</time>
      </trkpt>
      <trkpt lat="43.43693" lon="0.74435">
        <ele>273.3</ele>
        <time>2016-06-15T10:15:50.000Z</time>
      </trkpt>
      <trkpt lat="43.43703" lon="0.74437">
        <ele>273.8</ele>
        <time>2016-06-15T10:16:0.000Z</time>
      </trkpt>
      <trkpt lat="43.43712" lon="0.74439">
        <ele>274.2</ele>
        <time>2016-06-15T10:16:8.000Z</time>
      </trkpt>
      <trkpt lat="43.43721" lon="0.74441">
        <ele>275.2</ele>
        <time>2016-06-15T10:16:19.000Z</time>
      </trkpt>
      <trkpt lat="43.43731" lon="0.74442">
        <ele>276.3</ele>
        <time>2016-06-15T10:16:30.000Z</time>
      </trkpt>
      <trkpt lat="43.4374" lon="0.74444">
        <ele>279.2</ele>
        <time>2016-06-15T10:16:52.000Z</time>
      </trkpt>
      <trkpt lat="43.43749" lon="0.74442">
        <ele>280.9</ele>
        <time>2016-06-15T10:17:9.000Z</time>
      </trkpt>
      <trkpt lat="43.43759" lon="0.7444">
        <ele>281.9</ele>
        <time>2016-06-15T10:17:20.000Z</time>
      </trkpt>
      <trkpt lat="43.43767" lon="0.74436">
        <ele>282.5</ele>
        <time>2016-06-15T10:17:31.000Z</time>
      </trkpt>
      <trkpt lat="43.43767" lon="0.74435">
        <ele>283.6</ele>
        <time>2016-06-15T10:19:57.000Z</time>
      </trkpt>
      <trkpt lat="43.43778" lon="0.74437">
        <ele>281.8</ele>
        <time>2016-06-15T10:52:55.000Z</time>
      </trkpt>
      <trkpt lat="43.43786" lon="0.74431">
        <ele>280.5</ele>
        <time>2016-06-15T10:53:4.000Z</time>
      </trkpt>
      <trkpt lat="43.43796" lon="0.74429">
        <ele>287.8</ele>
        <time>2016-06-15T10:53:15.000Z</time>
      </trkpt>
      <trkpt lat="43.43802" lon="0.74418">
        <ele>288</ele>
        <time>2016-06-15T10:53:28.000Z</time>
      </trkpt>
      <trkpt lat="43.43805" lon="0.74406">
        <ele>287.5</ele>
        <time>2016-06-15T10:53:38.000Z</time>
      </trkpt>
      <trkpt lat="43.43808" lon="0.74394">
        <ele>286.9</ele>
        <time>2016-06-15T10:53:49.000Z</time>
      </trkpt>
      <trkpt lat="43.4381" lon="0.74381">
        <ele>286.4</ele>
        <time>2016-06-15T10:53:59.000Z</time>
      </trkpt>
      <trkpt lat="43.43811" lon="0.74368">
        <ele>285.8</ele>
        <time>2016-06-15T10:54:9.000Z</time>
      </trkpt>
      <trkpt lat="43.43813" lon="0.74355">
        <ele>285.5</ele>
        <time>2016-06-15T10:54:18.000Z</time>
      </trkpt>
      <trkpt lat="43.43818" lon="0.74344">
        <ele>285.3</ele>
        <time>2016-06-15T10:54:29.000Z</time>
      </trkpt>
      <trkpt lat="43.43826" lon="0.74351">
        <ele>284.6</ele>
        <time>2016-06-15T10:54:53.000Z</time>
      </trkpt>
      <trkpt lat="43.43829" lon="0.74363">
        <ele>282.5</ele>
        <time>2016-06-15T10:55:25.000Z</time>
      </trkpt>
      <trkpt lat="43.43833" lon="0.74374">
        <ele>281.4</ele>
        <time>2016-06-15T10:55:38.000Z</time>
      </trkpt>
      <trkpt lat="43.43838" lon="0.74385">
        <ele>279.8</ele>
        <time>2016-06-15T10:55:51.000Z</time>
      </trkpt>
      <trkpt lat="43.43843" lon="0.74396">
        <ele>278.4</ele>
        <time>2016-06-15T10:56:2.000Z</time>
      </trkpt>
      <trkpt lat="43.43849" lon="0.74405">
        <ele>276.8</ele>
        <time>2016-06-15T10:56:18.000Z</time>
      </trkpt>
      <trkpt lat="43.43856" lon="0.74414">
        <ele>275.2</ele>
        <time>2016-06-15T10:56:31.000Z</time>
      </trkpt>
      <trkpt lat="43.43864" lon="0.7442">
        <ele>274.7</ele>
        <time>2016-06-15T10:56:43.000Z</time>
      </trkpt>
      <trkpt lat="43.43874" lon="0.74423">
        <ele>274.5</ele>
        <time>2016-06-15T10:56:54.000Z</time>
      </trkpt>
      <trkpt lat="43.43883" lon="0.74425">
        <ele>274.3</ele>
        <time>2016-06-15T10:57:4.000Z</time>
      </trkpt>
      <trkpt lat="43.43892" lon="0.74432">
        <ele>273.7</ele>
        <time>2016-06-15T10:57:14.000Z</time>
      </trkpt>
      <trkpt lat="43.43899" lon="0.74438">
        <ele>273.2</ele>
        <time>2016-06-15T10:57:22.000Z</time>
      </trkpt>
      <trkpt lat="43.43908" lon="0.74446">
        <ele>272.4</ele>
        <time>2016-06-15T10:57:34.000Z</time>
      </trkpt>
      <trkpt lat="43.43917" lon="0.74451">
        <ele>271.6</ele>
        <time>2016-06-15T10:57:46.000Z</time>
      </trkpt>
      <trkpt lat="43.43926" lon="0.74448">
        <ele>270.8</ele>
        <time>2016-06-15T10:57:58.000Z</time>
      </trkpt>
      <trkpt lat="43.43935" lon="0.74447">
        <ele>270.4</ele>
        <time>2016-06-15T10:58:6.000Z</time>
      </trkpt>
      <trkpt lat="43.43945" lon="0.74445">
        <ele>270.1</ele>
        <time>2016-06-15T10:58:12.000Z</time>
      </trkpt>
      <trkpt lat="43.43954" lon="0.74445">
        <ele>269.9</ele>
        <time>2016-06-15T10:58:18.000Z</time>
      </trkpt>
      <trkpt lat="43.43963" lon="0.74448">
        <ele>269.7</ele>
        <time>2016-06-15T10:58:26.000Z</time>
      </trkpt>
      <trkpt lat="43.43972" lon="0.74447">
        <ele>269.5</ele>
        <time>2016-06-15T10:58:35.000Z</time>
      </trkpt>
      <trkpt lat="43.43982" lon="0.74446">
        <ele>269.6</ele>
        <time>2016-06-15T10:58:43.000Z</time>
      </trkpt>
      <trkpt lat="43.43991" lon="0.74442">
        <ele>270.7</ele>
        <time>2016-06-15T10:58:59.000Z</time>
      </trkpt>
      <trkpt lat="43.44" lon="0.74442">
        <ele>271.6</ele>
        <time>2016-06-15T10:59:15.000Z</time>
      </trkpt>
      <trkpt lat="43.44009" lon="0.74444">
        <ele>272.1</ele>
        <time>2016-06-15T10:59:25.000Z</time>
      </trkpt>
      <trkpt lat="43.44019" lon="0.74443">
        <ele>272.4</ele>
        <time>2016-06-15T10:59:37.000Z</time>
      </trkpt>
      <trkpt lat="43.44028" lon="0.74441">
        <ele>272.5</ele>
        <time>2016-06-15T10:59:45.000Z</time>
      </trkpt>
      <trkpt lat="43.44037" lon="0.74438">
        <ele>272.4</ele>
        <time>2016-06-15T10:59:54.000Z</time>
      </trkpt>
      <trkpt lat="43.44047" lon="0.74436">
        <ele>272.1</ele>
        <time>2016-06-15T11:00:4.000Z</time>
      </trkpt>
      <trkpt lat="43.44056" lon="0.74432">
        <ele>271.7</ele>
        <time>2016-06-15T11:00:15.000Z</time>
      </trkpt>
      <trkpt lat="43.44065" lon="0.74431">
        <ele>271.3</ele>
        <time>2016-06-15T11:00:23.000Z</time>
      </trkpt>
      <trkpt lat="43.44075" lon="0.74428">
        <ele>270.8</ele>
        <time>2016-06-15T11:00:33.000Z</time>
      </trkpt>
      <trkpt lat="43.44084" lon="0.74423">
        <ele>270.5</ele>
        <time>2016-06-15T11:00:41.000Z</time>
      </trkpt>
      <trkpt lat="43.44093" lon="0.7442">
        <ele>270.1</ele>
        <time>2016-06-15T11:00:59.000Z</time>
      </trkpt>
      <trkpt lat="43.4409" lon="0.74407">
        <ele>270</ele>
        <time>2016-06-15T11:01:10.000Z</time>
      </trkpt>
      <trkpt lat="43.44094" lon="0.74394">
        <ele>269.9</ele>
        <time>2016-06-15T11:01:20.000Z</time>
      </trkpt>
      <trkpt lat="43.44096" lon="0.74382">
        <ele>269.6</ele>
        <time>2016-06-15T11:01:29.000Z</time>
      </trkpt>
      <trkpt lat="43.44102" lon="0.7437">
        <ele>269.4</ele>
        <time>2016-06-15T11:01:39.000Z</time>
      </trkpt>
      <trkpt lat="43.44107" lon="0.7436">
        <ele>269.3</ele>
        <time>2016-06-15T11:01:48.000Z</time>
      </trkpt>
      <trkpt lat="43.44112" lon="0.7435">
        <ele>269.1</ele>
        <time>2016-06-15T11:01:58.000Z</time>
      </trkpt>
      <trkpt lat="43.44119" lon="0.74341">
        <ele>269</ele>
        <time>2016-06-15T11:02:10.000Z</time>
      </trkpt>
      <trkpt lat="43.44125" lon="0.7433">
        <ele>269.4</ele>
        <time>2016-06-15T11:02:21.000Z</time>
      </trkpt>
      <trkpt lat="43.4413" lon="0.74319">
        <ele>270.3</ele>
        <time>2016-06-15T11:02:34.000Z</time>
      </trkpt>
      <trkpt lat="43.44135" lon="0.74309">
        <ele>271.1</ele>
        <time>2016-06-15T11:02:47.000Z</time>
      </trkpt>
      <trkpt lat="43.44142" lon="0.74299">
        <ele>272</ele>
        <time>2016-06-15T11:03:1.000Z</time>
      </trkpt>
      <trkpt lat="43.44149" lon="0.7429">
        <ele>273.3</ele>
        <time>2016-06-15T11:03:15.000Z</time>
      </trkpt>
      <trkpt lat="43.44153" lon="0.74279">
        <ele>274.2</ele>
        <time>2016-06-15T11:03:27.000Z</time>
      </trkpt>
      <trkpt lat="43.44157" lon="0.74267">
        <ele>274.8</ele>
        <time>2016-06-15T11:03:41.000Z</time>
      </trkpt>
      <trkpt lat="43.44165" lon="0.74258">
        <ele>275</ele>
        <time>2016-06-15T11:03:51.000Z</time>
      </trkpt>
      <trkpt lat="43.4417" lon="0.74248">
        <ele>275.1</ele>
        <time>2016-06-15T11:04:1.000Z</time>
      </trkpt>
      <trkpt lat="43.44176" lon="0.74238">
        <ele>275</ele>
        <time>2016-06-15T11:04:10.000Z</time>
      </trkpt>
      <trkpt lat="43.44181" lon="0.74227">
        <ele>274.9</ele>
        <time>2016-06-15T11:04:19.000Z</time>
      </trkpt>
      <trkpt lat="43.44186" lon="0.74215">
        <ele>274.7</ele>
        <time>2016-06-15T11:04:30.000Z</time>
      </trkpt>
      <trkpt lat="43.4419" lon="0.74203">
        <ele>274.4</ele>
        <time>2016-06-15T11:04:40.000Z</time>
      </trkpt>
      <trkpt lat="43.44192" lon="0.7419">
        <ele>274.1</ele>
        <time>2016-06-15T11:04:50.000Z</time>
      </trkpt>
      <trkpt lat="43.44196" lon="0.74179">
        <ele>273.9</ele>
        <time>2016-06-15T11:05:3.000Z</time>
      </trkpt>
      <trkpt lat="43.44197" lon="0.74166">
        <ele>273.5</ele>
        <time>2016-06-15T11:05:16.000Z</time>
      </trkpt>
      <trkpt lat="43.44202" lon="0.74154">
        <ele>273.3</ele>
        <time>2016-06-15T11:05:25.000Z</time>
      </trkpt>
      <trkpt lat="43.44206" lon="0.74143">
        <ele>272.9</ele>
        <time>2016-06-15T11:05:34.000Z</time>
      </trkpt>
      <trkpt lat="43.44209" lon="0.7413">
        <ele>272.6</ele>
        <time>2016-06-15T11:05:43.000Z</time>
      </trkpt>
      <trkpt lat="43.44214" lon="0.74119">
        <ele>272.4</ele>
        <time>2016-06-15T11:05:53.000Z</time>
      </trkpt>
      <trkpt lat="43.44216" lon="0.74106">
        <ele>272.1</ele>
        <time>2016-06-15T11:06:5.000Z</time>
      </trkpt>
      <trkpt lat="43.44222" lon="0.74096">
        <ele>271.3</ele>
        <time>2016-06-15T11:06:16.000Z</time>
      </trkpt>
      <trkpt lat="43.44227" lon="0.74086">
        <ele>270.1</ele>
        <time>2016-06-15T11:06:28.000Z</time>
      </trkpt>
      <trkpt lat="43.44234" lon="0.74077">
        <ele>268.6</ele>
        <time>2016-06-15T11:06:42.000Z</time>
      </trkpt>
      <trkpt lat="43.44243" lon="0.74072">
        <ele>267.6</ele>
        <time>2016-06-15T11:06:52.000Z</time>
      </trkpt>
      <trkpt lat="43.44253" lon="0.74073">
        <ele>266.4</ele>
        <time>2016-06-15T11:07:4.000Z</time>
      </trkpt>
      <trkpt lat="43.44262" lon="0.74078">
        <ele>265.1</ele>
        <time>2016-06-15T11:07:16.000Z</time>
      </trkpt>
      <trkpt lat="43.4427" lon="0.74082">
        <ele>264.6</ele>
        <time>2016-06-15T11:07:23.000Z</time>
      </trkpt>
      <trkpt lat="43.44279" lon="0.74088">
        <ele>263.7</ele>
        <time>2016-06-15T11:07:34.000Z</time>
      </trkpt>
      <trkpt lat="43.44288" lon="0.74094">
        <ele>263</ele>
        <time>2016-06-15T11:07:44.000Z</time>
      </trkpt>
      <trkpt lat="43.44297" lon="0.74101">
        <ele>262</ele>
        <time>2016-06-15T11:07:55.000Z</time>
      </trkpt>
      <trkpt lat="43.44304" lon="0.74107">
        <ele>260.8</ele>
        <time>2016-06-15T11:08:9.000Z</time>
      </trkpt>
      <trkpt lat="43.44313" lon="0.74113">
        <ele>259.8</ele>
        <time>2016-06-15T11:08:19.000Z</time>
      </trkpt>
      <trkpt lat="43.44322" lon="0.74118">
        <ele>258.7</ele>
        <time>2016-06-15T11:08:29.000Z</time>
      </trkpt>
      <trkpt lat="43.4433" lon="0.74125">
        <ele>255.9</ele>
        <time>2016-06-15T11:09:0.000Z</time>
      </trkpt>
      <trkpt lat="43.44338" lon="0.74132">
        <ele>255</ele>
        <time>2016-06-15T11:09:11.000Z</time>
      </trkpt>
      <trkpt lat="43.44346" lon="0.74138">
        <ele>254.1</ele>
        <time>2016-06-15T11:09:21.000Z</time>
      </trkpt>
      <trkpt lat="43.44354" lon="0.74144">
        <ele>253.1</ele>
        <time>2016-06-15T11:09:30.000Z</time>
      </trkpt>
      <trkpt lat="43.44361" lon="0.74152">
        <ele>252</ele>
        <time>2016-06-15T11:09:40.000Z</time>
      </trkpt>
      <trkpt lat="43.4437" lon="0.74159">
        <ele>250.8</ele>
        <time>2016-06-15T11:09:49.000Z</time>
      </trkpt>
      <trkpt lat="43.44378" lon="0.74164">
        <ele>249.5</ele>
        <time>2016-06-15T11:09:59.000Z</time>
      </trkpt>
      <trkpt lat="43.44387" lon="0.74169">
        <ele>248.3</ele>
        <time>2016-06-15T11:10:8.000Z</time>
      </trkpt>
      <trkpt lat="43.44396" lon="0.74175">
        <ele>247.4</ele>
        <time>2016-06-15T11:10:15.000Z</time>
      </trkpt>
      <trkpt lat="43.44403" lon="0.74182">
        <ele>246.5</ele>
        <time>2016-06-15T11:10:23.000Z</time>
      </trkpt>
      <trkpt lat="43.44411" lon="0.7419">
        <ele>245.2</ele>
        <time>2016-06-15T11:10:33.000Z</time>
      </trkpt>
      <trkpt lat="43.44418" lon="0.74198">
        <ele>243.9</ele>
        <time>2016-06-15T11:10:42.000Z</time>
      </trkpt>
      <trkpt lat="43.44425" lon="0.74206">
        <ele>242.7</ele>
        <time>2016-06-15T11:10:52.000Z</time>
      </trkpt>
      <trkpt lat="43.44433" lon="0.74212">
        <ele>241.5</ele>
        <time>2016-06-15T11:11:1.000Z</time>
      </trkpt>
      <trkpt lat="43.44442" lon="0.74218">
        <ele>240.1</ele>
        <time>2016-06-15T11:11:11.000Z</time>
      </trkpt>
      <trkpt lat="43.44451" lon="0.74223">
        <ele>238.6</ele>
        <time>2016-06-15T11:11:21.000Z</time>
      </trkpt>
      <trkpt lat="43.4446" lon="0.74227">
        <ele>237.5</ele>
        <time>2016-06-15T11:11:30.000Z</time>
      </trkpt>
      <trkpt lat="43.44469" lon="0.74231">
        <ele>236.4</ele>
        <time>2016-06-15T11:11:38.000Z</time>
      </trkpt>
      <trkpt lat="43.44479" lon="0.74234">
        <ele>235.4</ele>
        <time>2016-06-15T11:11:46.000Z</time>
      </trkpt>
      <trkpt lat="43.44489" lon="0.74238">
        <ele>234.7</ele>
        <time>2016-06-15T11:11:54.000Z</time>
      </trkpt>
      <trkpt lat="43.44498" lon="0.7424">
        <ele>234</ele>
        <time>2016-06-15T11:12:3.000Z</time>
      </trkpt>
      <trkpt lat="43.44508" lon="0.74241">
        <ele>233.2</ele>
        <time>2016-06-15T11:12:12.000Z</time>
      </trkpt>
      <trkpt lat="43.44517" lon="0.74239">
        <ele>232.6</ele>
        <time>2016-06-15T11:12:20.000Z</time>
      </trkpt>
      <trkpt lat="43.44526" lon="0.74238">
        <ele>232.2</ele>
        <time>2016-06-15T11:12:30.000Z</time>
      </trkpt>
      <trkpt lat="43.44535" lon="0.74238">
        <ele>231.6</ele>
        <time>2016-06-15T11:12:42.000Z</time>
      </trkpt>
      <trkpt lat="43.44544" lon="0.74233">
        <ele>230.3</ele>
        <time>2016-06-15T11:13:55.000Z</time>
      </trkpt>
      <trkpt lat="43.44552" lon="0.74229">
        <ele>230.3</ele>
        <time>2016-06-15T11:14:11.000Z</time>
      </trkpt>
      <trkpt lat="43.44561" lon="0.74226">
        <ele>230.2</ele>
        <time>2016-06-15T11:14:25.000Z</time>
      </trkpt>
      <trkpt lat="43.4457" lon="0.74223">
        <ele>230.1</ele>
        <time>2016-06-15T11:14:50.000Z</time>
      </trkpt>
      <trkpt lat="43.44579" lon="0.74217">
        <ele>229.6</ele>
        <time>2016-06-15T11:15:8.000Z</time>
      </trkpt>
      <trkpt lat="43.44588" lon="0.74219">
        <ele>228.8</ele>
        <time>2016-06-15T11:15:30.000Z</time>
      </trkpt>
      <trkpt lat="43.44597" lon="0.74221">
        <ele>228.4</ele>
        <time>2016-06-15T11:15:41.000Z</time>
      </trkpt>
      <trkpt lat="43.44607" lon="0.74223">
        <ele>228.2</ele>
        <time>2016-06-15T11:15:50.000Z</time>
      </trkpt>
      <trkpt lat="43.44616" lon="0.74228">
        <ele>227.6</ele>
        <time>2016-06-15T11:16:2.000Z</time>
      </trkpt>
      <trkpt lat="43.44624" lon="0.74233">
        <ele>227.2</ele>
        <time>2016-06-15T11:16:15.000Z</time>
      </trkpt>
      <trkpt lat="43.44633" lon="0.74238">
        <ele>225.9</ele>
        <time>2016-06-15T11:16:29.000Z</time>
      </trkpt>
      <trkpt lat="43.4464" lon="0.74246">
        <ele>224.5</ele>
        <time>2016-06-15T11:16:41.000Z</time>
      </trkpt>
      <trkpt lat="43.44649" lon="0.74246">
        <ele>223</ele>
        <time>2016-06-15T11:16:53.000Z</time>
      </trkpt>
      <trkpt lat="43.44658" lon="0.74244">
        <ele>221.9</ele>
        <time>2016-06-15T11:17:3.000Z</time>
      </trkpt>
      <trkpt lat="43.44668" lon="0.74242">
        <ele>221.1</ele>
        <time>2016-06-15T11:17:12.000Z</time>
      </trkpt>
      <trkpt lat="43.44675" lon="0.7425">
        <ele>220.2</ele>
        <time>2016-06-15T11:17:22.000Z</time>
      </trkpt>
      <trkpt lat="43.44678" lon="0.74263">
        <ele>219.6</ele>
        <time>2016-06-15T11:17:31.000Z</time>
      </trkpt>
      <trkpt lat="43.44683" lon="0.74274">
        <ele>218.7</ele>
        <time>2016-06-15T11:17:41.000Z</time>
      </trkpt>
      <trkpt lat="43.44687" lon="0.74286">
        <ele>216.9</ele>
        <time>2016-06-15T11:17:53.000Z</time>
      </trkpt>
      <trkpt lat="43.44692" lon="0.74298">
        <ele>214.8</ele>
        <time>2016-06-15T11:18:7.000Z</time>
      </trkpt>
      <trkpt lat="43.44697" lon="0.74309">
        <ele>211.4</ele>
        <time>2016-06-15T11:18:26.000Z</time>
      </trkpt>
      <trkpt lat="43.44706" lon="0.74311">
        <ele>209.9</ele>
        <time>2016-06-15T11:18:38.000Z</time>
      </trkpt>
      <trkpt lat="43.44714" lon="0.74304">
        <ele>209</ele>
        <time>2016-06-15T11:18:48.000Z</time>
      </trkpt>
      <trkpt lat="43.44723" lon="0.74298">
        <ele>208.6</ele>
        <time>2016-06-15T11:18:56.000Z</time>
      </trkpt>
      <trkpt lat="43.44732" lon="0.74293">
        <ele>208.4</ele>
        <time>2016-06-15T11:19:4.000Z</time>
      </trkpt>
      <trkpt lat="43.44741" lon="0.74288">
        <ele>208.3</ele>
        <time>2016-06-15T11:19:12.000Z</time>
      </trkpt>
      <trkpt lat="43.4475" lon="0.74284">
        <ele>208.2</ele>
        <time>2016-06-15T11:19:19.000Z</time>
      </trkpt>
      <trkpt lat="43.44758" lon="0.74278">
        <ele>208.1</ele>
        <time>2016-06-15T11:19:27.000Z</time>
      </trkpt>
      <trkpt lat="43.44766" lon="0.74272">
        <ele>208.1</ele>
        <time>2016-06-15T11:19:35.000Z</time>
      </trkpt>
      <trkpt lat="43.44763" lon="0.74286">
        <ele>207</ele>
        <time>2016-06-15T11:20:22.000Z</time>
      </trkpt>
      <trkpt lat="43.44763" lon="0.74298">
        <ele>205.8</ele>
        <time>2016-06-15T11:20:39.000Z</time>
      </trkpt>
      <trkpt lat="43.44768" lon="0.7431">
        <ele>205</ele>
        <time>2016-06-15T11:20:50.000Z</time>
      </trkpt>
      <trkpt lat="43.44774" lon="0.7432">
        <ele>204.6</ele>
        <time>2016-06-15T11:21:2.000Z</time>
      </trkpt>
      <trkpt lat="43.44782" lon="0.74327">
        <ele>204.5</ele>
        <time>2016-06-15T11:21:13.000Z</time>
      </trkpt>
      <trkpt lat="43.4479" lon="0.74332">
        <ele>204.4</ele>
        <time>2016-06-15T11:21:22.000Z</time>
      </trkpt>
      <trkpt lat="43.44799" lon="0.74335">
        <ele>204.3</ele>
        <time>2016-06-15T11:21:33.000Z</time>
      </trkpt>
      <trkpt lat="43.44808" lon="0.7434">
        <ele>204.3</ele>
        <time>2016-06-15T11:21:45.000Z</time>
      </trkpt>
      <trkpt lat="43.44816" lon="0.74345">
        <ele>204.3</ele>
        <time>2016-06-15T11:22:1.000Z</time>
      </trkpt>
      <trkpt lat="43.44825" lon="0.7435">
        <ele>204.3</ele>
        <time>2016-06-15T11:22:10.000Z</time>
      </trkpt>
      <trkpt lat="43.44834" lon="0.74356">
        <ele>204.3</ele>
        <time>2016-06-15T11:22:19.000Z</time>
      </trkpt>
      <trkpt lat="43.44842" lon="0.74362">
        <ele>204.4</ele>
        <time>2016-06-15T11:22:28.000Z</time>
      </trkpt>
      <trkpt lat="43.44851" lon="0.74366">
        <ele>204.4</ele>
        <time>2016-06-15T11:22:38.000Z</time>
      </trkpt>
      <trkpt lat="43.4486" lon="0.74372">
        <ele>204.4</ele>
        <time>2016-06-15T11:22:50.000Z</time>
      </trkpt>
      <trkpt lat="43.44868" lon="0.74377">
        <ele>204.6</ele>
        <time>2016-06-15T11:23:2.000Z</time>
      </trkpt>
      <trkpt lat="43.44876" lon="0.74383">
        <ele>204.7</ele>
        <time>2016-06-15T11:23:13.000Z</time>
      </trkpt>
      <trkpt lat="43.44885" lon="0.7439">
        <ele>204.9</ele>
        <time>2016-06-15T11:23:24.000Z</time>
      </trkpt>
      <trkpt lat="43.44892" lon="0.74396">
        <ele>205</ele>
        <time>2016-06-15T11:23:35.000Z</time>
      </trkpt>
      <trkpt lat="43.44902" lon="0.74396">
        <ele>205</ele>
        <time>2016-06-15T11:23:43.000Z</time>
      </trkpt>
      <trkpt lat="43.44909" lon="0.74405">
        <ele>205</ele>
        <time>2016-06-15T11:23:55.000Z</time>
      </trkpt>
      <trkpt lat="43.44914" lon="0.74416">
        <ele>204.9</ele>
        <time>2016-06-15T11:24:4.000Z</time>
      </trkpt>
      <trkpt lat="43.4492" lon="0.74428">
        <ele>204.8</ele>
        <time>2016-06-15T11:24:13.000Z</time>
      </trkpt>
      <trkpt lat="43.44925" lon="0.74439">
        <ele>204.7</ele>
        <time>2016-06-15T11:24:23.000Z</time>
      </trkpt>
      <trkpt lat="43.4493" lon="0.7445">
        <ele>204.6</ele>
        <time>2016-06-15T11:24:33.000Z</time>
      </trkpt>
      <trkpt lat="43.44937" lon="0.74459">
        <ele>204.6</ele>
        <time>2016-06-15T11:24:45.000Z</time>
      </trkpt>
      <trkpt lat="43.44943" lon="0.74467">
        <ele>204.6</ele>
        <time>2016-06-15T11:24:55.000Z</time>
      </trkpt>
      <trkpt lat="43.44949" lon="0.74477">
        <ele>204.6</ele>
        <time>2016-06-15T11:25:5.000Z</time>
      </trkpt>
      <trkpt lat="43.44955" lon="0.74486">
        <ele>204.6</ele>
        <time>2016-06-15T11:25:15.000Z</time>
      </trkpt>
      <trkpt lat="43.44961" lon="0.74496">
        <ele>204.8</ele>
        <time>2016-06-15T11:25:25.000Z</time>
      </trkpt>
      <trkpt lat="43.44967" lon="0.74506">
        <ele>205</ele>
        <time>2016-06-15T11:25:37.000Z</time>
      </trkpt>
      <trkpt lat="43.44973" lon="0.74517">
        <ele>205.3</ele>
        <time>2016-06-15T11:25:48.000Z</time>
      </trkpt>
      <trkpt lat="43.44978" lon="0.74528">
        <ele>205.5</ele>
        <time>2016-06-15T11:25:59.000Z</time>
      </trkpt>
      <trkpt lat="43.44983" lon="0.74539">
        <ele>205.6</ele>
        <time>2016-06-15T11:26:9.000Z</time>
      </trkpt>
      <trkpt lat="43.44992" lon="0.74546">
        <ele>205.8</ele>
        <time>2016-06-15T11:26:18.000Z</time>
      </trkpt>
      <trkpt lat="43.45001" lon="0.7454">
        <ele>206.1</ele>
        <time>2016-06-15T11:26:27.000Z</time>
      </trkpt>
      <trkpt lat="43.45009" lon="0.74533">
        <ele>206.4</ele>
        <time>2016-06-15T11:26:36.000Z</time>
      </trkpt>
      <trkpt lat="43.45014" lon="0.74522">
        <ele>206.7</ele>
        <time>2016-06-15T11:26:45.000Z</time>
      </trkpt>
      <trkpt lat="43.45018" lon="0.74511">
        <ele>206.9</ele>
        <time>2016-06-15T11:26:54.000Z</time>
      </trkpt>
      <trkpt lat="43.45021" lon="0.74498">
        <ele>207.3</ele>
        <time>2016-06-15T11:27:4.000Z</time>
      </trkpt>
      <trkpt lat="43.45025" lon="0.74485">
        <ele>208.4</ele>
        <time>2016-06-15T11:27:22.000Z</time>
      </trkpt>
      <trkpt lat="43.45031" lon="0.74475">
        <ele>209.1</ele>
        <time>2016-06-15T11:27:33.000Z</time>
      </trkpt>
      <trkpt lat="43.45033" lon="0.74487">
        <ele>211.9</ele>
        <time>2016-06-15T11:28:21.000Z</time>
      </trkpt>
      <trkpt lat="43.45034" lon="0.745">
        <ele>212.1</ele>
        <time>2016-06-15T11:28:32.000Z</time>
      </trkpt>
      <trkpt lat="43.45036" lon="0.74513">
        <ele>212.1</ele>
        <time>2016-06-15T11:28:55.000Z</time>
      </trkpt>
      <trkpt lat="43.45037" lon="0.74525">
        <ele>212.2</ele>
        <time>2016-06-15T11:29:7.000Z</time>
      </trkpt>
      <trkpt lat="43.45038" lon="0.74538">
        <ele>212.2</ele>
        <time>2016-06-15T11:29:19.000Z</time>
      </trkpt>
      <trkpt lat="43.45039" lon="0.7455">
        <ele>212.2</ele>
        <time>2016-06-15T11:29:29.000Z</time>
      </trkpt>
      <trkpt lat="43.45041" lon="0.74563">
        <ele>212.1</ele>
        <time>2016-06-15T11:29:40.000Z</time>
      </trkpt>
      <trkpt lat="43.45043" lon="0.74576">
        <ele>211.9</ele>
        <time>2016-06-15T11:29:50.000Z</time>
      </trkpt>
      <trkpt lat="43.45045" lon="0.74589">
        <ele>211.7</ele>
        <time>2016-06-15T11:30:9.000Z</time>
      </trkpt>
      <trkpt lat="43.45047" lon="0.74601">
        <ele>211.6</ele>
        <time>2016-06-15T11:30:17.000Z</time>
      </trkpt>
      <trkpt lat="43.45049" lon="0.74614">
        <ele>211.5</ele>
        <time>2016-06-15T11:30:25.000Z</time>
      </trkpt>
      <trkpt lat="43.4505" lon="0.74627">
        <ele>211.4</ele>
        <time>2016-06-15T11:30:33.000Z</time>
      </trkpt>
      <trkpt lat="43.4505" lon="0.74639">
        <ele>211.3</ele>
        <time>2016-06-15T11:30:41.000Z</time>
      </trkpt>
      <trkpt lat="43.45053" lon="0.74653">
        <ele>211.3</ele>
        <time>2016-06-15T11:30:50.000Z</time>
      </trkpt>
      <trkpt lat="43.45056" lon="0.74665">
        <ele>211.2</ele>
        <time>2016-06-15T11:30:59.000Z</time>
      </trkpt>
      <trkpt lat="43.4506" lon="0.74677">
        <ele>211.2</ele>
        <time>2016-06-15T11:31:8.000Z</time>
      </trkpt>
      <trkpt lat="43.45063" lon="0.74689">
        <ele>211.3</ele>
        <time>2016-06-15T11:31:16.000Z</time>
      </trkpt>
      <trkpt lat="43.45065" lon="0.74676">
        <ele>211.5</ele>
        <time>2016-06-15T11:31:28.000Z</time>
      </trkpt>
      <trkpt lat="43.45071" lon="0.74667">
        <ele>211.7</ele>
        <time>2016-06-15T11:31:53.000Z</time>
      </trkpt>
      <trkpt lat="43.45081" lon="0.74664">
        <ele>211.7</ele>
        <time>2016-06-15T11:32:5.000Z</time>
      </trkpt>
      <trkpt lat="43.4509" lon="0.74663">
        <ele>211.8</ele>
        <time>2016-06-15T11:32:15.000Z</time>
      </trkpt>
      <trkpt lat="43.45099" lon="0.7466">
        <ele>212.1</ele>
        <time>2016-06-15T11:32:32.000Z</time>
      </trkpt>
      <trkpt lat="43.45109" lon="0.74658">
        <ele>212.5</ele>
        <time>2016-06-15T11:32:41.000Z</time>
      </trkpt>
      <trkpt lat="43.45118" lon="0.74655">
        <ele>212.8</ele>
        <time>2016-06-15T11:32:53.000Z</time>
      </trkpt>
      <trkpt lat="43.45127" lon="0.74655">
        <ele>213.1</ele>
        <time>2016-06-15T11:33:6.000Z</time>
      </trkpt>
      <trkpt lat="43.45136" lon="0.74658">
        <ele>213.9</ele>
        <time>2016-06-15T11:33:17.000Z</time>
      </trkpt>
      <trkpt lat="43.45145" lon="0.7466">
        <ele>214.8</ele>
        <time>2016-06-15T11:33:29.000Z</time>
      </trkpt>
      <trkpt lat="43.45158" lon="0.74661">
        <ele>216</ele>
        <time>2016-06-15T11:33:48.000Z</time>
      </trkpt>
      <trkpt lat="43.45169" lon="0.74661">
        <ele>217</ele>
        <time>2016-06-15T11:33:57.000Z</time>
      </trkpt>
      <trkpt lat="43.45178" lon="0.7466">
        <ele>218</ele>
        <time>2016-06-15T11:34:13.000Z</time>
      </trkpt>
      <trkpt lat="43.45187" lon="0.74662">
        <ele>218.5</ele>
        <time>2016-06-15T11:34:26.000Z</time>
      </trkpt>
      <trkpt lat="43.45197" lon="0.74664">
        <ele>219.1</ele>
        <time>2016-06-15T11:34:35.000Z</time>
      </trkpt>
      <trkpt lat="43.45206" lon="0.74664">
        <ele>219.8</ele>
        <time>2016-06-15T11:34:48.000Z</time>
      </trkpt>
      <trkpt lat="43.45215" lon="0.74663">
        <ele>220.6</ele>
        <time>2016-06-15T11:34:59.000Z</time>
      </trkpt>
      <trkpt lat="43.45224" lon="0.74667">
        <ele>221.2</ele>
        <time>2016-06-15T11:35:9.000Z</time>
      </trkpt>
      <trkpt lat="43.45232" lon="0.74671">
        <ele>221.8</ele>
        <time>2016-06-15T11:35:19.000Z</time>
      </trkpt>
      <trkpt lat="43.45241" lon="0.74675">
        <ele>222.8</ele>
        <time>2016-06-15T11:35:30.000Z</time>
      </trkpt>
      <trkpt lat="43.4525" lon="0.74681">
        <ele>224</ele>
        <time>2016-06-15T11:35:43.000Z</time>
      </trkpt>
      <trkpt lat="43.45258" lon="0.74686">
        <ele>225</ele>
        <time>2016-06-15T11:35:54.000Z</time>
      </trkpt>
      <trkpt lat="43.45267" lon="0.74691">
        <ele>226</ele>
        <time>2016-06-15T11:36:6.000Z</time>
      </trkpt>
      <trkpt lat="43.45276" lon="0.74695">
        <ele>226.9</ele>
        <time>2016-06-15T11:36:17.000Z</time>
      </trkpt>
      <trkpt lat="43.45285" lon="0.747">
        <ele>227.8</ele>
        <time>2016-06-15T11:36:26.000Z</time>
      </trkpt>
      <trkpt lat="43.45295" lon="0.74703">
        <ele>228.6</ele>
        <time>2016-06-15T11:36:35.000Z</time>
      </trkpt>
      <trkpt lat="43.45304" lon="0.74709">
        <ele>229.4</ele>
        <time>2016-06-15T11:36:44.000Z</time>
      </trkpt>
      <trkpt lat="43.45313" lon="0.74714">
        <ele>230.3</ele>
        <time>2016-06-15T11:36:54.000Z</time>
      </trkpt>
      <trkpt lat="43.45321" lon="0.74718">
        <ele>231.2</ele>
        <time>2016-06-15T11:37:4.000Z</time>
      </trkpt>
      <trkpt lat="43.4533" lon="0.74723">
        <ele>232.2</ele>
        <time>2016-06-15T11:37:15.000Z</time>
      </trkpt>
      <trkpt lat="43.45339" lon="0.74726">
        <ele>233.5</ele>
        <time>2016-06-15T11:37:26.000Z</time>
      </trkpt>
      <trkpt lat="43.45348" lon="0.74729">
        <ele>234.5</ele>
        <time>2016-06-15T11:37:37.000Z</time>
      </trkpt>
      <trkpt lat="43.45358" lon="0.74733">
        <ele>235.5</ele>
        <time>2016-06-15T11:37:50.000Z</time>
      </trkpt>
      <trkpt lat="43.45367" lon="0.74737">
        <ele>236.1</ele>
        <time>2016-06-15T11:37:58.000Z</time>
      </trkpt>
      <trkpt lat="43.45375" lon="0.74743">
        <ele>236.7</ele>
        <time>2016-06-15T11:38:8.000Z</time>
      </trkpt>
      <trkpt lat="43.45384" lon="0.74748">
        <ele>238</ele>
        <time>2016-06-15T11:38:21.000Z</time>
      </trkpt>
      <trkpt lat="43.45392" lon="0.74753">
        <ele>239</ele>
        <time>2016-06-15T11:38:35.000Z</time>
      </trkpt>
      <trkpt lat="43.45401" lon="0.74758">
        <ele>240</ele>
        <time>2016-06-15T11:38:48.000Z</time>
      </trkpt>
      <trkpt lat="43.4541" lon="0.74764">
        <ele>241.2</ele>
        <time>2016-06-15T11:39:1.000Z</time>
      </trkpt>
      <trkpt lat="43.45419" lon="0.7477">
        <ele>242.1</ele>
        <time>2016-06-15T11:39:12.000Z</time>
      </trkpt>
      <trkpt lat="43.45427" lon="0.74777">
        <ele>243</ele>
        <time>2016-06-15T11:39:23.000Z</time>
      </trkpt>
      <trkpt lat="43.45434" lon="0.74786">
        <ele>244</ele>
        <time>2016-06-15T11:39:37.000Z</time>
      </trkpt>
      <trkpt lat="43.45441" lon="0.74794">
        <ele>244.9</ele>
        <time>2016-06-15T11:39:49.000Z</time>
      </trkpt>
      <trkpt lat="43.45448" lon="0.74802">
        <ele>246.7</ele>
        <time>2016-06-15T11:40:14.000Z</time>
      </trkpt>
      <trkpt lat="43.45456" lon="0.7481">
        <ele>247.4</ele>
        <time>2016-06-15T11:40:26.000Z</time>
      </trkpt>
      <trkpt lat="43.45464" lon="0.74815">
        <ele>248.4</ele>
        <time>2016-06-15T11:40:38.000Z</time>
      </trkpt>
      <trkpt lat="43.45471" lon="0.74823">
        <ele>249.8</ele>
        <time>2016-06-15T11:40:51.000Z</time>
      </trkpt>
      <trkpt lat="43.45479" lon="0.74835">
        <ele>252.2</ele>
        <time>2016-06-15T11:41:9.000Z</time>
      </trkpt>
      <trkpt lat="43.45484" lon="0.74846">
        <ele>253.8</ele>
        <time>2016-06-15T11:41:21.000Z</time>
      </trkpt>
      <trkpt lat="43.45482" lon="0.74858">
        <ele>255.7</ele>
        <time>2016-06-15T11:41:35.000Z</time>
      </trkpt>
      <trkpt lat="43.45478" lon="0.7487">
        <ele>257.5</ele>
        <time>2016-06-15T11:41:48.000Z</time>
      </trkpt>
      <trkpt lat="43.45473" lon="0.74881">
        <ele>258.9</ele>
        <time>2016-06-15T11:41:59.000Z</time>
      </trkpt>
      <trkpt lat="43.45468" lon="0.74891">
        <ele>260.3</ele>
        <time>2016-06-15T11:42:9.000Z</time>
      </trkpt>
      <trkpt lat="43.45465" lon="0.74904">
        <ele>261.6</ele>
        <time>2016-06-15T11:42:20.000Z</time>
      </trkpt>
      <trkpt lat="43.4546" lon="0.74916">
        <ele>262.5</ele>
        <time>2016-06-15T11:42:30.000Z</time>
      </trkpt>
      <trkpt lat="43.45455" lon="0.74926">
        <ele>263.1</ele>
        <time>2016-06-15T11:42:39.000Z</time>
      </trkpt>
      <trkpt lat="43.45451" lon="0.74939">
        <ele>263.6</ele>
        <time>2016-06-15T11:42:49.000Z</time>
      </trkpt>
      <trkpt lat="43.45447" lon="0.7495">
        <ele>264.3</ele>
        <time>2016-06-15T11:42:58.000Z</time>
      </trkpt>
      <trkpt lat="43.45442" lon="0.7496">
        <ele>264.9</ele>
        <time>2016-06-15T11:43:6.000Z</time>
      </trkpt>
      <trkpt lat="43.45439" lon="0.74973">
        <ele>265.3</ele>
        <time>2016-06-15T11:43:15.000Z</time>
      </trkpt>
      <trkpt lat="43.45437" lon="0.74986">
        <ele>265.5</ele>
        <time>2016-06-15T11:43:25.000Z</time>
      </trkpt>
      <trkpt lat="43.45435" lon="0.74998">
        <ele>265.5</ele>
        <time>2016-06-15T11:43:34.000Z</time>
      </trkpt>
      <trkpt lat="43.45434" lon="0.75011">
        <ele>265.5</ele>
        <time>2016-06-15T11:43:43.000Z</time>
      </trkpt>
      <trkpt lat="43.45431" lon="0.75024">
        <ele>265.3</ele>
        <time>2016-06-15T11:43:53.000Z</time>
      </trkpt>
      <trkpt lat="43.45433" lon="0.75037">
        <ele>265</ele>
        <time>2016-06-15T11:44:2.000Z</time>
      </trkpt>
      <trkpt lat="43.45434" lon="0.7505">
        <ele>264.8</ele>
        <time>2016-06-15T11:44:10.000Z</time>
      </trkpt>
      <trkpt lat="43.45438" lon="0.75062">
        <ele>264.6</ele>
        <time>2016-06-15T11:44:18.000Z</time>
      </trkpt>
      <trkpt lat="43.45441" lon="0.75074">
        <ele>264.5</ele>
        <time>2016-06-15T11:44:27.000Z</time>
      </trkpt>
      <trkpt lat="43.45446" lon="0.75085">
        <ele>264.4</ele>
        <time>2016-06-15T11:44:37.000Z</time>
      </trkpt>
      <trkpt lat="43.45453" lon="0.75093">
        <ele>262.9</ele>
        <time>2016-06-15T11:47:30.000Z</time>
      </trkpt>
      <trkpt lat="43.45459" lon="0.75104">
        <ele>262.7</ele>
        <time>2016-06-15T11:47:39.000Z</time>
      </trkpt>
      <trkpt lat="43.45465" lon="0.75115">
        <ele>262.6</ele>
        <time>2016-06-15T11:47:49.000Z</time>
      </trkpt>
      <trkpt lat="43.4547" lon="0.75127">
        <ele>262.6</ele>
        <time>2016-06-15T11:47:59.000Z</time>
      </trkpt>
      <trkpt lat="43.45474" lon="0.75138">
        <ele>262.8</ele>
        <time>2016-06-15T11:48:8.000Z</time>
      </trkpt>
      <trkpt lat="43.45479" lon="0.75149">
        <ele>263.6</ele>
        <time>2016-06-15T11:48:18.000Z</time>
      </trkpt>
      <trkpt lat="43.4548" lon="0.75162">
        <ele>264.5</ele>
        <time>2016-06-15T11:48:28.000Z</time>
      </trkpt>
      <trkpt lat="43.45483" lon="0.75175">
        <ele>265.5</ele>
        <time>2016-06-15T11:48:38.000Z</time>
      </trkpt>
      <trkpt lat="43.45487" lon="0.75188">
        <ele>266.2</ele>
        <time>2016-06-15T11:48:47.000Z</time>
      </trkpt>
      <trkpt lat="43.45489" lon="0.75201">
        <ele>266.8</ele>
        <time>2016-06-15T11:48:56.000Z</time>
      </trkpt>
      <trkpt lat="43.45494" lon="0.75212">
        <ele>267.1</ele>
        <time>2016-06-15T11:49:4.000Z</time>
      </trkpt>
      <trkpt lat="43.45498" lon="0.75224">
        <ele>267.2</ele>
        <time>2016-06-15T11:49:13.000Z</time>
      </trkpt>
      <trkpt lat="43.45504" lon="0.75233">
        <ele>267.2</ele>
        <time>2016-06-15T11:49:22.000Z</time>
      </trkpt>
      <trkpt lat="43.45512" lon="0.75239">
        <ele>267.2</ele>
        <time>2016-06-15T11:49:30.000Z</time>
      </trkpt>
      <trkpt lat="43.45521" lon="0.75245">
        <ele>267.3</ele>
        <time>2016-06-15T11:49:39.000Z</time>
      </trkpt>
      <trkpt lat="43.4553" lon="0.75251">
        <ele>267.4</ele>
        <time>2016-06-15T11:49:48.000Z</time>
      </trkpt>
      <trkpt lat="43.45538" lon="0.75256">
        <ele>267.5</ele>
        <time>2016-06-15T11:49:56.000Z</time>
      </trkpt>
      <trkpt lat="43.45546" lon="0.75262">
        <ele>267.6</ele>
        <time>2016-06-15T11:50:4.000Z</time>
      </trkpt>
      <trkpt lat="43.45555" lon="0.75269">
        <ele>267.9</ele>
        <time>2016-06-15T11:50:11.000Z</time>
      </trkpt>
      <trkpt lat="43.45563" lon="0.75276">
        <ele>268.4</ele>
        <time>2016-06-15T11:50:19.000Z</time>
      </trkpt>
      <trkpt lat="43.45571" lon="0.75283">
        <ele>268.8</ele>
        <time>2016-06-15T11:50:27.000Z</time>
      </trkpt>
      <trkpt lat="43.45578" lon="0.75293">
        <ele>269.4</ele>
        <time>2016-06-15T11:50:35.000Z</time>
      </trkpt>
      <trkpt lat="43.45586" lon="0.75301">
        <ele>269.7</ele>
        <time>2016-06-15T11:50:42.000Z</time>
      </trkpt>
      <trkpt lat="43.45593" lon="0.7531">
        <ele>270.3</ele>
        <time>2016-06-15T11:50:50.000Z</time>
      </trkpt>
      <trkpt lat="43.45601" lon="0.75318">
        <ele>270.9</ele>
        <time>2016-06-15T11:50:59.000Z</time>
      </trkpt>
      <trkpt lat="43.45608" lon="0.75326">
        <ele>271.6</ele>
        <time>2016-06-15T11:51:7.000Z</time>
      </trkpt>
      <trkpt lat="43.45616" lon="0.75334">
        <ele>272.5</ele>
        <time>2016-06-15T11:51:16.000Z</time>
      </trkpt>
      <trkpt lat="43.45624" lon="0.75341">
        <ele>273.3</ele>
        <time>2016-06-15T11:51:24.000Z</time>
      </trkpt>
      <trkpt lat="43.45632" lon="0.75348">
        <ele>274.5</ele>
        <time>2016-06-15T11:51:33.000Z</time>
      </trkpt>
      <trkpt lat="43.45639" lon="0.75356">
        <ele>276</ele>
        <time>2016-06-15T11:51:43.000Z</time>
      </trkpt>
      <trkpt lat="43.45648" lon="0.75363">
        <ele>277.4</ele>
        <time>2016-06-15T11:51:52.000Z</time>
      </trkpt>
      <trkpt lat="43.45655" lon="0.75372">
        <ele>279.3</ele>
        <time>2016-06-15T11:52:3.000Z</time>
      </trkpt>
      <trkpt lat="43.45663" lon="0.75378">
        <ele>280.9</ele>
        <time>2016-06-15T11:52:14.000Z</time>
      </trkpt>
      <trkpt lat="43.45672" lon="0.75386">
        <ele>281.8</ele>
        <time>2016-06-15T11:52:22.000Z</time>
      </trkpt>
      <trkpt lat="43.45679" lon="0.75393">
        <ele>282.5</ele>
        <time>2016-06-15T11:52:30.000Z</time>
      </trkpt>
      <trkpt lat="43.45687" lon="0.75401">
        <ele>283.1</ele>
        <time>2016-06-15T11:52:39.000Z</time>
      </trkpt>
      <trkpt lat="43.45694" lon="0.75409">
        <ele>283.4</ele>
        <time>2016-06-15T11:52:47.000Z</time>
      </trkpt>
      <trkpt lat="43.45701" lon="0.75417">
        <ele>283.5</ele>
        <time>2016-06-15T11:52:55.000Z</time>
      </trkpt>
      <trkpt lat="43.45709" lon="0.75423">
        <ele>283.2</ele>
        <time>2016-06-15T11:54:4.000Z</time>
      </trkpt>
      <trkpt lat="43.45717" lon="0.7543">
        <ele>283</ele>
        <time>2016-06-15T11:54:14.000Z</time>
      </trkpt>
      <trkpt lat="43.45724" lon="0.75439">
        <ele>282.4</ele>
        <time>2016-06-15T11:54:22.000Z</time>
      </trkpt>
      <trkpt lat="43.45729" lon="0.75449">
        <ele>281.2</ele>
        <time>2016-06-15T11:54:31.000Z</time>
      </trkpt>
      <trkpt lat="43.45735" lon="0.75459">
        <ele>279.3</ele>
        <time>2016-06-15T11:54:41.000Z</time>
      </trkpt>
      <trkpt lat="43.45742" lon="0.75469">
        <ele>277.4</ele>
        <time>2016-06-15T11:54:50.000Z</time>
      </trkpt>
      <trkpt lat="43.4575" lon="0.75477">
        <ele>275.6</ele>
        <time>2016-06-15T11:54:57.000Z</time>
      </trkpt>
      <trkpt lat="43.45758" lon="0.75485">
        <ele>274</ele>
        <time>2016-06-15T11:55:3.000Z</time>
      </trkpt>
      <trkpt lat="43.45767" lon="0.75489">
        <ele>272.9</ele>
        <time>2016-06-15T11:55:8.000Z</time>
      </trkpt>
      <trkpt lat="43.45774" lon="0.75497">
        <ele>271.1</ele>
        <time>2016-06-15T11:55:16.000Z</time>
      </trkpt>
      <trkpt lat="43.45783" lon="0.75503">
        <ele>269.6</ele>
        <time>2016-06-15T11:55:24.000Z</time>
      </trkpt>
      <trkpt lat="43.45793" lon="0.75507">
        <ele>268</ele>
        <time>2016-06-15T11:55:32.000Z</time>
      </trkpt>
      <trkpt lat="43.45802" lon="0.7551">
        <ele>266.6</ele>
        <time>2016-06-15T11:55:39.000Z</time>
      </trkpt>
      <trkpt lat="43.45812" lon="0.7551">
        <ele>265.1</ele>
        <time>2016-06-15T11:55:47.000Z</time>
      </trkpt>
      <trkpt lat="43.45822" lon="0.75511">
        <ele>263.1</ele>
        <time>2016-06-15T11:55:56.000Z</time>
      </trkpt>
      <trkpt lat="43.45832" lon="0.7551">
        <ele>261.4</ele>
        <time>2016-06-15T11:56:4.000Z</time>
      </trkpt>
      <trkpt lat="43.45842" lon="0.7551">
        <ele>259.7</ele>
        <time>2016-06-15T11:56:12.000Z</time>
      </trkpt>
      <trkpt lat="43.45851" lon="0.75511">
        <ele>258.1</ele>
        <time>2016-06-15T11:56:20.000Z</time>
      </trkpt>
      <trkpt lat="43.4586" lon="0.75512">
        <ele>256.6</ele>
        <time>2016-06-15T11:56:29.000Z</time>
      </trkpt>
      <trkpt lat="43.45871" lon="0.75511">
        <ele>254.8</ele>
        <time>2016-06-15T11:56:39.000Z</time>
      </trkpt>
      <trkpt lat="43.4588" lon="0.75506">
        <ele>253.9</ele>
        <time>2016-06-15T11:56:46.000Z</time>
      </trkpt>
      <trkpt lat="43.45889" lon="0.75502">
        <ele>253.1</ele>
        <time>2016-06-15T11:56:54.000Z</time>
      </trkpt>
      <trkpt lat="43.45898" lon="0.75498">
        <ele>252.4</ele>
        <time>2016-06-15T11:57:3.000Z</time>
      </trkpt>
      <trkpt lat="43.45908" lon="0.75493">
        <ele>252.1</ele>
        <time>2016-06-15T11:57:11.000Z</time>
      </trkpt>
      <trkpt lat="43.45918" lon="0.75491">
        <ele>252.2</ele>
        <time>2016-06-15T11:57:21.000Z</time>
      </trkpt>
      <trkpt lat="43.45928" lon="0.75489">
        <ele>252.6</ele>
        <time>2016-06-15T11:57:30.000Z</time>
      </trkpt>
      <trkpt lat="43.45937" lon="0.75492">
        <ele>252.9</ele>
        <time>2016-06-15T11:57:38.000Z</time>
      </trkpt>
      <trkpt lat="43.45946" lon="0.75498">
        <ele>253.1</ele>
        <time>2016-06-15T11:57:47.000Z</time>
      </trkpt>
      <trkpt lat="43.45956" lon="0.75504">
        <ele>253.1</ele>
        <time>2016-06-15T11:57:56.000Z</time>
      </trkpt>
      <trkpt lat="43.45964" lon="0.75511">
        <ele>252.8</ele>
        <time>2016-06-15T11:58:6.000Z</time>
      </trkpt>
      <trkpt lat="43.45973" lon="0.75517">
        <ele>252.4</ele>
        <time>2016-06-15T11:58:14.000Z</time>
      </trkpt>
      <trkpt lat="43.45982" lon="0.75522">
        <ele>252</ele>
        <time>2016-06-15T11:58:20.000Z</time>
      </trkpt>
      <trkpt lat="43.45991" lon="0.75524">
        <ele>251.4</ele>
        <time>2016-06-15T11:58:27.000Z</time>
      </trkpt>
      <trkpt lat="43.46001" lon="0.75525">
        <ele>250.5</ele>
        <time>2016-06-15T11:58:35.000Z</time>
      </trkpt>
      <trkpt lat="43.4601" lon="0.75526">
        <ele>249.6</ele>
        <time>2016-06-15T11:58:44.000Z</time>
      </trkpt>
      <trkpt lat="43.46019" lon="0.75529">
        <ele>248.7</ele>
        <time>2016-06-15T11:58:52.000Z</time>
      </trkpt>
      <trkpt lat="43.46029" lon="0.75532">
        <ele>247.7</ele>
        <time>2016-06-15T11:59:1.000Z</time>
      </trkpt>
      <trkpt lat="43.46038" lon="0.75534">
        <ele>246.6</ele>
        <time>2016-06-15T11:59:9.000Z</time>
      </trkpt>
      <trkpt lat="43.46048" lon="0.75535">
        <ele>245.8</ele>
        <time>2016-06-15T11:59:17.000Z</time>
      </trkpt>
      <trkpt lat="43.46058" lon="0.75538">
        <ele>245</ele>
        <time>2016-06-15T11:59:25.000Z</time>
      </trkpt>
      <trkpt lat="43.46067" lon="0.75538">
        <ele>244.4</ele>
        <time>2016-06-15T11:59:33.000Z</time>
      </trkpt>
      <trkpt lat="43.46076" lon="0.75533">
        <ele>243.9</ele>
        <time>2016-06-15T11:59:41.000Z</time>
      </trkpt>
      <trkpt lat="43.46085" lon="0.75527">
        <ele>243.3</ele>
        <time>2016-06-15T11:59:49.000Z</time>
      </trkpt>
      <trkpt lat="43.46093" lon="0.7552">
        <ele>242.8</ele>
        <time>2016-06-15T11:59:57.000Z</time>
      </trkpt>
      <trkpt lat="43.46101" lon="0.75512">
        <ele>242.4</ele>
        <time>2016-06-15T12:00:5.000Z</time>
      </trkpt>
      <trkpt lat="43.46109" lon="0.75504">
        <ele>241.9</ele>
        <time>2016-06-15T12:00:13.000Z</time>
      </trkpt>
      <trkpt lat="43.46118" lon="0.75495">
        <ele>241.4</ele>
        <time>2016-06-15T12:00:21.000Z</time>
      </trkpt>
      <trkpt lat="43.46126" lon="0.75488">
        <ele>241</ele>
        <time>2016-06-15T12:00:29.000Z</time>
      </trkpt>
      <trkpt lat="43.46134" lon="0.75481">
        <ele>240.6</ele>
        <time>2016-06-15T12:00:38.000Z</time>
      </trkpt>
      <trkpt lat="43.46143" lon="0.75482">
        <ele>240.4</ele>
        <time>2016-06-15T12:00:46.000Z</time>
      </trkpt>
      <trkpt lat="43.46153" lon="0.7548">
        <ele>240.1</ele>
        <time>2016-06-15T12:00:55.000Z</time>
      </trkpt>
      <trkpt lat="43.46161" lon="0.75475">
        <ele>239.8</ele>
        <time>2016-06-15T12:01:1.000Z</time>
      </trkpt>
      <trkpt lat="43.46169" lon="0.75468">
        <ele>239.4</ele>
        <time>2016-06-15T12:01:9.000Z</time>
      </trkpt>
      <trkpt lat="43.46177" lon="0.75463">
        <ele>239.1</ele>
        <time>2016-06-15T12:01:17.000Z</time>
      </trkpt>
      <trkpt lat="43.46186" lon="0.75459">
        <ele>238.9</ele>
        <time>2016-06-15T12:01:25.000Z</time>
      </trkpt>
      <trkpt lat="43.46195" lon="0.75454">
        <ele>238.8</ele>
        <time>2016-06-15T12:01:33.000Z</time>
      </trkpt>
      <trkpt lat="43.46204" lon="0.7545">
        <ele>238.6</ele>
        <time>2016-06-15T12:01:41.000Z</time>
      </trkpt>
      <trkpt lat="43.46214" lon="0.75446">
        <ele>238.5</ele>
        <time>2016-06-15T12:01:49.000Z</time>
      </trkpt>
      <trkpt lat="43.46223" lon="0.75442">
        <ele>238.6</ele>
        <time>2016-06-15T12:01:57.000Z</time>
      </trkpt>
      <trkpt lat="43.46233" lon="0.75437">
        <ele>238.8</ele>
        <time>2016-06-15T12:02:7.000Z</time>
      </trkpt>
      <trkpt lat="43.46241" lon="0.75431">
        <ele>239.2</ele>
        <time>2016-06-15T12:02:16.000Z</time>
      </trkpt>
      <trkpt lat="43.4625" lon="0.75426">
        <ele>239.7</ele>
        <time>2016-06-15T12:02:25.000Z</time>
      </trkpt>
      <trkpt lat="43.46259" lon="0.75421">
        <ele>240.1</ele>
        <time>2016-06-15T12:02:34.000Z</time>
      </trkpt>
      <trkpt lat="43.46268" lon="0.75417">
        <ele>240.3</ele>
        <time>2016-06-15T12:02:43.000Z</time>
      </trkpt>
      <trkpt lat="43.46277" lon="0.75411">
        <ele>240.3</ele>
        <time>2016-06-15T12:02:54.000Z</time>
      </trkpt>
      <trkpt lat="43.46286" lon="0.75408">
        <ele>240.2</ele>
        <time>2016-06-15T12:03:1.000Z</time>
      </trkpt>
      <trkpt lat="43.46296" lon="0.75405">
        <ele>239.9</ele>
        <time>2016-06-15T12:03:9.000Z</time>
      </trkpt>
      <trkpt lat="43.46305" lon="0.75402">
        <ele>239.6</ele>
        <time>2016-06-15T12:03:17.000Z</time>
      </trkpt>
      <trkpt lat="43.46314" lon="0.754">
        <ele>239.2</ele>
        <time>2016-06-15T12:03:24.000Z</time>
      </trkpt>
      <trkpt lat="43.46323" lon="0.75398">
        <ele>238.7</ele>
        <time>2016-06-15T12:03:31.000Z</time>
      </trkpt>
      <trkpt lat="43.46333" lon="0.75395">
        <ele>237.9</ele>
        <time>2016-06-15T12:03:39.000Z</time>
      </trkpt>
      <trkpt lat="43.46342" lon="0.75393">
        <ele>237.4</ele>
        <time>2016-06-15T12:03:46.000Z</time>
      </trkpt>
      <trkpt lat="43.46352" lon="0.75392">
        <ele>236.7</ele>
        <time>2016-06-15T12:03:54.000Z</time>
      </trkpt>
      <trkpt lat="43.46362" lon="0.75391">
        <ele>235.8</ele>
        <time>2016-06-15T12:04:2.000Z</time>
      </trkpt>
      <trkpt lat="43.46371" lon="0.75389">
        <ele>234.7</ele>
        <time>2016-06-15T12:04:9.000Z</time>
      </trkpt>
      <trkpt lat="43.4638" lon="0.75387">
        <ele>233.5</ele>
        <time>2016-06-15T12:04:16.000Z</time>
      </trkpt>
      <trkpt lat="43.46389" lon="0.75386">
        <ele>232.1</ele>
        <time>2016-06-15T12:04:23.000Z</time>
      </trkpt>
      <trkpt lat="43.464" lon="0.75383">
        <ele>230.9</ele>
        <time>2016-06-15T12:04:31.000Z</time>
      </trkpt>
      <trkpt lat="43.4641" lon="0.75382">
        <ele>229.9</ele>
        <time>2016-06-15T12:04:38.000Z</time>
      </trkpt>
      <trkpt lat="43.46419" lon="0.75381">
        <ele>229</ele>
        <time>2016-06-15T12:04:45.000Z</time>
      </trkpt>
      <trkpt lat="43.46429" lon="0.75381">
        <ele>227.9</ele>
        <time>2016-06-15T12:04:53.000Z</time>
      </trkpt>
      <trkpt lat="43.46438" lon="0.7538">
        <ele>227.1</ele>
        <time>2016-06-15T12:05:0.000Z</time>
      </trkpt>
      <trkpt lat="43.46447" lon="0.75377">
        <ele>226.5</ele>
        <time>2016-06-15T12:05:8.000Z</time>
      </trkpt>
      <trkpt lat="43.46457" lon="0.75375">
        <ele>225.8</ele>
        <time>2016-06-15T12:05:16.000Z</time>
      </trkpt>
      <trkpt lat="43.46467" lon="0.75373">
        <ele>225.3</ele>
        <time>2016-06-15T12:05:24.000Z</time>
      </trkpt>
      <trkpt lat="43.46477" lon="0.75372">
        <ele>224.9</ele>
        <time>2016-06-15T12:05:31.000Z</time>
      </trkpt>
      <trkpt lat="43.46486" lon="0.7537">
        <ele>224.5</ele>
        <time>2016-06-15T12:05:38.000Z</time>
      </trkpt>
      <trkpt lat="43.46496" lon="0.75369">
        <ele>224.2</ele>
        <time>2016-06-15T12:05:46.000Z</time>
      </trkpt>
      <trkpt lat="43.46506" lon="0.75369">
        <ele>224.1</ele>
        <time>2016-06-15T12:05:54.000Z</time>
      </trkpt>
      <trkpt lat="43.46515" lon="0.7537">
        <ele>224</ele>
        <time>2016-06-15T12:06:1.000Z</time>
      </trkpt>
      <trkpt lat="43.46525" lon="0.75373">
        <ele>224</ele>
        <time>2016-06-15T12:06:9.000Z</time>
      </trkpt>
      <trkpt lat="43.46535" lon="0.75375">
        <ele>223.9</ele>
        <time>2016-06-15T12:06:17.000Z</time>
      </trkpt>
      <trkpt lat="43.46544" lon="0.75378">
        <ele>223.8</ele>
        <time>2016-06-15T12:06:24.000Z</time>
      </trkpt>
      <trkpt lat="43.46554" lon="0.75381">
        <ele>223.7</ele>
        <time>2016-06-15T12:06:32.000Z</time>
      </trkpt>
      <trkpt lat="43.46563" lon="0.75384">
        <ele>223.6</ele>
        <time>2016-06-15T12:06:40.000Z</time>
      </trkpt>
      <trkpt lat="43.46573" lon="0.75386">
        <ele>223.5</ele>
        <time>2016-06-15T12:06:48.000Z</time>
      </trkpt>
      <trkpt lat="43.46582" lon="0.75386">
        <ele>223.2</ele>
        <time>2016-06-15T12:06:57.000Z</time>
      </trkpt>
      <trkpt lat="43.46588" lon="0.75377">
        <ele>222.3</ele>
        <time>2016-06-15T12:07:11.000Z</time>
      </trkpt>
      <trkpt lat="43.46584" lon="0.75365">
        <ele>220.6</ele>
        <time>2016-06-15T12:12:36.000Z</time>
      </trkpt>
      <trkpt lat="43.46581" lon="0.75353">
        <ele>220.2</ele>
        <time>2016-06-15T12:12:46.000Z</time>
      </trkpt>
      <trkpt lat="43.46581" lon="0.7534">
        <ele>219.3</ele>
        <time>2016-06-15T12:12:57.000Z</time>
      </trkpt>
      <trkpt lat="43.46583" lon="0.75327">
        <ele>218.4</ele>
        <time>2016-06-15T12:13:6.000Z</time>
      </trkpt>
      <trkpt lat="43.46586" lon="0.75315">
        <ele>217.2</ele>
        <time>2016-06-15T12:13:15.000Z</time>
      </trkpt>
      <trkpt lat="43.46589" lon="0.75302">
        <ele>215.9</ele>
        <time>2016-06-15T12:13:24.000Z</time>
      </trkpt>
      <trkpt lat="43.46592" lon="0.7529">
        <ele>214.6</ele>
        <time>2016-06-15T12:13:32.000Z</time>
      </trkpt>
      <trkpt lat="43.46594" lon="0.75276">
        <ele>213.3</ele>
        <time>2016-06-15T12:13:40.000Z</time>
      </trkpt>
      <trkpt lat="43.46595" lon="0.75264">
        <ele>211.7</ele>
        <time>2016-06-15T12:13:48.000Z</time>
      </trkpt>
      <trkpt lat="43.46597" lon="0.75251">
        <ele>210.2</ele>
        <time>2016-06-15T12:13:56.000Z</time>
      </trkpt>
      <trkpt lat="43.46599" lon="0.75238">
        <ele>208.7</ele>
        <time>2016-06-15T12:14:4.000Z</time>
      </trkpt>
      <trkpt lat="43.46601" lon="0.75225">
        <ele>207.4</ele>
        <time>2016-06-15T12:14:12.000Z</time>
      </trkpt>
      <trkpt lat="43.46604" lon="0.75212">
        <ele>206.1</ele>
        <time>2016-06-15T12:14:20.000Z</time>
      </trkpt>
      <trkpt lat="43.46606" lon="0.75199">
        <ele>204.9</ele>
        <time>2016-06-15T12:14:28.000Z</time>
      </trkpt>
      <trkpt lat="43.46608" lon="0.75186">
        <ele>203.8</ele>
        <time>2016-06-15T12:14:36.000Z</time>
      </trkpt>
      <trkpt lat="43.4661" lon="0.75172">
        <ele>202.9</ele>
        <time>2016-06-15T12:14:44.000Z</time>
      </trkpt>
      <trkpt lat="43.46612" lon="0.75159">
        <ele>201.9</ele>
        <time>2016-06-15T12:14:52.000Z</time>
      </trkpt>
      <trkpt lat="43.46614" lon="0.75145">
        <ele>201</ele>
        <time>2016-06-15T12:15:0.000Z</time>
      </trkpt>
      <trkpt lat="43.46617" lon="0.75132">
        <ele>200.1</ele>
        <time>2016-06-15T12:15:8.000Z</time>
      </trkpt>
      <trkpt lat="43.46619" lon="0.75119">
        <ele>199.2</ele>
        <time>2016-06-15T12:15:16.000Z</time>
      </trkpt>
      <trkpt lat="43.46622" lon="0.75105">
        <ele>198.3</ele>
        <time>2016-06-15T12:15:24.000Z</time>
      </trkpt>
      <trkpt lat="43.46623" lon="0.75091">
        <ele>197.3</ele>
        <time>2016-06-15T12:15:32.000Z</time>
      </trkpt>
      <trkpt lat="43.46625" lon="0.75079">
        <ele>196.5</ele>
        <time>2016-06-15T12:15:39.000Z</time>
      </trkpt>
      <trkpt lat="43.46627" lon="0.75066">
        <ele>195.3</ele>
        <time>2016-06-15T12:15:47.000Z</time>
      </trkpt>
      <trkpt lat="43.4663" lon="0.75052">
        <ele>194.4</ele>
        <time>2016-06-15T12:15:55.000Z</time>
      </trkpt>
      <trkpt lat="43.46631" lon="0.7504">
        <ele>193.7</ele>
        <time>2016-06-15T12:16:2.000Z</time>
      </trkpt>
      <trkpt lat="43.46634" lon="0.75028">
        <ele>192.9</ele>
        <time>2016-06-15T12:16:9.000Z</time>
      </trkpt>
      <trkpt lat="43.46636" lon="0.75014">
        <ele>192</ele>
        <time>2016-06-15T12:16:17.000Z</time>
      </trkpt>
      <trkpt lat="43.46636" lon="0.75002">
        <ele>191.2</ele>
        <time>2016-06-15T12:16:24.000Z</time>
      </trkpt>
      <trkpt lat="43.46634" lon="0.7499">
        <ele>190.3</ele>
        <time>2016-06-15T12:16:31.000Z</time>
      </trkpt>
      <trkpt lat="43.46628" lon="0.74979">
        <ele>189.6</ele>
        <time>2016-06-15T12:16:38.000Z</time>
      </trkpt>
      <trkpt lat="43.4662" lon="0.7497">
        <ele>188.8</ele>
        <time>2016-06-15T12:16:46.000Z</time>
      </trkpt>
      <trkpt lat="43.46612" lon="0.74962">
        <ele>188.2</ele>
        <time>2016-06-15T12:16:54.000Z</time>
      </trkpt>
      <trkpt lat="43.46603" lon="0.74957">
        <ele>187.4</ele>
        <time>2016-06-15T12:17:3.000Z</time>
      </trkpt>
      <trkpt lat="43.46595" lon="0.74949">
        <ele>186.8</ele>
        <time>2016-06-15T12:17:11.000Z</time>
      </trkpt>
      <trkpt lat="43.46587" lon="0.74941">
        <ele>186.4</ele>
        <time>2016-06-15T12:17:19.000Z</time>
      </trkpt>
      <trkpt lat="43.46579" lon="0.74935">
        <ele>186.2</ele>
        <time>2016-06-15T12:17:27.000Z</time>
      </trkpt>
      <trkpt lat="43.46572" lon="0.74928">
        <ele>186.1</ele>
        <time>2016-06-15T12:17:34.000Z</time>
      </trkpt>
      <trkpt lat="43.46565" lon="0.74917">
        <ele>186</ele>
        <time>2016-06-15T12:17:41.000Z</time>
      </trkpt>
      <trkpt lat="43.46558" lon="0.74907">
        <ele>185.9</ele>
        <time>2016-06-15T12:17:48.000Z</time>
      </trkpt>
      <trkpt lat="43.4655" lon="0.74899">
        <ele>185.7</ele>
        <time>2016-06-15T12:17:56.000Z</time>
      </trkpt>
      <trkpt lat="43.46542" lon="0.7489">
        <ele>185.3</ele>
        <time>2016-06-15T12:18:3.000Z</time>
      </trkpt>
      <trkpt lat="43.46536" lon="0.74882">
        <ele>184.9</ele>
        <time>2016-06-15T12:18:10.000Z</time>
      </trkpt>
      <trkpt lat="43.46529" lon="0.74872">
        <ele>184.5</ele>
        <time>2016-06-15T12:18:17.000Z</time>
      </trkpt>
      <trkpt lat="43.46522" lon="0.74863">
        <ele>184.1</ele>
        <time>2016-06-15T12:18:25.000Z</time>
      </trkpt>
      <trkpt lat="43.46514" lon="0.74856">
        <ele>183.6</ele>
        <time>2016-06-15T12:18:34.000Z</time>
      </trkpt>
      <trkpt lat="43.46506" lon="0.74848">
        <ele>183</ele>
        <time>2016-06-15T12:18:42.000Z</time>
      </trkpt>
      <trkpt lat="43.46499" lon="0.7484">
        <ele>182.5</ele>
        <time>2016-06-15T12:18:49.000Z</time>
      </trkpt>
      <trkpt lat="43.46492" lon="0.74832">
        <ele>182.2</ele>
        <time>2016-06-15T12:18:56.000Z</time>
      </trkpt>
      <trkpt lat="43.46484" lon="0.74823">
        <ele>181.9</ele>
        <time>2016-06-15T12:19:4.000Z</time>
      </trkpt>
      <trkpt lat="43.46476" lon="0.74816">
        <ele>181.7</ele>
        <time>2016-06-15T12:19:12.000Z</time>
      </trkpt>
      <trkpt lat="43.46468" lon="0.74807">
        <ele>181.4</ele>
        <time>2016-06-15T12:19:20.000Z</time>
      </trkpt>
      <trkpt lat="43.4646" lon="0.74799">
        <ele>181.2</ele>
        <time>2016-06-15T12:19:28.000Z</time>
      </trkpt>
      <trkpt lat="43.46452" lon="0.74791">
        <ele>181.1</ele>
        <time>2016-06-15T12:19:36.000Z</time>
      </trkpt>
      <trkpt lat="43.46444" lon="0.74783">
        <ele>180.9</ele>
        <time>2016-06-15T12:19:44.000Z</time>
      </trkpt>
      <trkpt lat="43.46436" lon="0.74774">
        <ele>180.8</ele>
        <time>2016-06-15T12:19:52.000Z</time>
      </trkpt>
      <trkpt lat="43.46429" lon="0.74767">
        <ele>180.5</ele>
        <time>2016-06-15T12:19:59.000Z</time>
      </trkpt>
      <trkpt lat="43.46421" lon="0.74758">
        <ele>180.3</ele>
        <time>2016-06-15T12:20:7.000Z</time>
      </trkpt>
      <trkpt lat="43.46413" lon="0.74751">
        <ele>180.1</ele>
        <time>2016-06-15T12:20:14.000Z</time>
      </trkpt>
      <trkpt lat="43.46406" lon="0.74743">
        <ele>179.8</ele>
        <time>2016-06-15T12:20:22.000Z</time>
      </trkpt>
      <trkpt lat="43.46398" lon="0.74735">
        <ele>179.6</ele>
        <time>2016-06-15T12:20:30.000Z</time>
      </trkpt>
      <trkpt lat="43.46389" lon="0.74727">
        <ele>179.4</ele>
        <time>2016-06-15T12:20:39.000Z</time>
      </trkpt>
      <trkpt lat="43.46383" lon="0.74716">
        <ele>179.3</ele>
        <time>2016-06-15T12:20:47.000Z</time>
      </trkpt>
      <trkpt lat="43.46378" lon="0.74706">
        <ele>179.2</ele>
        <time>2016-06-15T12:20:55.000Z</time>
      </trkpt>
      <trkpt lat="43.46372" lon="0.74695">
        <ele>179</ele>
        <time>2016-06-15T12:21:3.000Z</time>
      </trkpt>
      <trkpt lat="43.46367" lon="0.74685">
        <ele>178.8</ele>
        <time>2016-06-15T12:21:11.000Z</time>
      </trkpt>
      <trkpt lat="43.46361" lon="0.74675">
        <ele>178.7</ele>
        <time>2016-06-15T12:21:19.000Z</time>
      </trkpt>
      <trkpt lat="43.46356" lon="0.74665">
        <ele>178.7</ele>
        <time>2016-06-15T12:21:27.000Z</time>
      </trkpt>
      <trkpt lat="43.4635" lon="0.74654">
        <ele>178.6</ele>
        <time>2016-06-15T12:21:35.000Z</time>
      </trkpt>
      <trkpt lat="43.46345" lon="0.74642">
        <ele>178.6</ele>
        <time>2016-06-15T12:21:43.000Z</time>
      </trkpt>
      <trkpt lat="43.46339" lon="0.74631">
        <ele>178.6</ele>
        <time>2016-06-15T12:21:51.000Z</time>
      </trkpt>
      <trkpt lat="43.46334" lon="0.7462">
        <ele>178.6</ele>
        <time>2016-06-15T12:21:59.000Z</time>
      </trkpt>
      <trkpt lat="43.46328" lon="0.74609">
        <ele>178.7</ele>
        <time>2016-06-15T12:22:7.000Z</time>
      </trkpt>
      <trkpt lat="43.46323" lon="0.74598">
        <ele>178.9</ele>
        <time>2016-06-15T12:22:15.000Z</time>
      </trkpt>
      <trkpt lat="43.46317" lon="0.74588">
        <ele>179</ele>
        <time>2016-06-15T12:22:23.000Z</time>
      </trkpt>
      <trkpt lat="43.46312" lon="0.74576">
        <ele>179.2</ele>
        <time>2016-06-15T12:22:31.000Z</time>
      </trkpt>
      <trkpt lat="43.46307" lon="0.74564">
        <ele>179.5</ele>
        <time>2016-06-15T12:22:40.000Z</time>
      </trkpt>
      <trkpt lat="43.46301" lon="0.74555">
        <ele>180.1</ele>
        <time>2016-06-15T12:22:48.000Z</time>
      </trkpt>
      <trkpt lat="43.46295" lon="0.74544">
        <ele>180.8</ele>
        <time>2016-06-15T12:22:57.000Z</time>
      </trkpt>
      <trkpt lat="43.46289" lon="0.74534">
        <ele>181.4</ele>
        <time>2016-06-15T12:23:5.000Z</time>
      </trkpt>
      <trkpt lat="43.46283" lon="0.74525">
        <ele>182.5</ele>
        <time>2016-06-15T12:23:14.000Z</time>
      </trkpt>
      <trkpt lat="43.46279" lon="0.74513">
        <ele>183.4</ele>
        <time>2016-06-15T12:23:23.000Z</time>
      </trkpt>
      <trkpt lat="43.46273" lon="0.74502">
        <ele>184.5</ele>
        <time>2016-06-15T12:23:33.000Z</time>
      </trkpt>
      <trkpt lat="43.46267" lon="0.74492">
        <ele>185.6</ele>
        <time>2016-06-15T12:23:42.000Z</time>
      </trkpt>
      <trkpt lat="43.46261" lon="0.74481">
        <ele>186.5</ele>
        <time>2016-06-15T12:23:49.000Z</time>
      </trkpt>
      <trkpt lat="43.46257" lon="0.7447">
        <ele>187.9</ele>
        <time>2016-06-15T12:23:58.000Z</time>
      </trkpt>
      <trkpt lat="43.46252" lon="0.74459">
        <ele>189.2</ele>
        <time>2016-06-15T12:24:8.000Z</time>
      </trkpt>
      <trkpt lat="43.46244" lon="0.74452">
        <ele>190.3</ele>
        <time>2016-06-15T12:24:16.000Z</time>
      </trkpt>
      <trkpt lat="43.46239" lon="0.74441">
        <ele>191.5</ele>
        <time>2016-06-15T12:24:26.000Z</time>
      </trkpt>
      <trkpt lat="43.46234" lon="0.74431">
        <ele>192.4</ele>
        <time>2016-06-15T12:24:35.000Z</time>
      </trkpt>
      <trkpt lat="43.46229" lon="0.74421">
        <ele>193.1</ele>
        <time>2016-06-15T12:24:42.000Z</time>
      </trkpt>
      <trkpt lat="43.46222" lon="0.74411">
        <ele>193.7</ele>
        <time>2016-06-15T12:24:52.000Z</time>
      </trkpt>
      <trkpt lat="43.46216" lon="0.74401">
        <ele>194.1</ele>
        <time>2016-06-15T12:25:0.000Z</time>
      </trkpt>
      <trkpt lat="43.46209" lon="0.74394">
        <ele>194.3</ele>
        <time>2016-06-15T12:25:9.000Z</time>
      </trkpt>
      <trkpt lat="43.462" lon="0.74393">
        <ele>194.4</ele>
        <time>2016-06-15T12:25:18.000Z</time>
      </trkpt>
      <trkpt lat="43.4619" lon="0.74393">
        <ele>194.5</ele>
        <time>2016-06-15T12:25:26.000Z</time>
      </trkpt>
      <trkpt lat="43.46182" lon="0.74386">
        <ele>194.6</ele>
        <time>2016-06-15T12:25:35.000Z</time>
      </trkpt>
      <trkpt lat="43.46174" lon="0.74377">
        <ele>194.6</ele>
        <time>2016-06-15T12:25:43.000Z</time>
      </trkpt>
      <trkpt lat="43.46167" lon="0.74369">
        <ele>194.6</ele>
        <time>2016-06-15T12:25:52.000Z</time>
      </trkpt>
      <trkpt lat="43.46158" lon="0.74363">
        <ele>194.6</ele>
        <time>2016-06-15T12:26:0.000Z</time>
      </trkpt>
      <trkpt lat="43.46151" lon="0.74356">
        <ele>194.1</ele>
        <time>2016-06-15T12:26:9.000Z</time>
      </trkpt>
      <trkpt lat="43.46141" lon="0.7435">
        <ele>193.3</ele>
        <time>2016-06-15T12:26:17.000Z</time>
      </trkpt>
      <trkpt lat="43.46132" lon="0.74347">
        <ele>192.4</ele>
        <time>2016-06-15T12:26:26.000Z</time>
      </trkpt>
      <trkpt lat="43.46123" lon="0.74345">
        <ele>191.4</ele>
        <time>2016-06-15T12:26:37.000Z</time>
      </trkpt>
      <trkpt lat="43.46113" lon="0.74345">
        <ele>190.7</ele>
        <time>2016-06-15T12:26:47.000Z</time>
      </trkpt>
      <trkpt lat="43.46104" lon="0.74348">
        <ele>189.9</ele>
        <time>2016-06-15T12:26:58.000Z</time>
      </trkpt>
      <trkpt lat="43.46095" lon="0.74348">
        <ele>189.4</ele>
        <time>2016-06-15T12:27:7.000Z</time>
      </trkpt>
      <trkpt lat="43.46086" lon="0.74348">
        <ele>188.9</ele>
        <time>2016-06-15T12:27:18.000Z</time>
      </trkpt>
      <trkpt lat="43.46076" lon="0.74351">
        <ele>188.5</ele>
        <time>2016-06-15T12:27:26.000Z</time>
      </trkpt>
      <trkpt lat="43.46066" lon="0.74351">
        <ele>188.1</ele>
        <time>2016-06-15T12:27:35.000Z</time>
      </trkpt>
      <trkpt lat="43.46056" lon="0.74353">
        <ele>187.8</ele>
        <time>2016-06-15T12:27:44.000Z</time>
      </trkpt>
      <trkpt lat="43.46047" lon="0.74353">
        <ele>187.3</ele>
        <time>2016-06-15T12:27:54.000Z</time>
      </trkpt>
      <trkpt lat="43.46038" lon="0.74356">
        <ele>186.9</ele>
        <time>2016-06-15T12:28:3.000Z</time>
      </trkpt>
      <trkpt lat="43.46028" lon="0.74356">
        <ele>186.6</ele>
        <time>2016-06-15T12:28:13.000Z</time>
      </trkpt>
      <trkpt lat="43.46019" lon="0.74356">
        <ele>186.3</ele>
        <time>2016-06-15T12:28:22.000Z</time>
      </trkpt>
      <trkpt lat="43.46009" lon="0.74357">
        <ele>186.2</ele>
        <time>2016-06-15T12:28:30.000Z</time>
      </trkpt>
      <trkpt lat="43.45999" lon="0.74359">
        <ele>185.9</ele>
        <time>2016-06-15T12:28:40.000Z</time>
      </trkpt>
      <trkpt lat="43.45989" lon="0.74359">
        <ele>185.7</ele>
        <time>2016-06-15T12:28:50.000Z</time>
      </trkpt>
      <trkpt lat="43.4598" lon="0.74359">
        <ele>185.5</ele>
        <time>2016-06-15T12:29:0.000Z</time>
      </trkpt>
      <trkpt lat="43.4597" lon="0.7436">
        <ele>185.3</ele>
        <time>2016-06-15T12:29:9.000Z</time>
      </trkpt>
      <trkpt lat="43.4596" lon="0.74361">
        <ele>185.2</ele>
        <time>2016-06-15T12:29:17.000Z</time>
      </trkpt>
      <trkpt lat="43.45951" lon="0.74361">
        <ele>185.2</ele>
        <time>2016-06-15T12:29:25.000Z</time>
      </trkpt>
      <trkpt lat="43.45941" lon="0.74363">
        <ele>185.2</ele>
        <time>2016-06-15T12:29:34.000Z</time>
      </trkpt>
      <trkpt lat="43.45931" lon="0.74363">
        <ele>185.3</ele>
        <time>2016-06-15T12:29:43.000Z</time>
      </trkpt>
      <trkpt lat="43.45922" lon="0.74363">
        <ele>185.3</ele>
        <time>2016-06-15T12:29:51.000Z</time>
      </trkpt>
      <trkpt lat="43.45912" lon="0.74364">
        <ele>185.4</ele>
        <time>2016-06-15T12:30:0.000Z</time>
      </trkpt>
      <trkpt lat="43.45903" lon="0.7436">
        <ele>185.4</ele>
        <time>2016-06-15T12:30:8.000Z</time>
      </trkpt>
      <trkpt lat="43.45894" lon="0.74359">
        <ele>185.5</ele>
        <time>2016-06-15T12:30:16.000Z</time>
      </trkpt>
      <trkpt lat="43.45884" lon="0.74356">
        <ele>185.6</ele>
        <time>2016-06-15T12:30:25.000Z</time>
      </trkpt>
      <trkpt lat="43.45875" lon="0.74356">
        <ele>185.7</ele>
        <time>2016-06-15T12:30:33.000Z</time>
      </trkpt>
      <trkpt lat="43.45866" lon="0.74355">
        <ele>185.8</ele>
        <time>2016-06-15T12:30:43.000Z</time>
      </trkpt>
      <trkpt lat="43.45857" lon="0.74349">
        <ele>186.1</ele>
        <time>2016-06-15T12:30:52.000Z</time>
      </trkpt>
      <trkpt lat="43.4585" lon="0.7434">
        <ele>186.4</ele>
        <time>2016-06-15T12:31:0.000Z</time>
      </trkpt>
      <trkpt lat="43.45843" lon="0.74331">
        <ele>186.7</ele>
        <time>2016-06-15T12:31:7.000Z</time>
      </trkpt>
      <trkpt lat="43.45836" lon="0.74322">
        <ele>186.8</ele>
        <time>2016-06-15T12:31:15.000Z</time>
      </trkpt>
      <trkpt lat="43.45827" lon="0.74315">
        <ele>186.7</ele>
        <time>2016-06-15T12:31:24.000Z</time>
      </trkpt>
      <trkpt lat="43.4582" lon="0.74307">
        <ele>186.5</ele>
        <time>2016-06-15T12:31:32.000Z</time>
      </trkpt>
      <trkpt lat="43.45813" lon="0.74298">
        <ele>186.2</ele>
        <time>2016-06-15T12:31:39.000Z</time>
      </trkpt>
      <trkpt lat="43.45806" lon="0.74289">
        <ele>185.9</ele>
        <time>2016-06-15T12:31:47.000Z</time>
      </trkpt>
      <trkpt lat="43.45799" lon="0.74281">
        <ele>185.5</ele>
        <time>2016-06-15T12:31:55.000Z</time>
      </trkpt>
      <trkpt lat="43.45791" lon="0.74273">
        <ele>185</ele>
        <time>2016-06-15T12:32:3.000Z</time>
      </trkpt>
      <trkpt lat="43.45784" lon="0.74265">
        <ele>184.6</ele>
        <time>2016-06-15T12:32:11.000Z</time>
      </trkpt>
      <trkpt lat="43.45777" lon="0.74256">
        <ele>184.3</ele>
        <time>2016-06-15T12:32:18.000Z</time>
      </trkpt>
      <trkpt lat="43.4577" lon="0.74248">
        <ele>184.1</ele>
        <time>2016-06-15T12:32:26.000Z</time>
      </trkpt>
      <trkpt lat="43.45764" lon="0.74238">
        <ele>183.8</ele>
        <time>2016-06-15T12:32:34.000Z</time>
      </trkpt>
      <trkpt lat="43.45758" lon="0.74228">
        <ele>183.4</ele>
        <time>2016-06-15T12:32:42.000Z</time>
      </trkpt>
      <trkpt lat="43.45753" lon="0.74217">
        <ele>183.1</ele>
        <time>2016-06-15T12:32:50.000Z</time>
      </trkpt>
      <trkpt lat="43.45748" lon="0.74206">
        <ele>182.9</ele>
        <time>2016-06-15T12:32:58.000Z</time>
      </trkpt>
      <trkpt lat="43.45742" lon="0.74197">
        <ele>182.7</ele>
        <time>2016-06-15T12:33:6.000Z</time>
      </trkpt>
      <trkpt lat="43.45734" lon="0.74189">
        <ele>182.7</ele>
        <time>2016-06-15T12:33:14.000Z</time>
      </trkpt>
      <trkpt lat="43.45727" lon="0.74181">
        <ele>182.7</ele>
        <time>2016-06-15T12:33:22.000Z</time>
      </trkpt>
      <trkpt lat="43.4572" lon="0.74173">
        <ele>182.8</ele>
        <time>2016-06-15T12:33:30.000Z</time>
      </trkpt>
      <trkpt lat="43.45712" lon="0.74167">
        <ele>182.8</ele>
        <time>2016-06-15T12:33:38.000Z</time>
      </trkpt>
      <trkpt lat="43.45704" lon="0.74159">
        <ele>182.8</ele>
        <time>2016-06-15T12:33:45.000Z</time>
      </trkpt>
      <trkpt lat="43.45696" lon="0.74154">
        <ele>182.7</ele>
        <time>2016-06-15T12:33:54.000Z</time>
      </trkpt>
      <trkpt lat="43.45687" lon="0.7415">
        <ele>182.7</ele>
        <time>2016-06-15T12:34:2.000Z</time>
      </trkpt>
      <trkpt lat="43.45677" lon="0.74147">
        <ele>182.8</ele>
        <time>2016-06-15T12:34:11.000Z</time>
      </trkpt>
      <trkpt lat="43.45667" lon="0.74144">
        <ele>182.8</ele>
        <time>2016-06-15T12:34:18.000Z</time>
      </trkpt>
      <trkpt lat="43.45658" lon="0.7414">
        <ele>182.8</ele>
        <time>2016-06-15T12:34:26.000Z</time>
      </trkpt>
      <trkpt lat="43.45648" lon="0.74138">
        <ele>182.8</ele>
        <time>2016-06-15T12:34:35.000Z</time>
      </trkpt>
      <trkpt lat="43.45638" lon="0.74134">
        <ele>182.8</ele>
        <time>2016-06-15T12:34:44.000Z</time>
      </trkpt>
      <trkpt lat="43.4563" lon="0.74127">
        <ele>182.8</ele>
        <time>2016-06-15T12:34:52.000Z</time>
      </trkpt>
      <trkpt lat="43.45621" lon="0.74122">
        <ele>182.7</ele>
        <time>2016-06-15T12:35:0.000Z</time>
      </trkpt>
      <trkpt lat="43.45613" lon="0.74114">
        <ele>182.7</ele>
        <time>2016-06-15T12:35:8.000Z</time>
      </trkpt>
      <trkpt lat="43.45605" lon="0.74106">
        <ele>182.6</ele>
        <time>2016-06-15T12:35:15.000Z</time>
      </trkpt>
      <trkpt lat="43.456" lon="0.74095">
        <ele>182.6</ele>
        <time>2016-06-15T12:35:22.000Z</time>
      </trkpt>
      <trkpt lat="43.45594" lon="0.74085">
        <ele>182.6</ele>
        <time>2016-06-15T12:35:28.000Z</time>
      </trkpt>
      <trkpt lat="43.45592" lon="0.74073">
        <ele>182.7</ele>
        <time>2016-06-15T12:35:36.000Z</time>
      </trkpt>
      <trkpt lat="43.45589" lon="0.74061">
        <ele>182.8</ele>
        <time>2016-06-15T12:35:43.000Z</time>
      </trkpt>
      <trkpt lat="43.45588" lon="0.74047">
        <ele>183</ele>
        <time>2016-06-15T12:35:51.000Z</time>
      </trkpt>
      <trkpt lat="43.45586" lon="0.74033">
        <ele>183.1</ele>
        <time>2016-06-15T12:35:59.000Z</time>
      </trkpt>
      <trkpt lat="43.45584" lon="0.74021">
        <ele>183.2</ele>
        <time>2016-06-15T12:36:6.000Z</time>
      </trkpt>
      <trkpt lat="43.45582" lon="0.74008">
        <ele>183.3</ele>
        <time>2016-06-15T12:36:14.000Z</time>
      </trkpt>
      <trkpt lat="43.45579" lon="0.73994">
        <ele>183.4</ele>
        <time>2016-06-15T12:36:22.000Z</time>
      </trkpt>
      <trkpt lat="43.45576" lon="0.73981">
        <ele>183.5</ele>
        <time>2016-06-15T12:36:30.000Z</time>
      </trkpt>
      <trkpt lat="43.45572" lon="0.73968">
        <ele>183.5</ele>
        <time>2016-06-15T12:36:38.000Z</time>
      </trkpt>
      <trkpt lat="43.45568" lon="0.73956">
        <ele>183.6</ele>
        <time>2016-06-15T12:36:45.000Z</time>
      </trkpt>
      <trkpt lat="43.45564" lon="0.73944">
        <ele>183.7</ele>
        <time>2016-06-15T12:36:53.000Z</time>
      </trkpt>
      <trkpt lat="43.4556" lon="0.73932">
        <ele>183.8</ele>
        <time>2016-06-15T12:37:0.000Z</time>
      </trkpt>
      <trkpt lat="43.45555" lon="0.73921">
        <ele>183.9</ele>
        <time>2016-06-15T12:37:7.000Z</time>
      </trkpt>
      <trkpt lat="43.45548" lon="0.73913">
        <ele>184</ele>
        <time>2016-06-15T12:37:14.000Z</time>
      </trkpt>
      <trkpt lat="43.4554" lon="0.73907">
        <ele>184.2</ele>
        <time>2016-06-15T12:37:22.000Z</time>
      </trkpt>
      <trkpt lat="43.45532" lon="0.739">
        <ele>184.4</ele>
        <time>2016-06-15T12:37:29.000Z</time>
      </trkpt>
      <trkpt lat="43.45526" lon="0.73889">
        <ele>184.6</ele>
        <time>2016-06-15T12:37:37.000Z</time>
      </trkpt>
      <trkpt lat="43.45523" lon="0.73877">
        <ele>184.8</ele>
        <time>2016-06-15T12:37:44.000Z</time>
      </trkpt>
      <trkpt lat="43.45523" lon="0.73863">
        <ele>184.9</ele>
        <time>2016-06-15T12:37:53.000Z</time>
      </trkpt>
      <trkpt lat="43.45524" lon="0.7385">
        <ele>185</ele>
        <time>2016-06-15T12:38:2.000Z</time>
      </trkpt>
      <trkpt lat="43.45523" lon="0.73836">
        <ele>185.2</ele>
        <time>2016-06-15T12:38:11.000Z</time>
      </trkpt>
      <trkpt lat="43.45522" lon="0.73823">
        <ele>185.4</ele>
        <time>2016-06-15T12:38:19.000Z</time>
      </trkpt>
      <trkpt lat="43.4552" lon="0.73811">
        <ele>185.5</ele>
        <time>2016-06-15T12:38:26.000Z</time>
      </trkpt>
      <trkpt lat="43.45519" lon="0.73799">
        <ele>185.6</ele>
        <time>2016-06-15T12:38:34.000Z</time>
      </trkpt>
      <trkpt lat="43.45517" lon="0.73785">
        <ele>185.7</ele>
        <time>2016-06-15T12:38:43.000Z</time>
      </trkpt>
      <trkpt lat="43.45515" lon="0.73771">
        <ele>185.8</ele>
        <time>2016-06-15T12:38:51.000Z</time>
      </trkpt>
      <trkpt lat="43.45513" lon="0.73758">
        <ele>185.9</ele>
        <time>2016-06-15T12:38:58.000Z</time>
      </trkpt>
      <trkpt lat="43.4551" lon="0.73746">
        <ele>186</ele>
        <time>2016-06-15T12:39:6.000Z</time>
      </trkpt>
      <trkpt lat="43.45504" lon="0.73737">
        <ele>186.1</ele>
        <time>2016-06-15T12:39:13.000Z</time>
      </trkpt>
      <trkpt lat="43.45494" lon="0.73732">
        <ele>186.4</ele>
        <time>2016-06-15T12:39:20.000Z</time>
      </trkpt>
      <trkpt lat="43.45484" lon="0.73731">
        <ele>186.6</ele>
        <time>2016-06-15T12:39:26.000Z</time>
      </trkpt>
      <trkpt lat="43.45475" lon="0.73729">
        <ele>186.8</ele>
        <time>2016-06-15T12:39:33.000Z</time>
      </trkpt>
      <trkpt lat="43.45466" lon="0.73726">
        <ele>187</ele>
        <time>2016-06-15T12:39:40.000Z</time>
      </trkpt>
      <trkpt lat="43.45457" lon="0.73724">
        <ele>187.2</ele>
        <time>2016-06-15T12:39:47.000Z</time>
      </trkpt>
      <trkpt lat="43.45447" lon="0.73722">
        <ele>187.4</ele>
        <time>2016-06-15T12:39:54.000Z</time>
      </trkpt>
      <trkpt lat="43.45438" lon="0.7372">
        <ele>187.5</ele>
        <time>2016-06-15T12:40:1.000Z</time>
      </trkpt>
      <trkpt lat="43.45429" lon="0.73716">
        <ele>187.7</ele>
        <time>2016-06-15T12:40:8.000Z</time>
      </trkpt>
      <trkpt lat="43.4542" lon="0.73711">
        <ele>187.8</ele>
        <time>2016-06-15T12:40:16.000Z</time>
      </trkpt>
      <trkpt lat="43.45411" lon="0.73707">
        <ele>188</ele>
        <time>2016-06-15T12:40:26.000Z</time>
      </trkpt>
      <trkpt lat="43.45402" lon="0.73704">
        <ele>188.2</ele>
        <time>2016-06-15T12:40:36.000Z</time>
      </trkpt>
      <trkpt lat="43.45392" lon="0.73704">
        <ele>188.3</ele>
        <time>2016-06-15T12:40:45.000Z</time>
      </trkpt>
      <trkpt lat="43.45384" lon="0.73701">
        <ele>188.5</ele>
        <time>2016-06-15T12:40:52.000Z</time>
      </trkpt>
      <trkpt lat="43.45375" lon="0.73694">
        <ele>189.5</ele>
        <time>2016-06-15T12:42:24.000Z</time>
      </trkpt>
      <trkpt lat="43.45365" lon="0.73691">
        <ele>189.7</ele>
        <time>2016-06-15T12:42:32.000Z</time>
      </trkpt>
      <trkpt lat="43.45356" lon="0.73688">
        <ele>189.9</ele>
        <time>2016-06-15T12:42:38.000Z</time>
      </trkpt>
      <trkpt lat="43.45347" lon="0.73684">
        <ele>190.1</ele>
        <time>2016-06-15T12:42:46.000Z</time>
      </trkpt>
      <trkpt lat="43.45338" lon="0.73681">
        <ele>190.2</ele>
        <time>2016-06-15T12:42:53.000Z</time>
      </trkpt>
      <trkpt lat="43.45329" lon="0.73677">
        <ele>190.3</ele>
        <time>2016-06-15T12:43:0.000Z</time>
      </trkpt>
      <trkpt lat="43.4532" lon="0.73673">
        <ele>190.4</ele>
        <time>2016-06-15T12:43:7.000Z</time>
      </trkpt>
      <trkpt lat="43.45311" lon="0.73669">
        <ele>190.5</ele>
        <time>2016-06-15T12:43:20.000Z</time>
      </trkpt>
      <trkpt lat="43.45301" lon="0.73666">
        <ele>190.7</ele>
        <time>2016-06-15T12:43:28.000Z</time>
      </trkpt>
      <trkpt lat="43.45293" lon="0.73663">
        <ele>190.9</ele>
        <time>2016-06-15T12:43:35.000Z</time>
      </trkpt>
      <trkpt lat="43.45283" lon="0.7366">
        <ele>191</ele>
        <time>2016-06-15T12:43:42.000Z</time>
      </trkpt>
      <trkpt lat="43.45274" lon="0.73656">
        <ele>191.3</ele>
        <time>2016-06-15T12:43:49.000Z</time>
      </trkpt>
      <trkpt lat="43.45264" lon="0.73653">
        <ele>191.5</ele>
        <time>2016-06-15T12:43:57.000Z</time>
      </trkpt>
      <trkpt lat="43.45255" lon="0.73649">
        <ele>191.8</ele>
        <time>2016-06-15T12:44:4.000Z</time>
      </trkpt>
      <trkpt lat="43.45245" lon="0.73646">
        <ele>192</ele>
        <time>2016-06-15T12:44:12.000Z</time>
      </trkpt>
      <trkpt lat="43.45235" lon="0.73642">
        <ele>192.1</ele>
        <time>2016-06-15T12:44:20.000Z</time>
      </trkpt>
      <trkpt lat="43.45225" lon="0.73638">
        <ele>192.2</ele>
        <time>2016-06-15T12:44:28.000Z</time>
      </trkpt>
      <trkpt lat="43.45216" lon="0.73633">
        <ele>192.4</ele>
        <time>2016-06-15T12:44:36.000Z</time>
      </trkpt>
      <trkpt lat="43.45208" lon="0.73631">
        <ele>192.4</ele>
        <time>2016-06-15T12:44:43.000Z</time>
      </trkpt>
      <trkpt lat="43.45198" lon="0.73628">
        <ele>192.5</ele>
        <time>2016-06-15T12:44:50.000Z</time>
      </trkpt>
      <trkpt lat="43.45189" lon="0.73624">
        <ele>192.6</ele>
        <time>2016-06-15T12:44:57.000Z</time>
      </trkpt>
      <trkpt lat="43.45181" lon="0.73619">
        <ele>192.7</ele>
        <time>2016-06-15T12:45:4.000Z</time>
      </trkpt>
      <trkpt lat="43.45172" lon="0.73615">
        <ele>192.8</ele>
        <time>2016-06-15T12:45:12.000Z</time>
      </trkpt>
      <trkpt lat="43.45162" lon="0.73613">
        <ele>192.9</ele>
        <time>2016-06-15T12:45:20.000Z</time>
      </trkpt>
      <trkpt lat="43.45153" lon="0.73611">
        <ele>193</ele>
        <time>2016-06-15T12:45:28.000Z</time>
      </trkpt>
      <trkpt lat="43.45144" lon="0.7361">
        <ele>193</ele>
        <time>2016-06-15T12:45:34.000Z</time>
      </trkpt>
      <trkpt lat="43.45133" lon="0.73608">
        <ele>193.1</ele>
        <time>2016-06-15T12:45:41.000Z</time>
      </trkpt>
      <trkpt lat="43.45123" lon="0.7361">
        <ele>193.2</ele>
        <time>2016-06-15T12:45:49.000Z</time>
      </trkpt>
      <trkpt lat="43.45114" lon="0.73612">
        <ele>193.3</ele>
        <time>2016-06-15T12:45:57.000Z</time>
      </trkpt>
      <trkpt lat="43.45105" lon="0.73616">
        <ele>193.3</ele>
        <time>2016-06-15T12:46:6.000Z</time>
      </trkpt>
      <trkpt lat="43.45095" lon="0.73617">
        <ele>193.6</ele>
        <time>2016-06-15T12:46:16.000Z</time>
      </trkpt>
      <trkpt lat="43.45085" lon="0.73616">
        <ele>193.9</ele>
        <time>2016-06-15T12:46:27.000Z</time>
      </trkpt>
      <trkpt lat="43.45076" lon="0.73613">
        <ele>194.2</ele>
        <time>2016-06-15T12:46:36.000Z</time>
      </trkpt>
      <trkpt lat="43.45067" lon="0.73607">
        <ele>194.4</ele>
        <time>2016-06-15T12:46:46.000Z</time>
      </trkpt>
      <trkpt lat="43.45058" lon="0.73604">
        <ele>194.7</ele>
        <time>2016-06-15T12:46:55.000Z</time>
      </trkpt>
      <trkpt lat="43.45048" lon="0.73594">
        <ele>195.6</ele>
        <time>2016-06-15T12:47:24.000Z</time>
      </trkpt>
      <trkpt lat="43.45041" lon="0.73585">
        <ele>196.1</ele>
        <time>2016-06-15T12:47:37.000Z</time>
      </trkpt>
      <trkpt lat="43.45033" lon="0.73577">
        <ele>196.4</ele>
        <time>2016-06-15T12:47:52.000Z</time>
      </trkpt>
      <trkpt lat="43.45032" lon="0.73563">
        <ele>196.7</ele>
        <time>2016-06-15T12:48:3.000Z</time>
      </trkpt>
      <trkpt lat="43.45037" lon="0.73536">
        <ele>201.3</ele>
        <time>2016-06-15T12:53:29.000Z</time>
      </trkpt>
      <trkpt lat="43.45037" lon="0.73527">
        <ele>203.2</ele>
        <time>2016-06-15T12:53:47.000Z</time>
      </trkpt>
      <trkpt lat="43.45038" lon="0.73517">
        <ele>203.4</ele>
        <time>2016-06-15T12:53:57.000Z</time>
      </trkpt>
      <trkpt lat="43.45038" lon="0.73506">
        <ele>202</ele>
        <time>2016-06-15T12:54:5.000Z</time>
      </trkpt>
      <trkpt lat="43.45032" lon="0.73496">
        <ele>202.6</ele>
        <time>2016-06-15T12:54:35.000Z</time>
      </trkpt>
      <trkpt lat="43.45023" lon="0.7349">
        <ele>202.8</ele>
        <time>2016-06-15T12:54:45.000Z</time>
      </trkpt>
      <trkpt lat="43.45014" lon="0.73486">
        <ele>202.9</ele>
        <time>2016-06-15T12:54:52.000Z</time>
      </trkpt>
      <trkpt lat="43.45005" lon="0.73484">
        <ele>203</ele>
        <time>2016-06-15T12:55:3.000Z</time>
      </trkpt>
      <trkpt lat="43.44996" lon="0.73483">
        <ele>203.2</ele>
        <time>2016-06-15T12:55:16.000Z</time>
      </trkpt>
      <trkpt lat="43.44993" lon="0.73496">
        <ele>203.8</ele>
        <time>2016-06-15T12:56:59.000Z</time>
      </trkpt>
      <trkpt lat="43.44984" lon="0.73504">
        <ele>203.7</ele>
        <time>2016-06-15T12:57:15.000Z</time>
      </trkpt>
      <trkpt lat="43.4498" lon="0.73516">
        <ele>203.6</ele>
        <time>2016-06-15T12:57:24.000Z</time>
      </trkpt>
      <trkpt lat="43.44981" lon="0.73529">
        <ele>203.6</ele>
        <time>2016-06-15T12:57:32.000Z</time>
      </trkpt>
      <trkpt lat="43.44985" lon="0.73541">
        <ele>203.5</ele>
        <time>2016-06-15T12:57:40.000Z</time>
      </trkpt>
      <trkpt lat="43.44978" lon="0.73551">
        <ele>202.9</ele>
        <time>2016-06-15T12:57:47.000Z</time>
      </trkpt>
      <trkpt lat="43.44976" lon="0.73564">
        <ele>197.6</ele>
        <time>2016-06-15T12:57:55.000Z</time>
      </trkpt>
      <trkpt lat="43.44978" lon="0.73577">
        <ele>202.5</ele>
        <time>2016-06-15T12:58:3.000Z</time>
      </trkpt>
      <trkpt lat="43.4497" lon="0.73581">
        <ele>203.8</ele>
        <time>2016-06-15T12:58:11.000Z</time>
      </trkpt>
      <trkpt lat="43.44961" lon="0.73584">
        <ele>203.8</ele>
        <time>2016-06-15T12:58:18.000Z</time>
      </trkpt>
      <trkpt lat="43.44951" lon="0.73583">
        <ele>203.4</ele>
        <time>2016-06-15T12:58:26.000Z</time>
      </trkpt>
      <trkpt lat="43.44941" lon="0.73584">
        <ele>202.8</ele>
        <time>2016-06-15T12:58:35.000Z</time>
      </trkpt>
      <trkpt lat="43.44932" lon="0.73583">
        <ele>202.3</ele>
        <time>2016-06-15T12:58:43.000Z</time>
      </trkpt>
      <trkpt lat="43.4493" lon="0.7357">
        <ele>202.1</ele>
        <time>2016-06-15T12:58:49.000Z</time>
      </trkpt>
      <trkpt lat="43.44931" lon="0.73557">
        <ele>201.9</ele>
        <time>2016-06-15T12:58:56.000Z</time>
      </trkpt>
      <trkpt lat="43.44931" lon="0.73544">
        <ele>201.6</ele>
        <time>2016-06-15T12:59:5.000Z</time>
      </trkpt>
      <trkpt lat="43.44931" lon="0.73531">
        <ele>201.5</ele>
        <time>2016-06-15T12:59:13.000Z</time>
      </trkpt>
      <trkpt lat="43.44931" lon="0.73517">
        <ele>201.4</ele>
        <time>2016-06-15T12:59:22.000Z</time>
      </trkpt>
      <trkpt lat="43.44932" lon="0.73504">
        <ele>201.3</ele>
        <time>2016-06-15T12:59:30.000Z</time>
      </trkpt>
      <trkpt lat="43.44935" lon="0.73491">
        <ele>201.5</ele>
        <time>2016-06-15T12:59:39.000Z</time>
      </trkpt>
      <trkpt lat="43.44936" lon="0.73478">
        <ele>201.6</ele>
        <time>2016-06-15T12:59:47.000Z</time>
      </trkpt>
      <trkpt lat="43.44938" lon="0.73466">
        <ele>201.7</ele>
        <time>2016-06-15T12:59:54.000Z</time>
      </trkpt>
      <trkpt lat="43.4494" lon="0.73452">
        <ele>201.8</ele>
        <time>2016-06-15T13:00:3.000Z</time>
      </trkpt>
      <trkpt lat="43.44942" lon="0.73439">
        <ele>202</ele>
        <time>2016-06-15T13:00:11.000Z</time>
      </trkpt>
      <trkpt lat="43.44942" lon="0.73426">
        <ele>202.3</ele>
        <time>2016-06-15T13:00:22.000Z</time>
      </trkpt>
      <trkpt lat="43.44935" lon="0.73419">
        <ele>202.8</ele>
        <time>2016-06-15T13:00:41.000Z</time>
      </trkpt>
      <trkpt lat="43.44932" lon="0.73418">
        <ele>205.4</ele>
        <time>2016-06-15T13:01:36.000Z</time>
      </trkpt>
    </trkseg>
  </trk>
</gpx>